Darstellungsparameter: Aktuell verwendete Einstellungen:
Skalierung der Graphiken ... ?
xyx+y,   Skalierungsfaktor:      Skalierung: Modus: x, Faktor: 1
Darstellungszeitraum ... ?
Vom - - bis: - -   Zeitraum: 29.01.2019 - 18.02.2019
Min/Max/Avg-Anzeige ... ?
Zeige MMA aktuell
Zeige MMA Monat
Zeige MMA alles
Zeige --A aktuell
Zeige --A Monat
Zeige --A alles
Keine MMA-Anzeige
MMA:
Average (ber die Originaldaten)
MMA-Basis: 29.01.2019 - 18.02.2019
Quicknavigation für Darstellung... ?
Tage:      1T, 2T, 3T, 5T -1T -2T -3T -5T +1T +2T +3T +5T
Wochen: 1W, 2W, 3W -1W -2W -3W +1W +2W +3W
Monate: 1M, 3M, 6M -1M -3M -6M +1M +3M +6M
Jahre:    1J, 3J, 5J, 10J -1J -3J -5J -10J +1J +3J +5J +10J
Nutze für die Darstellung ... ?
Originaldaten oder Mittelwerte auf ...
Stundenbasis Tagesbasis Wochenbasis
Monatsbasis Jahresbasis      Datenbasis: Original-Daten
Darstellen als:
Statistik (Auto) Statistik J:M      Darstellung:
Zur Graphik,    zurück zur Übersicht aller Sensoren.
 
Tabellarische Datenbersicht: ?
 
Sensor: Nr:Datum:Temp:Feuchte:Taupunkt:
Aussen-T/F 1 29-01-2019 00:00:00 2.9 C 88 % 1.11 C
2 29-01-2019 00:05:00 2.9 C 88 % 1.11 C
3 29-01-2019 00:10:00 2.8 C 88 % 1.02 C
4 29-01-2019 00:15:00 2.8 C 89 % 1.17 C
5 29-01-2019 00:20:00 2.8 C 89 % 1.17 C
6 29-01-2019 00:25:00 2.7 C 89 % 1.07 C
7 29-01-2019 00:30:00 2.7 C 89 % 1.07 C
8 29-01-2019 00:35:00 2.7 C 89 % 1.07 C
9 29-01-2019 00:40:00 2.7 C 89 % 1.07 C
10 29-01-2019 00:45:00 2.7 C 89 % 1.07 C
11 29-01-2019 00:50:00 2.7 C 89 % 1.07 C
12 29-01-2019 00:55:00 2.6 C 90 % 1.13 C
13 29-01-2019 01:00:00 2.6 C 90 % 1.13 C
14 29-01-2019 01:05:00 2.6 C 90 % 1.13 C
15 29-01-2019 01:10:00 2.6 C 90 % 1.13 C
16 29-01-2019 01:15:00 2.5 C 90 % 1.03 C
17 29-01-2019 01:20:00 2.6 C 90 % 1.13 C
18 29-01-2019 01:25:00 2.5 C 90 % 1.03 C
19 29-01-2019 01:30:00 2.4 C 91 % 1.08 C
20 29-01-2019 01:35:00 2.3 C 91 % 0.99 C
21 29-01-2019 01:40:00 2.2 C 91 % 0.89 C
22 29-01-2019 01:45:00 2.1 C 92 % 0.94 C
23 29-01-2019 01:50:00 2.1 C 92 % 0.94 C
24 29-01-2019 01:55:00 2.1 C 92 % 0.94 C
25 29-01-2019 02:00:00 2.1 C 92 % 0.94 C
Sensor: Nr:Datum:Temp:Feuchte:Taupunkt:
Aussen-T/F 26 29-01-2019 02:05:00 2 C 92 % 0.84 C
27 29-01-2019 02:10:00 1.9 C 92 % 0.74 C
28 29-01-2019 02:15:00 1.9 C 93 % 0.89 C
29 29-01-2019 02:20:00 1.9 C 93 % 0.89 C
30 29-01-2019 02:25:00 1.9 C 93 % 0.89 C
31 29-01-2019 02:30:00 1.9 C 93 % 0.89 C
32 29-01-2019 02:35:00 1.9 C 93 % 0.89 C
33 29-01-2019 02:40:00 1.9 C 93 % 0.89 C
34 29-01-2019 02:45:00 1.9 C 93 % 0.89 C
35 29-01-2019 02:50:00 1.9 C 93 % 0.89 C
36 29-01-2019 02:55:00 1.8 C 93 % 0.79 C
37 29-01-2019 03:00:00 1.7 C 93 % 0.69 C
38 29-01-2019 03:05:00 1.7 C 93 % 0.69 C
39 29-01-2019 03:10:00 1.7 C 94 % 0.84 C
40 29-01-2019 03:15:00 1.7 C 94 % 0.84 C
41 29-01-2019 03:20:00 1.7 C 94 % 0.84 C
42 29-01-2019 03:25:00 1.6 C 94 % 0.74 C
43 29-01-2019 03:30:00 1.6 C 94 % 0.74 C
44 29-01-2019 03:35:00 1.6 C 94 % 0.74 C
45 29-01-2019 03:40:00 1.6 C 94 % 0.74 C
46 29-01-2019 03:45:00 1.5 C 94 % 0.64 C
47 29-01-2019 03:50:00 1.4 C 94 % 0.54 C
48 29-01-2019 03:55:00 1.3 C 94 % 0.44 C
49 29-01-2019 04:00:00 1.2 C 94 % 0.34 C
50 29-01-2019 04:05:00 1.2 C 94 % 0.34 C
Sensor: Nr:Datum:Temp:Feuchte:Taupunkt:
Aussen-T/F 51 29-01-2019 04:10:00 1.1 C 94 % 0.24 C
52 29-01-2019 04:15:00 1.1 C 94 % 0.24 C
53 29-01-2019 04:20:00 1.1 C 94 % 0.24 C
54 29-01-2019 04:25:00 1 C 94 % 0.15 C
55 29-01-2019 04:30:00 1 C 94 % 0.15 C
56 29-01-2019 04:35:00 0.9 C 94 % 0.05 C
57 29-01-2019 04:40:00 0.9 C 94 % 0.05 C
58 29-01-2019 04:45:00 1 C 94 % 0.15 C
59 29-01-2019 04:50:00 1.1 C 94 % 0.24 C
60 29-01-2019 04:55:00 0.9 C 94 % 0.05 C
61 29-01-2019 05:00:00 0.8 C 94 % -0.05 C
62 29-01-2019 05:05:00 0.8 C 94 % -0.05 C
63 29-01-2019 05:10:00 0.7 C 94 % -0.15 C
64 29-01-2019 05:15:00 0.7 C 94 % -0.15 C
65 29-01-2019 05:20:00 0.7 C 94 % -0.15 C
66 29-01-2019 05:25:00 0.6 C 94 % -0.25 C
67 29-01-2019 05:30:00 0.6 C 94 % -0.25 C
68 29-01-2019 05:35:00 0.6 C 94 % -0.25 C
69 29-01-2019 05:40:00 0.6 C 94 % -0.25 C
70 29-01-2019 05:45:00 0.7 C 95 % -0.01 C
71 29-01-2019 05:50:00 0.7 C 95 % -0.01 C
72 29-01-2019 05:55:00 0.8 C 95 % 0.09 C
73 29-01-2019 06:00:00 0.9 C 95 % 0.19 C
74 29-01-2019 06:05:00 1 C 95 % 0.29 C
75 29-01-2019 06:10:00 1 C 95 % 0.29 C
Sensor: Nr:Datum:Temp:Feuchte:Taupunkt:
Aussen-T/F 76 29-01-2019 06:15:00 0.9 C 95 % 0.19 C
77 29-01-2019 06:20:00 0.9 C 94 % 0.05 C
78 29-01-2019 06:25:00 0.9 C 95 % 0.19 C
79 29-01-2019 06:30:00 0.9 C 95 % 0.19 C
80 29-01-2019 06:35:00 0.9 C 95 % 0.19 C
81 29-01-2019 06:40:00 0.9 C 95 % 0.19 C
82 29-01-2019 06:45:00 1 C 95 % 0.29 C
83 29-01-2019 06:50:00 1 C 95 % 0.29 C
84 29-01-2019 06:55:00 1.1 C 94 % 0.24 C
85 29-01-2019 07:00:00 1.1 C 94 % 0.24 C
86 29-01-2019 07:05:00 1.1 C 94 % 0.24 C
87 29-01-2019 07:10:00 1.1 C 94 % 0.24 C
88 29-01-2019 07:15:00 1.1 C 94 % 0.24 C
89 29-01-2019 07:20:00 1.2 C 94 % 0.34 C
90 29-01-2019 07:25:00 1.1 C 94 % 0.24 C
91 29-01-2019 07:30:00 1.1 C 94 % 0.24 C
92 29-01-2019 07:35:00 1.2 C 94 % 0.34 C
93 29-01-2019 07:40:00 1.2 C 94 % 0.34 C
94 29-01-2019 07:45:00 1.2 C 95 % 0.49 C
95 29-01-2019 07:50:00 1.2 C 94 % 0.34 C
96 29-01-2019 07:55:00 1.2 C 94 % 0.34 C
97 29-01-2019 08:00:00 1.2 C 94 % 0.34 C
98 29-01-2019 08:05:00 1.2 C 94 % 0.34 C
99 29-01-2019 08:10:00 1.2 C 94 % 0.34 C
100 29-01-2019 08:15:00 1.2 C 94 % 0.34 C
Sensor: Nr:Datum:Temp:Feuchte:Taupunkt:
Aussen-T/F 101 29-01-2019 08:20:00 1.2 C 94 % 0.34 C
102 29-01-2019 08:25:00 1.2 C 94 % 0.34 C
103 29-01-2019 08:30:00 1.2 C 94 % 0.34 C
104 29-01-2019 08:35:00 1.2 C 94 % 0.34 C
105 29-01-2019 08:40:00 1.2 C 94 % 0.34 C
106 29-01-2019 08:45:00 1.2 C 94 % 0.34 C
107 29-01-2019 08:50:00 1.1 C 94 % 0.24 C
108 29-01-2019 08:55:00 1.1 C 94 % 0.24 C
109 29-01-2019 09:00:00 1 C 94 % 0.15 C
110 29-01-2019 09:05:00 0.9 C 94 % 0.05 C
111 29-01-2019 09:10:00 0.9 C 94 % 0.05 C
112 29-01-2019 09:15:00 0.8 C 94 % -0.05 C
113 29-01-2019 09:20:00 0.8 C 94 % -0.05 C
114 29-01-2019 09:25:00 0.8 C 94 % -0.05 C
115 29-01-2019 09:30:00 0.9 C 94 % 0.05 C
116 29-01-2019 09:35:00 0.9 C 94 % 0.05 C
117 29-01-2019 09:40:00 1.1 C 94 % 0.24 C
118 29-01-2019 09:45:00 1.2 C 94 % 0.34 C
119 29-01-2019 09:50:00 1.3 C 94 % 0.44 C
120 29-01-2019 09:55:00 1.5 C 94 % 0.64 C
121 29-01-2019 10:00:00 1.6 C 93 % 0.59 C
122 29-01-2019 10:05:00 1.7 C 93 % 0.69 C
123 29-01-2019 10:10:00 1.8 C 92 % 0.64 C
124 29-01-2019 10:15:00 1.9 C 92 % 0.74 C
125 29-01-2019 10:20:00 2 C 92 % 0.84 C
Sensor: Nr:Datum:Temp:Feuchte:Taupunkt:
Aussen-T/F 126 29-01-2019 10:25:00 2.1 C 91 % 0.79 C
127 29-01-2019 10:30:00 2.2 C 91 % 0.89 C
128 29-01-2019 10:35:00 2.2 C 90 % 0.73 C
129 29-01-2019 10:40:00 2.3 C 90 % 0.83 C
130 29-01-2019 10:45:00 2.3 C 90 % 0.83 C
131 29-01-2019 10:50:00 2.3 C 89 % 0.68 C
132 29-01-2019 10:55:00 2.4 C 89 % 0.78 C
133 29-01-2019 11:00:00 2.5 C 89 % 0.88 C
134 29-01-2019 11:05:00 2.6 C 89 % 0.97 C
135 29-01-2019 11:10:00 2.7 C 88 % 0.92 C
136 29-01-2019 11:15:00 2.8 C 88 % 1.02 C
137 29-01-2019 11:20:00 2.8 C 88 % 1.02 C
138 29-01-2019 11:25:00 2.9 C 88 % 1.11 C
139 29-01-2019 11:30:00 2.9 C 88 % 1.11 C
140 29-01-2019 11:35:00 3 C 88 % 1.21 C
141 29-01-2019 11:40:00 3.1 C 87 % 1.15 C
142 29-01-2019 11:45:00 3.2 C 87 % 1.25 C
143 29-01-2019 11:50:00 3.2 C 87 % 1.25 C
144 29-01-2019 11:55:00 3.3 C 87 % 1.35 C
145 29-01-2019 12:00:00 3.4 C 86 % 1.29 C
146 29-01-2019 12:05:00 3.4 C 86 % 1.29 C
147 29-01-2019 12:10:00 3.5 C 86 % 1.38 C
148 29-01-2019 12:15:00 3.5 C 86 % 1.38 C
149 29-01-2019 12:20:00 3.6 C 86 % 1.48 C
150 29-01-2019 12:25:00 3.6 C 86 % 1.48 C
Sensor: Nr:Datum:Temp:Feuchte:Taupunkt:
Aussen-T/F 151 29-01-2019 12:30:00 3.7 C 86 % 1.58 C
152 29-01-2019 12:35:00 3.7 C 85 % 1.42 C
153 29-01-2019 12:40:00 3.8 C 85 % 1.52 C
154 29-01-2019 12:45:00 3.8 C 84 % 1.35 C
155 29-01-2019 12:50:00 3.8 C 84 % 1.35 C
156 29-01-2019 12:55:00 3.8 C 84 % 1.35 C
157 29-01-2019 13:00:00 3.8 C 84 % 1.35 C
158 29-01-2019 13:05:00 3.9 C 84 % 1.45 C
159 29-01-2019 13:10:00 3.9 C 84 % 1.45 C
160 29-01-2019 13:15:00 4 C 84 % 1.55 C
161 29-01-2019 13:20:00 4 C 84 % 1.55 C
162 29-01-2019 13:25:00 3.9 C 84 % 1.45 C
163 29-01-2019 13:30:00 4 C 84 % 1.55 C
164 29-01-2019 13:35:00 4 C 84 % 1.55 C
165 29-01-2019 13:40:00 4.1 C 84 % 1.65 C
166 29-01-2019 13:45:00 4 C 84 % 1.55 C
167 29-01-2019 13:50:00 4 C 83 % 1.38 C
168 29-01-2019 13:55:00 4 C 84 % 1.55 C
169 29-01-2019 14:00:00 4 C 83 % 1.38 C
170 29-01-2019 14:05:00 4.1 C 83 % 1.48 C
171 29-01-2019 14:10:00 4 C 83 % 1.38 C
172 29-01-2019 14:15:00 4 C 83 % 1.38 C
173 29-01-2019 14:20:00 3.9 C 82 % 1.12 C
174 29-01-2019 14:25:00 3.9 C 83 % 1.28 C
175 29-01-2019 14:30:00 3.8 C 83 % 1.19 C
Sensor: Nr:Datum:Temp:Feuchte:Taupunkt:
Aussen-T/F 176 29-01-2019 14:35:00 3.7 C 83 % 1.09 C
177 29-01-2019 14:40:00 3.7 C 83 % 1.09 C
178 29-01-2019 14:45:00 3.7 C 83 % 1.09 C
179 29-01-2019 14:50:00 3.7 C 82 % 0.92 C
180 29-01-2019 14:55:00 3.7 C 82 % 0.92 C
181 29-01-2019 15:00:00 3.7 C 81 % 0.75 C
182 29-01-2019 15:05:00 3.7 C 82 % 0.92 C
183 29-01-2019 15:10:00 3.7 C 82 % 0.92 C
184 29-01-2019 15:15:00 3.7 C 82 % 0.92 C
185 29-01-2019 15:20:00 3.8 C 81 % 0.85 C
186 29-01-2019 15:25:00 3.8 C 82 % 1.02 C
187 29-01-2019 15:30:00 3.8 C 82 % 1.02 C
188 29-01-2019 15:35:00 3.8 C 82 % 1.02 C
189 29-01-2019 15:40:00 3.9 C 81 % 0.95 C
190 29-01-2019 15:45:00 3.9 C 81 % 0.95 C
191 29-01-2019 15:50:00 3.9 C 81 % 0.95 C
192 29-01-2019 15:55:00 3.9 C 81 % 0.95 C
193 29-01-2019 16:00:00 4 C 81 % 1.04 C
194 29-01-2019 16:05:00 3.9 C 80 % 0.77 C
195 29-01-2019 16:10:00 3.9 C 81 % 0.95 C
196 29-01-2019 16:15:00 3.9 C 80 % 0.77 C
197 29-01-2019 16:20:00 3.9 C 80 % 0.77 C
198 29-01-2019 16:25:00 3.8 C 81 % 0.85 C
199 29-01-2019 16:30:00 3.8 C 83 % 1.19 C
200 29-01-2019 16:35:00 3.7 C 81 % 0.75 C
Sensor: Nr:Datum:Temp:Feuchte:Taupunkt:
Aussen-T/F 201 29-01-2019 16:40:00 3.7 C 83 % 1.09 C
202 29-01-2019 16:45:00 3.6 C 83 % 0.99 C
203 29-01-2019 16:50:00 3.6 C 83 % 0.99 C
204 29-01-2019 16:55:00 3.4 C 83 % 0.79 C
205 29-01-2019 17:00:00 3.4 C 84 % 0.96 C
206 29-01-2019 17:05:00 3.2 C 84 % 0.76 C
207 29-01-2019 17:10:00 3.1 C 83 % 0.5 C
208 29-01-2019 17:15:00 2.9 C 83 % 0.31 C
209 29-01-2019 17:20:00 2.9 C 84 % 0.47 C
210 29-01-2019 17:25:00 2.8 C 84 % 0.37 C
211 29-01-2019 17:30:00 2.7 C 84 % 0.27 C
212 29-01-2019 17:35:00 2.7 C 85 % 0.44 C
213 29-01-2019 17:40:00 2.6 C 86 % 0.5 C
214 29-01-2019 17:45:00 2.4 C 86 % 0.3 C
215 29-01-2019 17:50:00 2.4 C 86 % 0.3 C
216 29-01-2019 17:55:00 2.3 C 86 % 0.21 C
217 29-01-2019 18:00:00 2.2 C 86 % 0.11 C
218 29-01-2019 18:05:00 2 C 86 % -0.09 C
219 29-01-2019 18:10:00 1.8 C 86 % -0.29 C
220 29-01-2019 18:15:00 1.7 C 86 % -0.38 C
221 29-01-2019 18:20:00 1.4 C 87 % -0.52 C
222 29-01-2019 18:25:00 1.3 C 87 % -0.62 C
223 29-01-2019 18:30:00 1.1 C 87 % -0.82 C
224 29-01-2019 18:35:00 1 C 88 % -0.76 C
225 29-01-2019 18:40:00 0.9 C 88 % -0.86 C
Sensor: Nr:Datum:Temp:Feuchte:Taupunkt:
Aussen-T/F 226 29-01-2019 18:45:00 0.8 C 88 % -0.96 C
227 29-01-2019 18:50:00 0.7 C 89 % -0.9 C
228 29-01-2019 18:55:00 0.7 C 89 % -0.9 C
229 29-01-2019 19:00:00 0.6 C 89 % -1 C
230 29-01-2019 19:05:00 0.6 C 90 % -0.85 C
231 29-01-2019 19:10:00 0.5 C 90 % -0.95 C
232 29-01-2019 19:15:00 0.5 C 90 % -0.95 C
233 29-01-2019 19:20:00 0.4 C 90 % -1.04 C
234 29-01-2019 19:25:00 0.3 C 90 % -1.14 C
235 29-01-2019 19:30:00 0.2 C 90 % -1.24 C
236 29-01-2019 19:35:00 0.1 C 90 % -1.34 C
237 29-01-2019 19:40:00 0.1 C 90 % -1.34 C
238 29-01-2019 19:45:00 0 C 90 % -1.44 C
239 29-01-2019 19:50:00 -0.1 C 90 % -1.54 C
240 29-01-2019 19:55:00 -0.1 C 90 % -1.54 C
241 29-01-2019 20:00:00 -0.1 C 91 % -1.39 C
242 29-01-2019 20:05:00 -0.2 C 90 % -1.64 C
243 29-01-2019 20:10:00 -0.2 C 91 % -1.49 C
244 29-01-2019 20:15:00 -0.2 C 91 % -1.49 C
245 29-01-2019 20:20:00 -0.3 C 91 % -1.59 C
246 29-01-2019 20:25:00 -0.3 C 91 % -1.59 C
247 29-01-2019 20:30:00 -0.3 C 91 % -1.59 C
248 29-01-2019 20:35:00 -0.3 C 91 % -1.59 C
249 29-01-2019 20:40:00 -0.3 C 91 % -1.59 C
250 29-01-2019 20:45:00 -0.3 C 91 % -1.59 C
Sensor: Nr:Datum:Temp:Feuchte:Taupunkt:
Aussen-T/F 251 29-01-2019 20:50:00 -0.3 C 91 % -1.59 C
252 29-01-2019 20:55:00 -0.3 C 91 % -1.59 C
253 29-01-2019 21:00:00 -0.3 C 91 % -1.59 C
254 29-01-2019 21:05:00 -0.3 C 91 % -1.59 C
255 29-01-2019 21:10:00 -0.3 C 91 % -1.59 C
256 29-01-2019 21:15:00 -0.3 C 91 % -1.59 C
257 29-01-2019 21:20:00 -0.3 C 91 % -1.59 C
258 29-01-2019 21:25:00 -0.3 C 91 % -1.59 C
259 29-01-2019 21:30:00 -0.3 C 91 % -1.59 C
260 29-01-2019 21:35:00 -0.3 C 91 % -1.59 C
261 29-01-2019 21:40:00 -0.3 C 91 % -1.59 C
262 29-01-2019 21:45:00 -0.3 C 91 % -1.59 C
263 29-01-2019 21:50:00 -0.3 C 91 % -1.59 C
264 29-01-2019 21:55:00 -0.3 C 91 % -1.59 C
265 29-01-2019 22:00:00 -0.3 C 91 % -1.59 C
266 29-01-2019 22:05:00 -0.3 C 91 % -1.59 C
267 29-01-2019 22:10:00 -0.3 C 91 % -1.59 C
268 29-01-2019 22:15:00 -0.4 C 91 % -1.69 C
269 29-01-2019 22:20:00 -0.4 C 91 % -1.69 C
270 29-01-2019 22:25:00 -0.4 C 91 % -1.69 C
271 29-01-2019 22:30:00 -0.4 C 91 % -1.69 C
272 29-01-2019 22:35:00 -0.4 C 91 % -1.69 C
273 29-01-2019 22:40:00 -0.4 C 91 % -1.69 C
274 29-01-2019 22:45:00 -0.4 C 92 % -1.54 C
275 29-01-2019 22:50:00 -0.4 C 92 % -1.54 C
Sensor: Nr:Datum:Temp:Feuchte:Taupunkt:
Aussen-T/F 276 29-01-2019 22:55:00 -0.4 C 92 % -1.54 C
277 29-01-2019 23:00:00 -0.4 C 92 % -1.54 C
278 29-01-2019 23:05:00 -0.5 C 92 % -1.64 C
279 29-01-2019 23:10:00 -0.5 C 92 % -1.64 C
280 29-01-2019 23:15:00 -0.5 C 92 % -1.64 C
281 29-01-2019 23:20:00 -0.5 C 92 % -1.64 C
282 29-01-2019 23:25:00 -0.6 C 92 % -1.74 C
283 29-01-2019 23:30:00 -0.6 C 92 % -1.74 C
284 29-01-2019 23:35:00 -0.6 C 92 % -1.74 C
285 29-01-2019 23:40:00 -0.6 C 93 % -1.59 C
286 29-01-2019 23:45:00 -0.6 C 93 % -1.59 C
287 29-01-2019 23:50:00 -0.6 C 93 % -1.59 C
288 29-01-2019 23:55:00 -0.6 C 93 % -1.59 C
289 30-01-2019 00:00:00 -0.6 C 93 % -1.59 C
290 30-01-2019 00:05:00 -0.6 C 93 % -1.59 C
291 30-01-2019 00:10:00 -0.6 C 93 % -1.59 C
292 30-01-2019 00:15:00 -0.6 C 93 % -1.59 C
293 30-01-2019 00:20:00 -0.7 C 93 % -1.69 C
294 30-01-2019 00:25:00 -0.5 C 93 % -1.49 C
295 30-01-2019 00:30:00 -0.4 C 93 % -1.39 C
296 30-01-2019 00:35:00 -0.4 C 93 % -1.39 C
297 30-01-2019 00:40:00 -0.5 C 93 % -1.49 C
298 30-01-2019 00:45:00 -0.5 C 93 % -1.49 C
299 30-01-2019 00:50:00 -0.6 C 93 % -1.59 C
300 30-01-2019 00:55:00 -0.6 C 93 % -1.59 C
Sensor: Nr:Datum:Temp:Feuchte:Taupunkt:
Aussen-T/F 301 30-01-2019 01:00:00 -0.6 C 93 % -1.59 C
302 30-01-2019 01:05:00 -0.6 C 93 % -1.59 C
303 30-01-2019 01:10:00 -0.6 C 93 % -1.59 C
304 30-01-2019 01:15:00 -0.7 C 93 % -1.69 C
305 30-01-2019 01:20:00 -0.7 C 93 % -1.69 C
306 30-01-2019 01:25:00 -0.7 C 93 % -1.69 C
307 30-01-2019 01:30:00 -0.7 C 93 % -1.69 C
308 30-01-2019 01:35:00 -0.7 C 93 % -1.69 C
309 30-01-2019 01:40:00 -0.7 C 93 % -1.69 C
310 30-01-2019 01:45:00 -0.7 C 93 % -1.69 C
311 30-01-2019 01:50:00 -0.7 C 93 % -1.69 C
312 30-01-2019 01:55:00 -0.7 C 93 % -1.69 C
313 30-01-2019 02:00:00 -0.7 C 93 % -1.69 C
314 30-01-2019 02:05:00 -0.8 C 93 % -1.79 C
315 30-01-2019 02:10:00 -0.7 C 93 % -1.69 C
316 30-01-2019 02:15:00 -0.8 C 93 % -1.79 C
317 30-01-2019 02:20:00 -0.7 C 93 % -1.69 C
318 30-01-2019 02:25:00 -0.7 C 93 % -1.69 C
319 30-01-2019 02:30:00 -0.7 C 93 % -1.69 C
320 30-01-2019 02:35:00 -0.7 C 93 % -1.69 C
321 30-01-2019 02:40:00 -0.6 C 93 % -1.59 C
322 30-01-2019 02:45:00 -0.6 C 93 % -1.59 C
323 30-01-2019 02:50:00 -0.6 C 93 % -1.59 C
324 30-01-2019 02:55:00 -0.6 C 93 % -1.59 C
325 30-01-2019 03:00:00 -0.7 C 93 % -1.69 C
Sensor: Nr:Datum:Temp:Feuchte:Taupunkt:
Aussen-T/F 326 30-01-2019 03:05:00 -0.7 C 93 % -1.69 C
327 30-01-2019 03:10:00 -0.7 C 93 % -1.69 C
328 30-01-2019 03:15:00 -0.8 C 92 % -1.93 C
329 30-01-2019 03:20:00 -0.8 C 93 % -1.79 C
330 30-01-2019 03:25:00 -0.8 C 93 % -1.79 C
331 30-01-2019 03:30:00 -0.8 C 92 % -1.93 C
332 30-01-2019 03:35:00 -0.8 C 92 % -1.93 C
333 30-01-2019 03:40:00 -0.8 C 92 % -1.93 C
334 30-01-2019 03:45:00 -0.9 C 92 % -2.03 C
335 30-01-2019 03:50:00 -0.9 C 92 % -2.03 C
336 30-01-2019 03:55:00 -0.9 C 92 % -2.03 C
337 30-01-2019 04:00:00 -0.9 C 92 % -2.03 C
338 30-01-2019 04:05:00 -0.9 C 92 % -2.03 C
339 30-01-2019 04:10:00 -0.9 C 92 % -2.03 C
340 30-01-2019 04:15:00 -0.9 C 92 % -2.03 C
341 30-01-2019 04:20:00 -0.9 C 93 % -1.89 C
342 30-01-2019 04:25:00 -0.9 C 93 % -1.89 C
343 30-01-2019 04:30:00 -0.9 C 93 % -1.89 C
344 30-01-2019 04:35:00 -0.9 C 93 % -1.89 C
345 30-01-2019 04:40:00 -0.9 C 93 % -1.89 C
346 30-01-2019 04:45:00 -0.8 C 93 % -1.79 C
347 30-01-2019 04:50:00 -0.8 C 93 % -1.79 C
348 30-01-2019 04:55:00 -0.8 C 93 % -1.79 C
349 30-01-2019 05:00:00 -0.7 C 93 % -1.69 C
350 30-01-2019 05:05:00 -0.7 C 92 % -1.83 C
Sensor: Nr:Datum:Temp:Feuchte:Taupunkt:
Aussen-T/F 351 30-01-2019 05:10:00 -0.6 C 92 % -1.74 C
352 30-01-2019 05:15:00 -0.6 C 92 % -1.74 C
353 30-01-2019 05:20:00 -0.6 C 92 % -1.74 C
354 30-01-2019 05:25:00 -0.6 C 92 % -1.74 C
355 30-01-2019 05:30:00 -0.5 C 92 % -1.64 C
356 30-01-2019 05:35:00 -0.5 C 92 % -1.64 C
357 30-01-2019 05:40:00 -0.4 C 92 % -1.54 C
358 30-01-2019 05:45:00 -0.4 C 92 % -1.54 C
359 30-01-2019 05:50:00 -0.3 C 92 % -1.44 C
360 30-01-2019 05:55:00 -0.3 C 91 % -1.59 C
361 30-01-2019 06:00:00 -0.3 C 91 % -1.59 C
362 30-01-2019 06:05:00 -0.2 C 91 % -1.49 C
363 30-01-2019 06:10:00 -0.2 C 91 % -1.49 C
364 30-01-2019 06:15:00 -0.2 C 91 % -1.49 C
365 30-01-2019 06:20:00 -0.2 C 91 % -1.49 C
366 30-01-2019 06:25:00 -0.1 C 91 % -1.39 C
367 30-01-2019 06:30:00 -0.1 C 91 % -1.39 C
368 30-01-2019 06:35:00 -0.1 C 90 % -1.54 C
369 30-01-2019 06:40:00 -0.1 C 90 % -1.54 C
370 30-01-2019 06:45:00 0 C 90 % -1.44 C
371 30-01-2019 06:50:00 0.1 C 90 % -1.34 C
372 30-01-2019 06:55:00 0.1 C 90 % -1.34 C
373 30-01-2019 07:00:00 0.2 C 89 % -1.39 C
374 30-01-2019 07:05:00 0.2 C 89 % -1.39 C
375 30-01-2019 07:10:00 0.3 C 88 % -1.45 C
Sensor: Nr:Datum:Temp:Feuchte:Taupunkt:
Aussen-T/F 376 30-01-2019 07:15:00 0.3 C 88 % -1.45 C
377 30-01-2019 07:20:00 0.3 C 88 % -1.45 C
378 30-01-2019 07:25:00 0.3 C 88 % -1.45 C
379 30-01-2019 07:30:00 0.4 C 88 % -1.35 C
380 30-01-2019 07:35:00 0.3 C 88 % -1.45 C
381 30-01-2019 07:40:00 0.3 C 88 % -1.45 C
382 30-01-2019 07:45:00 0.4 C 89 % -1.2 C
383 30-01-2019 07:50:00 0.4 C 89 % -1.2 C
384 30-01-2019 07:55:00 0.3 C 90 % -1.14 C
385 30-01-2019 08:00:00 0.3 C 90 % -1.14 C
386 30-01-2019 08:05:00 0.3 C 90 % -1.14 C
387 30-01-2019 08:10:00 0.3 C 91 % -0.99 C
388 30-01-2019 08:15:00 0.2 C 91 % -1.09 C
389 30-01-2019 08:20:00 0.2 C 91 % -1.09 C
390 30-01-2019 08:25:00 0.2 C 92 % -0.94 C
391 30-01-2019 08:30:00 0.1 C 92 % -1.04 C
392 30-01-2019 08:35:00 0.1 C 92 % -1.04 C
393 30-01-2019 08:40:00 0.1 C 92 % -1.04 C
394 30-01-2019 08:45:00 0.1 C 93 % -0.89 C
395 30-01-2019 08:50:00 0.1 C 93 % -0.89 C
396 30-01-2019 08:55:00 0 C 93 % -0.99 C
397 30-01-2019 09:00:00 0 C 93 % -0.99 C
398 30-01-2019 09:05:00 0 C 93 % -0.99 C
399 30-01-2019 09:10:00 0 C 94 % -0.85 C
400 30-01-2019 09:15:00 0 C 94 % -0.85 C
Sensor: Nr:Datum:Temp:Feuchte:Taupunkt:
Aussen-T/F 401 30-01-2019 09:20:00 0 C 94 % -0.85 C
402 30-01-2019 09:25:00 0 C 94 % -0.85 C
403 30-01-2019 09:30:00 0 C 94 % -0.85 C
404 30-01-2019 09:35:00 0 C 94 % -0.85 C
405 30-01-2019 09:40:00 0 C 94 % -0.85 C
406 30-01-2019 09:45:00 0.1 C 94 % -0.75 C
407 30-01-2019 09:50:00 0.1 C 94 % -0.75 C
408 30-01-2019 09:55:00 0.1 C 94 % -0.75 C
409 30-01-2019 10:00:00 0.1 C 94 % -0.75 C
410 30-01-2019 10:05:00 0.1 C 94 % -0.75 C
411 30-01-2019 10:10:00 0.1 C 94 % -0.75 C
412 30-01-2019 10:15:00 0.2 C 94 % -0.65 C
413 30-01-2019 10:20:00 0.2 C 94 % -0.65 C
414 30-01-2019 10:25:00 0.3 C 94 % -0.55 C
415 30-01-2019 10:30:00 0.3 C 94 % -0.55 C
416 30-01-2019 10:35:00 0.4 C 94 % -0.45 C
417 30-01-2019 10:40:00 0.4 C 94 % -0.45 C
418 30-01-2019 10:45:00 0.4 C 94 % -0.45 C
419 30-01-2019 10:50:00 0.5 C 94 % -0.35 C
420 30-01-2019 10:55:00 0.6 C 94 % -0.25 C
421 30-01-2019 11:00:00 0.6 C 94 % -0.25 C
422 30-01-2019 11:05:00 0.7 C 94 % -0.15 C
423 30-01-2019 11:10:00 0.7 C 94 % -0.15 C
424 30-01-2019 11:15:00 0.8 C 94 % -0.05 C
425 30-01-2019 11:20:00 0.8 C 94 % -0.05 C
Sensor: Nr:Datum:Temp:Feuchte:Taupunkt:
Aussen-T/F 426 30-01-2019 11:25:00 0.8 C 94 % -0.05 C
427 30-01-2019 11:30:00 0.9 C 94 % 0.05 C
428 30-01-2019 11:35:00 0.9 C 94 % 0.05 C
429 30-01-2019 11:40:00 0.9 C 94 % 0.05 C
430 30-01-2019 11:45:00 0.9 C 94 % 0.05 C
431 30-01-2019 11:50:00 0.9 C 94 % 0.05 C
432 30-01-2019 11:55:00 1 C 94 % 0.15 C
433 30-01-2019 12:00:00 1.1 C 94 % 0.24 C
434 30-01-2019 12:05:00 1.1 C 94 % 0.24 C
435 30-01-2019 12:10:00 1.2 C 94 % 0.34 C
436 30-01-2019 12:15:00 1.2 C 94 % 0.34 C
437 30-01-2019 12:20:00 1.3 C 95 % 0.59 C
438 30-01-2019 12:25:00 1.4 C 94 % 0.54 C
439 30-01-2019 12:30:00 1.4 C 94 % 0.54 C
440 30-01-2019 12:35:00 1.5 C 94 % 0.64 C
441 30-01-2019 12:40:00 1.6 C 94 % 0.74 C
442 30-01-2019 12:45:00 1.7 C 94 % 0.84 C
443 30-01-2019 12:50:00 1.7 C 94 % 0.84 C
444 30-01-2019 12:55:00 1.7 C 94 % 0.84 C
445 30-01-2019 13:00:00 1.7 C 94 % 0.84 C
446 30-01-2019 13:05:00 1.7 C 94 % 0.84 C
447 30-01-2019 13:10:00 1.6 C 94 % 0.74 C
448 30-01-2019 13:15:00 1.6 C 94 % 0.74 C
449 30-01-2019 13:20:00 1.6 C 94 % 0.74 C
450 30-01-2019 13:25:00 1.6 C 94 % 0.74 C
Sensor: Nr:Datum:Temp:Feuchte:Taupunkt:
Aussen-T/F 451 30-01-2019 13:30:00 1.7 C 94 % 0.84 C
452 30-01-2019 13:35:00 1.7 C 94 % 0.84 C
453 30-01-2019 13:40:00 1.7 C 94 % 0.84 C
454 30-01-2019 13:45:00 1.7 C 94 % 0.84 C
455 30-01-2019 13:50:00 1.7 C 94 % 0.84 C
456 30-01-2019 13:55:00 1.7 C 94 % 0.84 C
457 30-01-2019 14:00:00 1.7 C 94 % 0.84 C
458 30-01-2019 14:05:00 1.8 C 94 % 0.94 C
459 30-01-2019 14:10:00 1.8 C 94 % 0.94 C
460 30-01-2019 14:15:00 1.8 C 93 % 0.79 C
461 30-01-2019 14:20:00 1.7 C 93 % 0.69 C
462 30-01-2019 14:25:00 1.7 C 93 % 0.69 C
463 30-01-2019 14:30:00 1.7 C 94 % 0.84 C
464 30-01-2019 14:35:00 1.7 C 94 % 0.84 C
465 30-01-2019 14:40:00 1.7 C 94 % 0.84 C
466 30-01-2019 14:45:00 1.7 C 94 % 0.84 C
467 30-01-2019 14:50:00 1.6 C 94 % 0.74 C
468 30-01-2019 14:55:00 1.6 C 94 % 0.74 C
469 30-01-2019 15:00:00 1.6 C 94 % 0.74 C
470 30-01-2019 15:05:00 1.6 C 94 % 0.74 C
471 30-01-2019 15:10:00 1.6 C 94 % 0.74 C
472 30-01-2019 15:15:00 1.6 C 94 % 0.74 C
473 30-01-2019 15:20:00 1.5 C 94 % 0.64 C
474 30-01-2019 15:25:00 1.4 C 94 % 0.54 C
475 30-01-2019 15:30:00 1.4 C 94 % 0.54 C
Sensor: Nr:Datum:Temp:Feuchte:Taupunkt:
Aussen-T/F 476 30-01-2019 15:35:00 1.4 C 94 % 0.54 C
477 30-01-2019 15:40:00 1.5 C 94 % 0.64 C
478 30-01-2019 15:45:00 1.4 C 94 % 0.54 C
479 30-01-2019 15:50:00 1.4 C 94 % 0.54 C
480 30-01-2019 15:55:00 1.3 C 94 % 0.44 C
481 30-01-2019 16:00:00 1.3 C 94 % 0.44 C
482 30-01-2019 16:05:00 1.3 C 94 % 0.44 C
483 30-01-2019 16:10:00 1.2 C 94 % 0.34 C
484 30-01-2019 16:15:00 1.2 C 95 % 0.49 C
485 30-01-2019 16:20:00 1.2 C 95 % 0.49 C
486 30-01-2019 16:25:00 1.1 C 95 % 0.39 C
487 30-01-2019 16:30:00 1.1 C 95 % 0.39 C
488 30-01-2019 16:35:00 1.1 C 95 % 0.39 C
489 30-01-2019 16:40:00 1.1 C 95 % 0.39 C
490 30-01-2019 16:45:00 1.1 C 95 % 0.39 C
491 30-01-2019 16:50:00 1.1 C 95 % 0.39 C
492 30-01-2019 16:55:00 1.1 C 95 % 0.39 C
493 30-01-2019 17:00:00 1.1 C 95 % 0.39 C
494 30-01-2019 17:05:00 1.1 C 95 % 0.39 C
495 30-01-2019 17:10:00 1.1 C 95 % 0.39 C
496 30-01-2019 17:15:00 1.1 C 95 % 0.39 C
497 30-01-2019 17:20:00 1.1 C 95 % 0.39 C
498 30-01-2019 17:25:00 1.1 C 95 % 0.39 C
499 30-01-2019 17:30:00 1.1 C 95 % 0.39 C
500 30-01-2019 17:35:00 1.1 C 95 % 0.39 C
Sensor: Nr:Datum:Temp:Feuchte:Taupunkt:
Aussen-T/F 501 30-01-2019 17:40:00 1.1 C 95 % 0.39 C
502 30-01-2019 17:45:00 1.1 C 95 % 0.39 C
503 30-01-2019 17:50:00 1.1 C 95 % 0.39 C
504 30-01-2019 17:55:00 1.1 C 95 % 0.39 C
505 30-01-2019 18:00:00 1.1 C 95 % 0.39 C
506 30-01-2019 18:05:00 1.1 C 95 % 0.39 C
507 30-01-2019 18:10:00 1.1 C 95 % 0.39 C
508 30-01-2019 18:15:00 1 C 95 % 0.29 C
509 30-01-2019 18:20:00 1.1 C 95 % 0.39 C
510 30-01-2019 18:25:00 1 C 95 % 0.29 C
511 30-01-2019 18:30:00 1.1 C 95 % 0.39 C
512 30-01-2019 18:35:00 1 C 95 % 0.29 C
513 30-01-2019 18:40:00 1.1 C 95 % 0.39 C
514 30-01-2019 18:45:00 1.1 C 95 % 0.39 C
515 30-01-2019 18:50:00 1.1 C 95 % 0.39 C
516 30-01-2019 18:55:00 1.1 C 95 % 0.39 C
517 30-01-2019 19:00:00 1.1 C 95 % 0.39 C
518 30-01-2019 19:05:00 1.1 C 95 % 0.39 C
519 30-01-2019 19:10:00 1.1 C 95 % 0.39 C
520 30-01-2019 19:15:00 1.1 C 96 % 0.54 C
521 30-01-2019 19:20:00 1.1 C 96 % 0.54 C
522 30-01-2019 19:25:00 1.1 C 96 % 0.54 C
523 30-01-2019 19:30:00 1.1 C 96 % 0.54 C
524 30-01-2019 19:35:00 1.1 C 96 % 0.54 C
525 30-01-2019 19:40:00 1.1 C 96 % 0.54 C
Sensor: Nr:Datum:Temp:Feuchte:Taupunkt:
Aussen-T/F 526 30-01-2019 19:45:00 1.1 C 96 % 0.54 C
527 30-01-2019 19:50:00 1 C 96 % 0.44 C
528 30-01-2019 19:55:00 1 C 96 % 0.44 C
529 30-01-2019 20:00:00 1 C 96 % 0.44 C
530 30-01-2019 20:05:00 1 C 96 % 0.44 C
531 30-01-2019 20:10:00 1 C 96 % 0.44 C
532 30-01-2019 20:15:00 1 C 96 % 0.44 C
533 30-01-2019 20:20:00 1.1 C 96 % 0.54 C
534 30-01-2019 20:25:00 1.1 C 96 % 0.54 C
535 30-01-2019 20:30:00 1.1 C 96 % 0.54 C
536 30-01-2019 20:35:00 1.1 C 96 % 0.54 C
537 30-01-2019 20:40:00 1 C 95 % 0.29 C
538 30-01-2019 20:45:00 1 C 95 % 0.29 C
539 30-01-2019 20:50:00 1 C 95 % 0.29 C
540 30-01-2019 20:55:00 1 C 95 % 0.29 C
541 30-01-2019 21:00:00 1 C 94 % 0.15 C
542 30-01-2019 21:05:00 1 C 94 % 0.15 C
543 30-01-2019 21:10:00 1 C 94 % 0.15 C
544 30-01-2019 21:15:00 1 C 94 % 0.15 C
545 30-01-2019 21:20:00 1 C 94 % 0.15 C
546 30-01-2019 21:25:00 1 C 94 % 0.15 C
547 30-01-2019 21:30:00 1 C 94 % 0.15 C
548 30-01-2019 21:35:00 0.9 C 94 % 0.05 C
549 30-01-2019 21:40:00 0.9 C 94 % 0.05 C
550 30-01-2019 21:45:00 0.9 C 94 % 0.05 C
Sensor: Nr:Datum:Temp:Feuchte:Taupunkt:
Aussen-T/F 551 30-01-2019 21:50:00 0.9 C 94 % 0.05 C
552 30-01-2019 21:55:00 0.9 C 94 % 0.05 C
553 30-01-2019 22:00:00 0.8 C 94 % -0.05 C
554 30-01-2019 22:05:00 0.8 C 93 % -0.2 C
555 30-01-2019 22:10:00 0.8 C 93 % -0.2 C
556 30-01-2019 22:15:00 0.8 C 93 % -0.2 C
557 30-01-2019 22:20:00 0.7 C 93 % -0.3 C
558 30-01-2019 22:25:00 0.7 C 93 % -0.3 C
559 30-01-2019 22:30:00 0.7 C 93 % -0.3 C
560 30-01-2019 22:35:00 0.7 C 93 % -0.3 C
561 30-01-2019 22:40:00 0.7 C 93 % -0.3 C
562 30-01-2019 22:45:00 0.7 C 92 % -0.45 C
563 30-01-2019 22:50:00 0.6 C 92 % -0.55 C
564 30-01-2019 22:55:00 0.6 C 92 % -0.55 C
565 30-01-2019 23:00:00 0.6 C 92 % -0.55 C
566 30-01-2019 23:05:00 0.4 C 92 % -0.74 C
567 30-01-2019 23:10:00 0.4 C 92 % -0.74 C
568 30-01-2019 23:15:00 0.3 C 92 % -0.84 C
569 30-01-2019 23:20:00 0.3 C 92 % -0.84 C
570 30-01-2019 23:25:00 0.3 C 92 % -0.84 C
571 30-01-2019 23:30:00 0.2 C 92 % -0.94 C
572 30-01-2019 23:35:00 0.2 C 93 % -0.79 C
573 30-01-2019 23:40:00 0.1 C 92 % -1.04 C
574 30-01-2019 23:45:00 0.1 C 93 % -0.89 C
575 30-01-2019 23:50:00 0 C 93 % -0.99 C
Sensor: Nr:Datum:Temp:Feuchte:Taupunkt:
Aussen-T/F 576 30-01-2019 23:55:00 -0.1 C 93 % -1.09 C
577 31-01-2019 00:00:00 -0.2 C 93 % -1.19 C
578 31-01-2019 00:05:00 -0.2 C 93 % -1.19 C
579 31-01-2019 00:10:00 -0.2 C 93 % -1.19 C
580 31-01-2019 00:15:00 -0.2 C 93 % -1.19 C
581 31-01-2019 00:20:00 -0.3 C 93 % -1.29 C
582 31-01-2019 00:25:00 -0.3 C 93 % -1.29 C
583 31-01-2019 00:30:00 -0.4 C 93 % -1.39 C
584 31-01-2019 00:35:00 -0.4 C 93 % -1.39 C
585 31-01-2019 00:40:00 -0.5 C 93 % -1.49 C
586 31-01-2019 00:45:00 -0.6 C 93 % -1.59 C
587 31-01-2019 00:50:00 -0.7 C 93 % -1.69 C
588 31-01-2019 00:55:00 -0.8 C 93 % -1.79 C
589 31-01-2019 01:00:00 -1 C 93 % -1.99 C
590 31-01-2019 01:05:00 -1.1 C 93 % -2.09 C
591 31-01-2019 01:10:00 -1.2 C 93 % -2.18 C
592 31-01-2019 01:15:00 -1.3 C 93 % -2.28 C
593 31-01-2019 01:20:00 -1.4 C 93 % -2.38 C
594 31-01-2019 01:25:00 -1.4 C 94 % -2.24 C
595 31-01-2019 01:30:00 -1.4 C 94 % -2.24 C
596 31-01-2019 01:35:00 -1.4 C 94 % -2.24 C
597 31-01-2019 01:40:00 -1.3 C 94 % -2.14 C
598 31-01-2019 01:45:00 -1.2 C 95 % -1.9 C
599 31-01-2019 01:50:00 -1.1 C 95 % -1.8 C
600 31-01-2019 01:55:00 -1.1 C 95 % -1.8 C
Sensor: Nr:Datum:Temp:Feuchte:Taupunkt:
Aussen-T/F 601 31-01-2019 02:00:00 -1.1 C 94 % -1.94 C
602 31-01-2019 02:05:00 -1.2 C 94 % -2.04 C
603 31-01-2019 02:10:00 -1.2 C 94 % -2.04 C
604 31-01-2019 02:15:00 -1.2 C 94 % -2.04 C
605 31-01-2019 02:20:00 -1.3 C 94 % -2.14 C
606 31-01-2019 02:25:00 -1.3 C 95 % -2 C
607 31-01-2019 02:30:00 -1.3 C 94 % -2.14 C
608 31-01-2019 02:35:00 -1.3 C 95 % -2 C
609 31-01-2019 02:40:00 -1.4 C 95 % -2.1 C
610 31-01-2019 02:45:00 -1.4 C 95 % -2.1 C
611 31-01-2019 02:50:00 -1.4 C 95 % -2.1 C
612 31-01-2019 02:55:00 -1.4 C 95 % -2.1 C
613 31-01-2019 03:00:00 -1.4 C 95 % -2.1 C
614 31-01-2019 03:05:00 -1.4 C 95 % -2.1 C
615 31-01-2019 03:10:00 -1.4 C 95 % -2.1 C
616 31-01-2019 03:15:00 -1.4 C 95 % -2.1 C
617 31-01-2019 03:20:00 -1.4 C 95 % -2.1 C
618 31-01-2019 03:25:00 -1.4 C 95 % -2.1 C
619 31-01-2019 03:30:00 -1.3 C 95 % -2 C
620 31-01-2019 03:35:00 -1.3 C 95 % -2 C
621 31-01-2019 03:40:00 -1.2 C 95 % -1.9 C
622 31-01-2019 03:45:00 -1.2 C 95 % -1.9 C
623 31-01-2019 03:50:00 -1.2 C 95 % -1.9 C
624 31-01-2019 03:55:00 -1.1 C 95 % -1.8 C
625 31-01-2019 04:00:00 -0.9 C 96 % -1.46 C
Sensor: Nr:Datum:Temp:Feuchte:Taupunkt:
Aussen-T/F 626 31-01-2019 04:05:00 -0.9 C 96 % -1.46 C
627 31-01-2019 04:10:00 -0.8 C 96 % -1.36 C
628 31-01-2019 04:15:00 -0.8 C 96 % -1.36 C
629 31-01-2019 04:20:00 -0.8 C 96 % -1.36 C
630 31-01-2019 04:25:00 -0.8 C 96 % -1.36 C
631 31-01-2019 04:30:00 -0.8 C 95 % -1.5 C
632 31-01-2019 04:35:00 -0.8 C 95 % -1.5 C
633 31-01-2019 04:40:00 -0.8 C 95 % -1.5 C
634 31-01-2019 04:45:00 -0.8 C 95 % -1.5 C
635 31-01-2019 04:50:00 -0.7 C 95 % -1.4 C
636 31-01-2019 04:55:00 -0.7 C 96 % -1.26 C
637 31-01-2019 05:00:00 -0.7 C 96 % -1.26 C
638 31-01-2019 05:05:00 -0.7 C 96 % -1.26 C
639 31-01-2019 05:10:00 -0.7 C 96 % -1.26 C
640 31-01-2019 05:15:00 -0.7 C 96 % -1.26 C
641 31-01-2019 05:20:00 -0.6 C 96 % -1.16 C
642 31-01-2019 05:25:00 -0.6 C 96 % -1.16 C
643 31-01-2019 05:30:00 -0.6 C 96 % -1.16 C
644 31-01-2019 05:35:00 -0.6 C 96 % -1.16 C
645 31-01-2019 05:40:00 -0.6 C 96 % -1.16 C
646 31-01-2019 05:45:00 -0.6 C 96 % -1.16 C
647 31-01-2019 05:50:00 -0.5 C 96 % -1.06 C
648 31-01-2019 05:55:00 -0.5 C 96 % -1.06 C
649 31-01-2019 06:00:00 -0.5 C 96 % -1.06 C
650 31-01-2019 06:05:00 -0.5 C 96 % -1.06 C
Sensor: Nr:Datum:Temp:Feuchte:Taupunkt:
Aussen-T/F 651 31-01-2019 06:10:00 -0.4 C 96 % -0.96 C
652 31-01-2019 06:15:00 -0.4 C 96 % -0.96 C
653 31-01-2019 06:20:00 -0.4 C 96 % -0.96 C
654 31-01-2019 06:25:00 -0.4 C 96 % -0.96 C
655 31-01-2019 06:30:00 -0.4 C 96 % -0.96 C
656 31-01-2019 06:35:00 -0.4 C 96 % -0.96 C
657 31-01-2019 06:40:00 -0.4 C 96 % -0.96 C
658 31-01-2019 06:45:00 -0.4 C 96 % -0.96 C
659 31-01-2019 06:50:00 -0.4 C 96 % -0.96 C
660 31-01-2019 06:55:00 -0.4 C 96 % -0.96 C
661 31-01-2019 07:00:00 -0.4 C 96 % -0.96 C
662 31-01-2019 07:05:00 -0.5 C 96 % -1.06 C
663 31-01-2019 07:10:00 -0.4 C 96 % -0.96 C
664 31-01-2019 07:15:00 -0.4 C 96 % -0.96 C
665 31-01-2019 07:20:00 -0.4 C 96 % -0.96 C
666 31-01-2019 07:25:00 -0.4 C 96 % -0.96 C
667 31-01-2019 07:30:00 -0.3 C 96 % -0.86 C
668 31-01-2019 07:35:00 -0.3 C 96 % -0.86 C
669 31-01-2019 07:40:00 -0.3 C 96 % -0.86 C
670 31-01-2019 07:45:00 -0.3 C 96 % -0.86 C
671 31-01-2019 07:50:00 -0.3 C 96 % -0.86 C
672 31-01-2019 07:55:00 -0.3 C 96 % -0.86 C
673 31-01-2019 08:00:00 -0.3 C 96 % -0.86 C
674 31-01-2019 08:05:00 -0.3 C 96 % -0.86 C
675 31-01-2019 08:10:00 -0.3 C 96 % -0.86 C
Sensor: Nr:Datum:Temp:Feuchte:Taupunkt:
Aussen-T/F 676 31-01-2019 08:15:00 -0.3 C 96 % -0.86 C
677 31-01-2019 08:20:00 -0.3 C 96 % -0.86 C
678 31-01-2019 08:25:00 -0.3 C 96 % -0.86 C
679 31-01-2019 08:30:00 -0.3 C 96 % -0.86 C
680 31-01-2019 08:35:00 -0.3 C 96 % -0.86 C
681 31-01-2019 08:40:00 -0.3 C 96 % -0.86 C
682 31-01-2019 08:45:00 -0.3 C 96 % -0.86 C
683 31-01-2019 08:50:00 -0.3 C 96 % -0.86 C
684 31-01-2019 08:55:00 -0.2 C 96 % -0.76 C
685 31-01-2019 09:00:00 -0.2 C 96 % -0.76 C
686 31-01-2019 09:05:00 -0.1 C 96 % -0.66 C
687 31-01-2019 09:10:00 -0.1 C 96 % -0.66 C
688 31-01-2019 09:15:00 0.1 C 96 % -0.46 C
689 31-01-2019 09:20:00 0.1 C 96 % -0.46 C
690 31-01-2019 09:25:00 0.2 C 96 % -0.36 C
691 31-01-2019 09:30:00 0.3 C 96 % -0.26 C
692 31-01-2019 09:35:00 0.3 C 96 % -0.26 C
693 31-01-2019 09:40:00 0.3 C 96 % -0.26 C
694 31-01-2019 09:45:00 0.3 C 96 % -0.26 C
695 31-01-2019 09:50:00 0.3 C 96 % -0.26 C
696 31-01-2019 09:55:00 0.4 C 96 % -0.16 C
697 31-01-2019 10:00:00 0.5 C 96 % -0.06 C
698 31-01-2019 10:05:00 0.5 C 96 % -0.06 C
699 31-01-2019 10:10:00 0.6 C 96 % 0.04 C
700 31-01-2019 10:15:00 0.6 C 96 % 0.04 C
Sensor: Nr:Datum:Temp:Feuchte:Taupunkt:
Aussen-T/F 701 31-01-2019 10:20:00 0.6 C 95 % -0.11 C
702 31-01-2019 10:25:00 0.6 C 95 % -0.11 C
703 31-01-2019 10:30:00 0.7 C 95 % -0.01 C
704 31-01-2019 10:35:00 0.8 C 95 % 0.09 C
705 31-01-2019 10:40:00 0.8 C 95 % 0.09 C
706 31-01-2019 10:45:00 0.9 C 95 % 0.19 C
707 31-01-2019 10:50:00 1 C 95 % 0.29 C
708 31-01-2019 10:55:00 1.1 C 94 % 0.24 C
709 31-01-2019 11:00:00 1.1 C 94 % 0.24 C
710 31-01-2019 11:05:00 1.2 C 95 % 0.49 C
711 31-01-2019 11:10:00 1.3 C 95 % 0.59 C
712 31-01-2019 11:15:00 1.3 C 94 % 0.44 C
713 31-01-2019 11:20:00 1.4 C 94 % 0.54 C
714 31-01-2019 11:25:00 1.4 C 94 % 0.54 C
715 31-01-2019 11:30:00 1.4 C 94 % 0.54 C
716 31-01-2019 11:35:00 1.4 C 94 % 0.54 C
717 31-01-2019 11:40:00 1.4 C 94 % 0.54 C
718 31-01-2019 11:45:00 1.5 C 94 % 0.64 C
719 31-01-2019 11:50:00 1.6 C 94 % 0.74 C
720 31-01-2019 11:55:00 1.7 C 94 % 0.84 C
721 31-01-2019 12:00:00 1.8 C 94 % 0.94 C
722 31-01-2019 12:05:00 1.7 C 94 % 0.84 C
723 31-01-2019 12:10:00 1.7 C 94 % 0.84 C
724 31-01-2019 12:15:00 1.8 C 94 % 0.94 C
725 31-01-2019 12:20:00 1.8 C 94 % 0.94 C
Sensor: Nr:Datum:Temp:Feuchte:Taupunkt:
Aussen-T/F 726 31-01-2019 12:25:00 1.9 C 94 % 1.04 C
727 31-01-2019 12:30:00 1.9 C 94 % 1.04 C
728 31-01-2019 12:35:00 1.9 C 94 % 1.04 C
729 31-01-2019 12:40:00 1.9 C 94 % 1.04 C
730 31-01-2019 12:45:00 1.9 C 94 % 1.04 C
731 31-01-2019 12:50:00 1.8 C 94 % 0.94 C
732 31-01-2019 12:55:00 1.7 C 93 % 0.69 C
733 31-01-2019 13:00:00 1.7 C 93 % 0.69 C
734 31-01-2019 13:05:00 1.7 C 94 % 0.84 C
735 31-01-2019 13:10:00 1.6 C 94 % 0.74 C
736 31-01-2019 13:15:00 1.6 C 93 % 0.59 C
737 31-01-2019 13:20:00 1.6 C 94 % 0.74 C
738 31-01-2019 13:25:00 1.5 C 94 % 0.64 C
739 31-01-2019 13:30:00 1.5 C 94 % 0.64 C
740 31-01-2019 13:35:00 1.5 C 94 % 0.64 C
741 31-01-2019 13:40:00 1.5 C 94 % 0.64 C
742 31-01-2019 13:45:00 1.4 C 94 % 0.54 C
743 31-01-2019 13:50:00 1.4 C 94 % 0.54 C
744 31-01-2019 13:55:00 1.4 C 94 % 0.54 C
745 31-01-2019 14:00:00 1.4 C 94 % 0.54 C
746 31-01-2019 14:05:00 1.4 C 94 % 0.54 C
747 31-01-2019 14:10:00 1.5 C 94 % 0.64 C
748 31-01-2019 14:15:00 1.6 C 95 % 0.89 C
749 31-01-2019 14:20:00 1.7 C 95 % 0.99 C
750 31-01-2019 14:25:00 1.9 C 95 % 1.19 C
Sensor: Nr:Datum:Temp:Feuchte:Taupunkt:
Aussen-T/F 751 31-01-2019 14:30:00 2 C 95 % 1.29 C
752 31-01-2019 14:35:00 2.1 C 95 % 1.38 C
753 31-01-2019 14:40:00 2.1 C 95 % 1.38 C
754 31-01-2019 14:45:00 2.1 C 95 % 1.38 C
755 31-01-2019 14:50:00 2.1 C 94 % 1.24 C
756 31-01-2019 14:55:00 2.1 C 94 % 1.24 C
757 31-01-2019 15:00:00 2.2 C 94 % 1.34 C
758 31-01-2019 15:05:00 2.3 C 94 % 1.44 C
759 31-01-2019 15:10:00 2.4 C 94 % 1.54 C
760 31-01-2019 15:15:00 2.4 C 94 % 1.54 C
761 31-01-2019 15:20:00 2.4 C 94 % 1.54 C
762 31-01-2019 15:25:00 2.3 C 93 % 1.29 C
763 31-01-2019 15:30:00 2.3 C 93 % 1.29 C
764 31-01-2019 15:35:00 2.3 C 93 % 1.29 C
765 31-01-2019 15:40:00 2.2 C 93 % 1.19 C
766 31-01-2019 15:45:00 2.1 C 93 % 1.09 C
767 31-01-2019 15:50:00 2.1 C 93 % 1.09 C
768 31-01-2019 15:55:00 2 C 93 % 0.99 C
769 31-01-2019 16:00:00 1.9 C 93 % 0.89 C
770 31-01-2019 16:05:00 1.8 C 93 % 0.79 C
771 31-01-2019 16:10:00 1.7 C 93 % 0.69 C
772 31-01-2019 16:15:00 1.7 C 93 % 0.69 C
773 31-01-2019 16:20:00 1.6 C 93 % 0.59 C
774 31-01-2019 16:25:00 1.6 C 93 % 0.59 C
775 31-01-2019 16:30:00 1.6 C 93 % 0.59 C
Sensor: Nr:Datum:Temp:Feuchte:Taupunkt:
Aussen-T/F 776 31-01-2019 16:35:00 1.5 C 94 % 0.64 C
777 31-01-2019 16:40:00 1.4 C 93 % 0.4 C
778 31-01-2019 16:45:00 1.4 C 93 % 0.4 C
779 31-01-2019 16:50:00 1.3 C 94 % 0.44 C
780 31-01-2019 16:55:00 1.3 C 94 % 0.44 C
781 31-01-2019 17:00:00 1.2 C 94 % 0.34 C
782 31-01-2019 17:05:00 1.2 C 94 % 0.34 C
783 31-01-2019 17:10:00 1.1 C 94 % 0.24 C
784 31-01-2019 17:15:00 1.1 C 94 % 0.24 C
785 31-01-2019 17:20:00 1.1 C 94 % 0.24 C
786 31-01-2019 17:25:00 0.9 C 94 % 0.05 C
787 31-01-2019 17:30:00 0.9 C 94 % 0.05 C
788 31-01-2019 17:35:00 0.8 C 94 % -0.05 C
789 31-01-2019 17:40:00 0.8 C 94 % -0.05 C
790 31-01-2019 17:45:00 0.8 C 94 % -0.05 C
791 31-01-2019 17:50:00 0.7 C 94 % -0.15 C
792 31-01-2019 17:55:00 0.6 C 94 % -0.25 C
793 31-01-2019 18:00:00 0.4 C 94 % -0.45 C
794 31-01-2019 18:05:00 0.4 C 94 % -0.45 C
795 31-01-2019 18:10:00 0.3 C 94 % -0.55 C
796 31-01-2019 18:15:00 0.3 C 94 % -0.55 C
797 31-01-2019 18:20:00 0.2 C 94 % -0.65 C
798 31-01-2019 18:25:00 0.2 C 94 % -0.65 C
799 31-01-2019 18:30:00 0 C 94 % -0.85 C
800 31-01-2019 18:35:00 -0.1 C 94 % -0.95 C
Sensor: Nr:Datum:Temp:Feuchte:Taupunkt:
Aussen-T/F 801 31-01-2019 18:40:00 -0.2 C 94 % -1.05 C
802 31-01-2019 18:45:00 -0.2 C 94 % -1.05 C
803 31-01-2019 18:50:00 -0.2 C 94 % -1.05 C
804 31-01-2019 18:55:00 -0.3 C 94 % -1.15 C
805 31-01-2019 19:00:00 -0.3 C 94 % -1.15 C
806 31-01-2019 19:05:00 -0.4 C 94 % -1.25 C
807 31-01-2019 19:10:00 -0.6 C 94 % -1.44 C
808 31-01-2019 19:15:00 -0.8 C 93 % -1.79 C
809 31-01-2019 19:20:00 -1 C 94 % -1.84 C
810 31-01-2019 19:25:00 -1.2 C 93 % -2.18 C
811 31-01-2019 19:30:00 -1.3 C 94 % -2.14 C
812 31-01-2019 19:35:00 -1.4 C 94 % -2.24 C
813 31-01-2019 19:40:00 -1.5 C 94 % -2.34 C
814 31-01-2019 19:45:00 -1.6 C 94 % -2.44 C
815 31-01-2019 19:50:00 -1.6 C 94 % -2.44 C
816 31-01-2019 19:55:00 -1.7 C 94 % -2.54 C
817 31-01-2019 20:00:00 -1.7 C 94 % -2.54 C
818 31-01-2019 20:05:00 -1.8 C 94 % -2.64 C
819 31-01-2019 20:10:00 -1.8 C 94 % -2.64 C
820 31-01-2019 20:15:00 -1.9 C 94 % -2.73 C
821 31-01-2019 20:20:00 -1.9 C 94 % -2.73 C
822 31-01-2019 20:25:00 -1.9 C 94 % -2.73 C
823 31-01-2019 20:30:00 -2 C 94 % -2.83 C
824 31-01-2019 20:35:00 -2.1 C 94 % -2.93 C
825 31-01-2019 20:40:00 -2.1 C 94 % -2.93 C
Sensor: Nr:Datum:Temp:Feuchte:Taupunkt:
Aussen-T/F 826 31-01-2019 20:45:00 -2.1 C 94 % -2.93 C
827 31-01-2019 20:50:00 -2.1 C 95 % -2.79 C
828 31-01-2019 20:55:00 -2.1 C 95 % -2.79 C
829 31-01-2019 21:00:00 -2.1 C 95 % -2.79 C
830 31-01-2019 21:05:00 -2.1 C 95 % -2.79 C
831 31-01-2019 21:10:00 -2.1 C 95 % -2.79 C
832 31-01-2019 21:15:00 -2.1 C 95 % -2.79 C
833 31-01-2019 21:20:00 -2.1 C 95 % -2.79 C
834 31-01-2019 21:25:00 -2.1 C 95 % -2.79 C
835 31-01-2019 21:30:00 -2.1 C 95 % -2.79 C
836 31-01-2019 21:35:00 -2 C 95 % -2.69 C
837 31-01-2019 21:40:00 -1.9 C 95 % -2.59 C
838 31-01-2019 21:45:00 -1.9 C 95 % -2.59 C
839 31-01-2019 21:50:00 -1.8 C 95 % -2.49 C
840 31-01-2019 21:55:00 -1.8 C 95 % -2.49 C
841 31-01-2019 22:00:00 -1.7 C 95 % -2.39 C
842 31-01-2019 22:05:00 -1.7 C 96 % -2.25 C
843 31-01-2019 22:10:00 -1.6 C 96 % -2.15 C
844 31-01-2019 22:15:00 -1.6 C 96 % -2.15 C
845 31-01-2019 22:20:00 -1.6 C 96 % -2.15 C
846 31-01-2019 22:25:00 -1.6 C 96 % -2.15 C
847 31-01-2019 22:30:00 -1.6 C 96 % -2.15 C
848 31-01-2019 22:35:00 -1.6 C 96 % -2.15 C
849 31-01-2019 22:40:00 -1.6 C 96 % -2.15 C
850 31-01-2019 22:45:00 -1.6 C 96 % -2.15 C
Sensor: Nr:Datum:Temp:Feuchte:Taupunkt:
Aussen-T/F 851 31-01-2019 22:50:00 -1.5 C 96 % -2.05 C
852 31-01-2019 22:55:00 -1.5 C 96 % -2.05 C
853 31-01-2019 23:00:00 -1.4 C 96 % -1.95 C
854 31-01-2019 23:05:00 -1.4 C 96 % -1.95 C
855 31-01-2019 23:10:00 -1.3 C 96 % -1.85 C
856 31-01-2019 23:15:00 -1.3 C 96 % -1.85 C
857 31-01-2019 23:20:00 -1.3 C 96 % -1.85 C
858 31-01-2019 23:25:00 -1.3 C 96 % -1.85 C
859 31-01-2019 23:30:00 -1.2 C 96 % -1.75 C
860 31-01-2019 23:35:00 -1.2 C 96 % -1.75 C
861 31-01-2019 23:40:00 -1.1 C 96 % -1.66 C
862 31-01-2019 23:45:00 -1.1 C 96 % -1.66 C
863 31-01-2019 23:50:00 -1.1 C 96 % -1.66 C
864 31-01-2019 23:55:00 -1 C 96 % -1.56 C
865 01-02-2019 00:00:00 -0.9 C 96 % -1.46 C
866 01-02-2019 00:05:00 -0.9 C 96 % -1.46 C
867 01-02-2019 00:10:00 -0.9 C 96 % -1.46 C
868 01-02-2019 00:15:00 -0.8 C 96 % -1.36 C
869 01-02-2019 00:20:00 -0.8 C 96 % -1.36 C
870 01-02-2019 00:25:00 -0.8 C 96 % -1.36 C
871 01-02-2019 00:30:00 -0.8 C 96 % -1.36 C
872 01-02-2019 00:35:00 -0.7 C 96 % -1.26 C
873 01-02-2019 00:40:00 -0.7 C 96 % -1.26 C
874 01-02-2019 00:45:00 -0.7 C 96 % -1.26 C
875 01-02-2019 00:50:00 -0.7 C 96 % -1.26 C
Sensor: Nr:Datum:Temp:Feuchte:Taupunkt:
Aussen-T/F 876 01-02-2019 00:55:00 -0.6 C 96 % -1.16 C
877 01-02-2019 01:00:00 -0.6 C 96 % -1.16 C
878 01-02-2019 01:05:00 -0.6 C 96 % -1.16 C
879 01-02-2019 01:10:00 -0.5 C 96 % -1.06 C
880 01-02-2019 01:15:00 -0.5 C 96 % -1.06 C
881 01-02-2019 01:20:00 -0.4 C 96 % -0.96 C
882 01-02-2019 01:25:00 -0.4 C 96 % -0.96 C
883 01-02-2019 01:30:00 -0.4 C 96 % -0.96 C
884 01-02-2019 01:35:00 -0.4 C 96 % -0.96 C
885 01-02-2019 01:40:00 -0.4 C 96 % -0.96 C
886 01-02-2019 01:45:00 -0.4 C 96 % -0.96 C
887 01-02-2019 01:50:00 -0.4 C 96 % -0.96 C
888 01-02-2019 01:55:00 -0.3 C 96 % -0.86 C
889 01-02-2019 02:00:00 -0.3 C 96 % -0.86 C
890 01-02-2019 02:05:00 -0.3 C 96 % -0.86 C
891 01-02-2019 02:10:00 -0.2 C 96 % -0.76 C
892 01-02-2019 02:15:00 -0.2 C 96 % -0.76 C
893 01-02-2019 02:20:00 -0.2 C 96 % -0.76 C
894 01-02-2019 02:25:00 -0.2 C 96 % -0.76 C
895 01-02-2019 02:30:00 -0.1 C 96 % -0.66 C
896 01-02-2019 02:35:00 -0.1 C 96 % -0.66 C
897 01-02-2019 02:40:00 -0.1 C 96 % -0.66 C
898 01-02-2019 02:45:00 0 C 96 % -0.56 C
899 01-02-2019 02:50:00 0.1 C 96 % -0.46 C
900 01-02-2019 02:55:00 0.1 C 96 % -0.46 C
Sensor: Nr:Datum:Temp:Feuchte:Taupunkt:
Aussen-T/F 901 01-02-2019 03:00:00 0.2 C 96 % -0.36 C
902 01-02-2019 03:05:00 0.3 C 96 % -0.26 C
903 01-02-2019 03:10:00 0.4 C 97 % -0.02 C
904 01-02-2019 03:15:00 0.4 C 97 % -0.02 C
905 01-02-2019 03:20:00 0.5 C 97 % 0.08 C
906 01-02-2019 03:25:00 0.6 C 97 % 0.18 C
907 01-02-2019 03:30:00 0.6 C 96 % 0.04 C
908 01-02-2019 03:35:00 0.7 C 97 % 0.28 C
909 01-02-2019 03:40:00 0.7 C 97 % 0.28 C
910 01-02-2019 03:45:00 0.8 C 97 % 0.38 C
911 01-02-2019 03:50:00 0.8 C 97 % 0.38 C
912 01-02-2019 03:55:00 0.9 C 97 % 0.48 C
913 01-02-2019 04:00:00 0.9 C 97 % 0.48 C
914 01-02-2019 04:05:00 0.9 C 97 % 0.48 C
915 01-02-2019 04:10:00 0.9 C 97 % 0.48 C
916 01-02-2019 04:15:00 1 C 96 % 0.44 C
917 01-02-2019 04:20:00 1.1 C 96 % 0.54 C
918 01-02-2019 04:25:00 1.1 C 96 % 0.54 C
919 01-02-2019 04:30:00 1.1 C 96 % 0.54 C
920 01-02-2019 04:35:00 1.2 C 96 % 0.63 C
921 01-02-2019 04:40:00 1.2 C 96 % 0.63 C
922 01-02-2019 04:45:00 1.2 C 96 % 0.63 C
923 01-02-2019 04:50:00 1.2 C 96 % 0.63 C
924 01-02-2019 04:55:00 1.2 C 96 % 0.63 C
925 01-02-2019 05:00:00 1.2 C 96 % 0.63 C
Sensor: Nr:Datum:Temp:Feuchte:Taupunkt:
Aussen-T/F 926 01-02-2019 05:05:00 1.2 C 95 % 0.49 C
927 01-02-2019 05:10:00 1.1 C 96 % 0.54 C
928 01-02-2019 05:15:00 1.2 C 96 % 0.63 C
929 01-02-2019 05:20:00 1.1 C 96 % 0.54 C
930 01-02-2019 05:25:00 1.2 C 96 % 0.63 C
931 01-02-2019 05:30:00 1.2 C 96 % 0.63 C
932 01-02-2019 05:35:00 1.2 C 96 % 0.63 C
933 01-02-2019 05:40:00 1.2 C 96 % 0.63 C
934 01-02-2019 05:45:00 1.2 C 96 % 0.63 C
935 01-02-2019 05:50:00 1.2 C 96 % 0.63 C
936 01-02-2019 05:55:00 1.2 C 96 % 0.63 C
937 01-02-2019 06:00:00 1.2 C 96 % 0.63 C
938 01-02-2019 06:05:00 1.2 C 96 % 0.63 C
939 01-02-2019 06:10:00 1.2 C 96 % 0.63 C
940 01-02-2019 06:15:00 1.2 C 96 % 0.63 C
941 01-02-2019 06:20:00 1.1 C 95 % 0.39 C
942 01-02-2019 06:25:00 1.1 C 95 % 0.39 C
943 01-02-2019 06:30:00 1.1 C 96 % 0.54 C
944 01-02-2019 06:35:00 1.1 C 96 % 0.54 C
945 01-02-2019 06:40:00 1.1 C 96 % 0.54 C
946 01-02-2019 06:45:00 1.1 C 96 % 0.54 C
947 01-02-2019 06:50:00 1.1 C 96 % 0.54 C
948 01-02-2019 06:55:00 1.1 C 96 % 0.54 C
949 01-02-2019 07:00:00 1.1 C 96 % 0.54 C
950 01-02-2019 07:05:00 1.1 C 96 % 0.54 C
Sensor: Nr:Datum:Temp:Feuchte:Taupunkt:
Aussen-T/F 951 01-02-2019 07:10:00 1.1 C 96 % 0.54 C
952 01-02-2019 07:15:00 1.1 C 96 % 0.54 C
953 01-02-2019 07:20:00 1.1 C 96 % 0.54 C
954 01-02-2019 07:25:00 1.2 C 96 % 0.63 C
955 01-02-2019 07:30:00 1.2 C 96 % 0.63 C
956 01-02-2019 07:35:00 1.2 C 96 % 0.63 C
957 01-02-2019 07:40:00 1.2 C 96 % 0.63 C
958 01-02-2019 07:45:00 1.3 C 96 % 0.73 C
959 01-02-2019 07:50:00 1.4 C 96 % 0.83 C
960 01-02-2019 07:55:00 1.4 C 96 % 0.83 C
961 01-02-2019 08:00:00 1.4 C 96 % 0.83 C
962 01-02-2019 08:05:00 1.3 C 96 % 0.73 C
963 01-02-2019 08:10:00 1.3 C 96 % 0.73 C
964 01-02-2019 08:15:00 1.3 C 96 % 0.73 C
965 01-02-2019 08:20:00 1.3 C 96 % 0.73 C
966 01-02-2019 08:25:00 1.3 C 96 % 0.73 C
967 01-02-2019 08:30:00 1.3 C 96 % 0.73 C
968 01-02-2019 08:35:00 1.2 C 96 % 0.63 C
969 01-02-2019 08:40:00 1.2 C 96 % 0.63 C
970 01-02-2019 08:45:00 1.2 C 96 % 0.63 C
971 01-02-2019 08:50:00 1.4 C 96 % 0.83 C
972 01-02-2019 08:55:00 1.6 C 97 % 1.18 C
973 01-02-2019 09:00:00 1.8 C 96 % 1.23 C
974 01-02-2019 09:05:00 1.8 C 96 % 1.23 C
975 01-02-2019 09:10:00 1.7 C 96 % 1.13 C
Sensor: Nr:Datum:Temp:Feuchte:Taupunkt:
Aussen-T/F 976 01-02-2019 09:15:00 1.7 C 96 % 1.13 C
977 01-02-2019 09:20:00 1.6 C 96 % 1.03 C
978 01-02-2019 09:25:00 1.5 C 96 % 0.93 C
979 01-02-2019 09:30:00 1.4 C 96 % 0.83 C
980 01-02-2019 09:35:00 1.4 C 96 % 0.83 C
981 01-02-2019 09:40:00 1.4 C 96 % 0.83 C
982 01-02-2019 09:45:00 1.3 C 96 % 0.73 C
983 01-02-2019 09:50:00 1.4 C 96 % 0.83 C
984 01-02-2019 09:55:00 1.5 C 96 % 0.93 C
985 01-02-2019 10:00:00 1.6 C 96 % 1.03 C
986 01-02-2019 10:05:00 1.8 C 96 % 1.23 C
987 01-02-2019 10:10:00 1.9 C 96 % 1.33 C
988 01-02-2019 10:15:00 2 C 96 % 1.43 C
989 01-02-2019 10:20:00 2.1 C 96 % 1.53 C
990 01-02-2019 10:25:00 2.2 C 96 % 1.63 C
991 01-02-2019 10:30:00 2.3 C 96 % 1.73 C
992 01-02-2019 10:35:00 2.4 C 96 % 1.83 C
993 01-02-2019 10:40:00 2.4 C 96 % 1.83 C
994 01-02-2019 10:45:00 2.6 C 96 % 2.03 C
995 01-02-2019 10:50:00 2.6 C 96 % 2.03 C
996 01-02-2019 10:55:00 2.7 C 96 % 2.13 C
997 01-02-2019 11:00:00 2.7 C 96 % 2.13 C
998 01-02-2019 11:05:00 2.8 C 96 % 2.23 C
999 01-02-2019 11:10:00 2.9 C 96 % 2.33 C
1000 01-02-2019 11:15:00 3 C 95 % 2.28 C
Sensor: Nr:Datum:Temp:Feuchte:Taupunkt:
Aussen-T/F 1001 01-02-2019 11:20:00 3.1 C 95 % 2.38 C
1002 01-02-2019 11:25:00 3.1 C 95 % 2.38 C
1003 01-02-2019 11:30:00 3.2 C 95 % 2.48 C
1004 01-02-2019 11:35:00 3.3 C 95 % 2.58 C
1005 01-02-2019 11:40:00 3.3 C 95 % 2.58 C
1006 01-02-2019 11:45:00 3.4 C 94 % 2.53 C
1007 01-02-2019 11:50:00 3.5 C 94 % 2.63 C
1008 01-02-2019 11:55:00 3.6 C 94 % 2.73 C
1009 01-02-2019 12:00:00 3.6 C 94 % 2.73 C
1010 01-02-2019 12:05:00 3.7 C 94 % 2.83 C
1011 01-02-2019 12:10:00 3.7 C 94 % 2.83 C
1012 01-02-2019 12:15:00 3.7 C 93 % 2.68 C
1013 01-02-2019 12:20:00 3.6 C 93 % 2.58 C
1014 01-02-2019 12:25:00 3.4 C 93 % 2.38 C
1015 01-02-2019 12:30:00 3.2 C 93 % 2.18 C
1016 01-02-2019 12:35:00 3.1 C 93 % 2.08 C
1017 01-02-2019 12:40:00 2.8 C 93 % 1.78 C
1018 01-02-2019 12:45:00 2.7 C 93 % 1.68 C
1019 01-02-2019 12:50:00 2.6 C 93 % 1.59 C
1020 01-02-2019 12:55:00 2.6 C 94 % 1.73 C
1021 01-02-2019 13:00:00 2.7 C 94 % 1.83 C
1022 01-02-2019 13:05:00 2.8 C 95 % 2.08 C
1023 01-02-2019 13:10:00 2.8 C 94 % 1.93 C
1024 01-02-2019 13:15:00 2.8 C 94 % 1.93 C
1025 01-02-2019 13:20:00 2.7 C 94 % 1.83 C
Sensor: Nr:Datum:Temp:Feuchte:Taupunkt:
Aussen-T/F 1026 01-02-2019 13:25:00 2.6 C 94 % 1.73 C
1027 01-02-2019 13:30:00 2.6 C 95 % 1.88 C
1028 01-02-2019 13:35:00 2.8 C 95 % 2.08 C
1029 01-02-2019 13:40:00 2.8 C 95 % 2.08 C
1030 01-02-2019 13:45:00 2.8 C 94 % 1.93 C
1031 01-02-2019 13:50:00 2.7 C 94 % 1.83 C
1032 01-02-2019 13:55:00 2.7 C 94 % 1.83 C
1033 01-02-2019 14:00:00 2.8 C 95 % 2.08 C
1034 01-02-2019 14:05:00 2.8 C 95 % 2.08 C
1035 01-02-2019 14:10:00 3.1 C 95 % 2.38 C
1036 01-02-2019 14:15:00 3.3 C 96 % 2.72 C
1037 01-02-2019 14:20:00 3.6 C 96 % 3.02 C
1038 01-02-2019 14:25:00 3.8 C 96 % 3.22 C
1039 01-02-2019 14:30:00 3.9 C 95 % 3.17 C
1040 01-02-2019 14:35:00 3.8 C 94 % 2.93 C
1041 01-02-2019 14:40:00 3.7 C 94 % 2.83 C
1042 01-02-2019 14:45:00 3.7 C 94 % 2.83 C
1043 01-02-2019 14:50:00 3.7 C 94 % 2.83 C
1044 01-02-2019 14:55:00 3.7 C 94 % 2.83 C
1045 01-02-2019 15:00:00 3.7 C 94 % 2.83 C
1046 01-02-2019 15:05:00 3.5 C 93 % 2.48 C
1047 01-02-2019 15:10:00 3.4 C 93 % 2.38 C
1048 01-02-2019 15:15:00 3.3 C 94 % 2.43 C
1049 01-02-2019 15:20:00 3.3 C 94 % 2.43 C
1050 01-02-2019 15:25:00 3.2 C 94 % 2.33 C
Sensor: Nr:Datum:Temp:Feuchte:Taupunkt:
Aussen-T/F 1051 01-02-2019 15:30:00 3.1 C 94 % 2.23 C
1052 01-02-2019 15:35:00 3 C 94 % 2.13 C
1053 01-02-2019 15:40:00 3 C 94 % 2.13 C
1054 01-02-2019 15:45:00 3.1 C 94 % 2.23 C
1055 01-02-2019 15:50:00 3.1 C 94 % 2.23 C
1056 01-02-2019 15:55:00 3.1 C 95 % 2.38 C
1057 01-02-2019 16:00:00 3.1 C 95 % 2.38 C
1058 01-02-2019 16:05:00 3.1 C 95 % 2.38 C
1059 01-02-2019 16:10:00 3.1 C 95 % 2.38 C
1060 01-02-2019 16:15:00 3.1 C 95 % 2.38 C
1061 01-02-2019 16:20:00 3 C 95 % 2.28 C
1062 01-02-2019 16:25:00 2.9 C 95 % 2.18 C
1063 01-02-2019 16:30:00 2.8 C 95 % 2.08 C
1064 01-02-2019 16:35:00 2.7 C 94 % 1.83 C
1065 01-02-2019 16:40:00 2.7 C 95 % 1.98 C
1066 01-02-2019 16:45:00 2.7 C 95 % 1.98 C
1067 01-02-2019 16:50:00 2.6 C 95 % 1.88 C
1068 01-02-2019 16:55:00 2.6 C 95 % 1.88 C
1069 01-02-2019 17:00:00 2.5 C 95 % 1.78 C
1070 01-02-2019 17:05:00 2.6 C 95 % 1.88 C
1071 01-02-2019 17:10:00 2.6 C 95 % 1.88 C
1072 01-02-2019 17:15:00 2.6 C 95 % 1.88 C
1073 01-02-2019 17:20:00 2.6 C 95 % 1.88 C
1074 01-02-2019 17:25:00 2.5 C 95 % 1.78 C
1075 01-02-2019 17:30:00 2.5 C 95 % 1.78 C
Sensor: Nr:Datum:Temp:Feuchte:Taupunkt:
Aussen-T/F 1076 01-02-2019 17:35:00 2.5 C 96 % 1.93 C
1077 01-02-2019 17:40:00 2.5 C 96 % 1.93 C
1078 01-02-2019 17:45:00 2.6 C 96 % 2.03 C
1079 01-02-2019 17:50:00 2.5 C 96 % 1.93 C
1080 01-02-2019 17:55:00 2.5 C 96 % 1.93 C
1081 01-02-2019 18:00:00 2.5 C 96 % 1.93 C
1082 01-02-2019 18:05:00 2.5 C 96 % 1.93 C
1083 01-02-2019 18:10:00 2.6 C 96 % 2.03 C
1084 01-02-2019 18:15:00 2.6 C 96 % 2.03 C
1085 01-02-2019 18:20:00 2.5 C 96 % 1.93 C
1086 01-02-2019 18:25:00 2.5 C 96 % 1.93 C
1087 01-02-2019 18:30:00 2.4 C 96 % 1.83 C
1088 01-02-2019 18:35:00 2.4 C 96 % 1.83 C
1089 01-02-2019 18:40:00 2.4 C 96 % 1.83 C
1090 01-02-2019 18:45:00 2.4 C 96 % 1.83 C
1091 01-02-2019 18:50:00 2.4 C 96 % 1.83 C
1092 01-02-2019 18:55:00 2.4 C 96 % 1.83 C
1093 01-02-2019 19:00:00 2.4 C 96 % 1.83 C
1094 01-02-2019 19:05:00 2.4 C 96 % 1.83 C
1095 01-02-2019 19:10:00 2.3 C 96 % 1.73 C
1096 01-02-2019 19:15:00 2.3 C 96 % 1.73 C
1097 01-02-2019 19:20:00 2.3 C 96 % 1.73 C
1098 01-02-2019 19:25:00 2.3 C 96 % 1.73 C
1099 01-02-2019 19:30:00 2.2 C 96 % 1.63 C
1100 01-02-2019 19:35:00 2.2 C 96 % 1.63 C
Sensor: Nr:Datum:Temp:Feuchte:Taupunkt:
Aussen-T/F 1101 01-02-2019 19:40:00 2.2 C 96 % 1.63 C
1102 01-02-2019 19:45:00 2.1 C 96 % 1.53 C
1103 01-02-2019 19:50:00 2.1 C 96 % 1.53 C
1104 01-02-2019 19:55:00 2.1 C 96 % 1.53 C
1105 01-02-2019 20:00:00 2.1 C 96 % 1.53 C
1106 01-02-2019 20:05:00 2.1 C 96 % 1.53 C
1107 01-02-2019 20:10:00 2 C 96 % 1.43 C
1108 01-02-2019 20:15:00 2 C 96 % 1.43 C
1109 01-02-2019 20:20:00 1.9 C 96 % 1.33 C
1110 01-02-2019 20:25:00 2 C 96 % 1.43 C
1111 01-02-2019 20:30:00 2 C 96 % 1.43 C
1112 01-02-2019 20:35:00 2.1 C 96 % 1.53 C
1113 01-02-2019 20:40:00 2.1 C 96 % 1.53 C
1114 01-02-2019 20:45:00 2 C 96 % 1.43 C
1115 01-02-2019 20:50:00 2 C 96 % 1.43 C
1116 01-02-2019 20:55:00 1.9 C 96 % 1.33 C
1117 01-02-2019 21:00:00 1.9 C 96 % 1.33 C
1118 01-02-2019 21:05:00 1.9 C 96 % 1.33 C
1119 01-02-2019 21:10:00 1.9 C 96 % 1.33 C
1120 01-02-2019 21:15:00 1.9 C 96 % 1.33 C
1121 01-02-2019 21:20:00 1.9 C 96 % 1.33 C
1122 01-02-2019 21:25:00 1.8 C 96 % 1.23 C
1123 01-02-2019 21:30:00 1.8 C 96 % 1.23 C
1124 01-02-2019 21:35:00 1.8 C 96 % 1.23 C
1125 01-02-2019 21:40:00 1.7 C 96 % 1.13 C
Sensor: Nr:Datum:Temp:Feuchte:Taupunkt:
Aussen-T/F 1126 01-02-2019 21:45:00 1.7 C 96 % 1.13 C
1127 01-02-2019 21:50:00 1.7 C 96 % 1.13 C
1128 01-02-2019 21:55:00 1.7 C 96 % 1.13 C
1129 01-02-2019 22:00:00 1.7 C 96 % 1.13 C
1130 01-02-2019 22:05:00 1.7 C 96 % 1.13 C
1131 01-02-2019 22:10:00 1.7 C 96 % 1.13 C
1132 01-02-2019 22:15:00 1.8 C 96 % 1.23 C
1133 01-02-2019 22:20:00 1.7 C 96 % 1.13 C
1134 01-02-2019 22:25:00 1.7 C 96 % 1.13 C
1135 01-02-2019 22:30:00 1.7 C 96 % 1.13 C
1136 01-02-2019 22:35:00 1.7 C 96 % 1.13 C
1137 01-02-2019 22:40:00 1.6 C 96 % 1.03 C
1138 01-02-2019 22:45:00 1.6 C 96 % 1.03 C
1139 01-02-2019 22:50:00 1.6 C 96 % 1.03 C
1140 01-02-2019 22:55:00 1.6 C 96 % 1.03 C
1141 01-02-2019 23:00:00 1.5 C 96 % 0.93 C
1142 01-02-2019 23:05:00 1.5 C 96 % 0.93 C
1143 01-02-2019 23:10:00 1.5 C 96 % 0.93 C
1144 01-02-2019 23:15:00 1.5 C 97 % 1.08 C
1145 01-02-2019 23:20:00 1.6 C 97 % 1.18 C
1146 01-02-2019 23:25:00 1.6 C 97 % 1.18 C
1147 01-02-2019 23:30:00 1.6 C 97 % 1.18 C
1148 01-02-2019 23:35:00 1.6 C 97 % 1.18 C
1149 01-02-2019 23:40:00 1.6 C 97 % 1.18 C
1150 01-02-2019 23:45:00 1.7 C 97 % 1.28 C
Sensor: Nr:Datum:Temp:Feuchte:Taupunkt:
Aussen-T/F 1151 01-02-2019 23:50:00 1.7 C 97 % 1.28 C
1152 01-02-2019 23:55:00 1.7 C 97 % 1.28 C
1153 02-02-2019 00:00:00 1.7 C 97 % 1.28 C
1154 02-02-2019 00:05:00 1.7 C 97 % 1.28 C
1155 02-02-2019 00:10:00 1.7 C 97 % 1.28 C
1156 02-02-2019 00:15:00 1.7 C 97 % 1.28 C
1157 02-02-2019 00:20:00 1.7 C 97 % 1.28 C
1158 02-02-2019 00:25:00 1.7 C 97 % 1.28 C
1159 02-02-2019 00:30:00 1.7 C 97 % 1.28 C
1160 02-02-2019 00:35:00 1.8 C 97 % 1.38 C
1161 02-02-2019 00:40:00 1.8 C 97 % 1.38 C
1162 02-02-2019 00:45:00 1.8 C 97 % 1.38 C
1163 02-02-2019 00:50:00 1.8 C 97 % 1.38 C
1164 02-02-2019 00:55:00 1.8 C 97 % 1.38 C
1165 02-02-2019 01:00:00 1.8 C 97 % 1.38 C
1166 02-02-2019 01:05:00 1.8 C 97 % 1.38 C
1167 02-02-2019 01:10:00 1.8 C 97 % 1.38 C
1168 02-02-2019 01:15:00 1.8 C 97 % 1.38 C
1169 02-02-2019 01:20:00 1.8 C 97 % 1.38 C
1170 02-02-2019 01:25:00 1.8 C 97 % 1.38 C
1171 02-02-2019 01:30:00 1.8 C 97 % 1.38 C
1172 02-02-2019 01:35:00 1.8 C 97 % 1.38 C
1173 02-02-2019 01:40:00 1.8 C 97 % 1.38 C
1174 02-02-2019 01:45:00 1.9 C 97 % 1.48 C
1175 02-02-2019 01:50:00 1.9 C 97 % 1.48 C
Sensor: Nr:Datum:Temp:Feuchte:Taupunkt:
Aussen-T/F 1176 02-02-2019 01:55:00 1.9 C 97 % 1.48 C
1177 02-02-2019 02:00:00 1.9 C 97 % 1.48 C
1178 02-02-2019 02:05:00 1.9 C 97 % 1.48 C
1179 02-02-2019 02:10:00 1.9 C 97 % 1.48 C
1180 02-02-2019 02:15:00 1.8 C 97 % 1.38 C
1181 02-02-2019 02:20:00 1.8 C 97 % 1.38 C
1182 02-02-2019 02:25:00 1.8 C 97 % 1.38 C
1183 02-02-2019 02:30:00 1.8 C 97 % 1.38 C
1184 02-02-2019 02:35:00 1.8 C 97 % 1.38 C
1185 02-02-2019 02:40:00 1.8 C 97 % 1.38 C
1186 02-02-2019 02:45:00 1.8 C 97 % 1.38 C
1187 02-02-2019 02:50:00 1.8 C 97 % 1.38 C
1188 02-02-2019 02:55:00 1.8 C 97 % 1.38 C
1189 02-02-2019 03:00:00 1.8 C 97 % 1.38 C
1190 02-02-2019 03:05:00 1.8 C 97 % 1.38 C
1191 02-02-2019 03:10:00 1.7 C 97 % 1.28 C
1192 02-02-2019 03:15:00 1.7 C 97 % 1.28 C
1193 02-02-2019 03:20:00 1.7 C 97 % 1.28 C
1194 02-02-2019 03:25:00 1.7 C 97 % 1.28 C
1195 02-02-2019 03:30:00 1.7 C 97 % 1.28 C
1196 02-02-2019 03:35:00 1.7 C 97 % 1.28 C
1197 02-02-2019 03:40:00 1.7 C 97 % 1.28 C
1198 02-02-2019 03:45:00 1.8 C 97 % 1.38 C
1199 02-02-2019 03:50:00 1.9 C 97 % 1.48 C
1200 02-02-2019 03:55:00 1.9 C 97 % 1.48 C
Sensor: Nr:Datum:Temp:Feuchte:Taupunkt:
Aussen-T/F 1201 02-02-2019 04:00:00 1.9 C 97 % 1.48 C
1202 02-02-2019 04:05:00 1.9 C 97 % 1.48 C
1203 02-02-2019 04:10:00 1.8 C 97 % 1.38 C
1204 02-02-2019 04:15:00 1.8 C 97 % 1.38 C
1205 02-02-2019 04:20:00 1.8 C 97 % 1.38 C
1206 02-02-2019 04:25:00 1.8 C 97 % 1.38 C
1207 02-02-2019 04:30:00 1.8 C 97 % 1.38 C
1208 02-02-2019 04:35:00 1.8 C 97 % 1.38 C
1209 02-02-2019 04:40:00 1.8 C 97 % 1.38 C
1210 02-02-2019 04:45:00 1.8 C 97 % 1.38 C
1211 02-02-2019 04:50:00 1.8 C 97 % 1.38 C
1212 02-02-2019 04:55:00 1.8 C 97 % 1.38 C
1213 02-02-2019 05:00:00 1.7 C 97 % 1.28 C
1214 02-02-2019 05:05:00 1.7 C 97 % 1.28 C
1215 02-02-2019 05:10:00 1.7 C 97 % 1.28 C
1216 02-02-2019 05:15:00 1.7 C 97 % 1.28 C
1217 02-02-2019 05:20:00 1.7 C 97 % 1.28 C
1218 02-02-2019 05:25:00 1.7 C 97 % 1.28 C
1219 02-02-2019 05:30:00 1.7 C 97 % 1.28 C
1220 02-02-2019 05:35:00 1.7 C 97 % 1.28 C
1221 02-02-2019 05:40:00 1.7 C 97 % 1.28 C
1222 02-02-2019 05:45:00 1.7 C 97 % 1.28 C
1223 02-02-2019 05:50:00 1.7 C 97 % 1.28 C
1224 02-02-2019 05:55:00 1.8 C 97 % 1.38 C
1225 02-02-2019 06:00:00 1.8 C 97 % 1.38 C
Sensor: Nr:Datum:Temp:Feuchte:Taupunkt:
Aussen-T/F 1226 02-02-2019 06:05:00 1.8 C 97 % 1.38 C
1227 02-02-2019 06:10:00 1.8 C 97 % 1.38 C
1228 02-02-2019 06:15:00 1.7 C 97 % 1.28 C
1229 02-02-2019 06:20:00 1.7 C 97 % 1.28 C
1230 02-02-2019 06:25:00 1.7 C 97 % 1.28 C
1231 02-02-2019 06:30:00 1.7 C 97 % 1.28 C
1232 02-02-2019 06:35:00 1.7 C 97 % 1.28 C
1233 02-02-2019 06:40:00 1.7 C 97 % 1.28 C
1234 02-02-2019 06:45:00 1.7 C 97 % 1.28 C
1235 02-02-2019 06:50:00 1.7 C 97 % 1.28 C
1236 02-02-2019 06:55:00 1.7 C 97 % 1.28 C
1237 02-02-2019 07:00:00 1.7 C 97 % 1.28 C
1238 02-02-2019 07:05:00 1.7 C 97 % 1.28 C
1239 02-02-2019 07:10:00 1.7 C 97 % 1.28 C
1240 02-02-2019 07:15:00 1.7 C 97 % 1.28 C
1241 02-02-2019 07:20:00 1.7 C 97 % 1.28 C
1242 02-02-2019 07:25:00 1.8 C 97 % 1.38 C
1243 02-02-2019 07:30:00 1.7 C 97 % 1.28 C
1244 02-02-2019 07:35:00 1.8 C 97 % 1.38 C
1245 02-02-2019 07:40:00 1.7 C 97 % 1.28 C
1246 02-02-2019 07:45:00 1.7 C 97 % 1.28 C
1247 02-02-2019 07:50:00 1.8 C 97 % 1.38 C
1248 02-02-2019 07:55:00 1.8 C 97 % 1.38 C
1249 02-02-2019 08:00:00 1.8 C 97 % 1.38 C
1250 02-02-2019 08:05:00 1.8 C 97 % 1.38 C
Sensor: Nr:Datum:Temp:Feuchte:Taupunkt:
Aussen-T/F 1251 02-02-2019 08:10:00 1.8 C 97 % 1.38 C
1252 02-02-2019 08:15:00 1.8 C 97 % 1.38 C
1253 02-02-2019 08:20:00 1.8 C 97 % 1.38 C
1254 02-02-2019 08:25:00 1.8 C 97 % 1.38 C
1255 02-02-2019 08:30:00 1.8 C 97 % 1.38 C
1256 02-02-2019 08:35:00 1.8 C 97 % 1.38 C
1257 02-02-2019 08:40:00 1.8 C 97 % 1.38 C
1258 02-02-2019 08:45:00 1.8 C 97 % 1.38 C
1259 02-02-2019 08:50:00 1.8 C 97 % 1.38 C
1260 02-02-2019 08:55:00 1.8 C 97 % 1.38 C
1261 02-02-2019 09:00:00 1.8 C 97 % 1.38 C
1262 02-02-2019 09:05:00 1.9 C 97 % 1.48 C
1263 02-02-2019 09:10:00 1.9 C 97 % 1.48 C
1264 02-02-2019 09:15:00 1.9 C 97 % 1.48 C
1265 02-02-2019 09:20:00 2 C 97 % 1.58 C
1266 02-02-2019 09:25:00 2.1 C 97 % 1.67 C
1267 02-02-2019 09:30:00 2.1 C 97 % 1.67 C
1268 02-02-2019 09:35:00 2.2 C 97 % 1.77 C
1269 02-02-2019 09:40:00 2.2 C 97 % 1.77 C
1270 02-02-2019 09:45:00 2.3 C 97 % 1.87 C
1271 02-02-2019 09:50:00 2.3 C 97 % 1.87 C
1272 02-02-2019 09:55:00 2.4 C 97 % 1.97 C
1273 02-02-2019 10:00:00 2.5 C 98 % 2.22 C
1274 02-02-2019 10:05:00 2.6 C 98 % 2.32 C
1275 02-02-2019 10:10:00 2.6 C 97 % 2.17 C
Sensor: Nr:Datum:Temp:Feuchte:Taupunkt:
Aussen-T/F 1276 02-02-2019 10:15:00 2.7 C 97 % 2.27 C
1277 02-02-2019 10:20:00 2.7 C 98 % 2.42 C
1278 02-02-2019 10:25:00 2.7 C 98 % 2.42 C
1279 02-02-2019 10:30:00 2.8 C 98 % 2.52 C
1280 02-02-2019 10:35:00 2.8 C 98 % 2.52 C
1281 02-02-2019 10:40:00 2.8 C 97 % 2.37 C
1282 02-02-2019 10:45:00 2.8 C 97 % 2.37 C
1283 02-02-2019 10:50:00 2.8 C 97 % 2.37 C
1284 02-02-2019 10:55:00 2.8 C 97 % 2.37 C
1285 02-02-2019 11:00:00 2.9 C 97 % 2.47 C
1286 02-02-2019 11:05:00 2.9 C 97 % 2.47 C
1287 02-02-2019 11:10:00 3 C 97 % 2.57 C
1288 02-02-2019 11:15:00 3 C 97 % 2.57 C
1289 02-02-2019 11:20:00 3.1 C 97 % 2.67 C
1290 02-02-2019 11:25:00 3.1 C 97 % 2.67 C
1291 02-02-2019 11:30:00 3.1 C 97 % 2.67 C
1292 02-02-2019 11:35:00 3.1 C 97 % 2.67 C
1293 02-02-2019 11:40:00 3.1 C 97 % 2.67 C
1294 02-02-2019 11:45:00 3.1 C 97 % 2.67 C
1295 02-02-2019 11:50:00 3.1 C 97 % 2.67 C
1296 02-02-2019 11:55:00 3.1 C 97 % 2.67 C
1297 02-02-2019 12:00:00 3.1 C 97 % 2.67 C
1298 02-02-2019 12:05:00 3.2 C 97 % 2.77 C
1299 02-02-2019 12:10:00 3.2 C 97 % 2.77 C
1300 02-02-2019 12:15:00 3.2 C 97 % 2.77 C
Sensor: Nr:Datum:Temp:Feuchte:Taupunkt:
Aussen-T/F 1301 02-02-2019 12:20:00 3.3 C 97 % 2.87 C
1302 02-02-2019 12:25:00 3.3 C 97 % 2.87 C
1303 02-02-2019 12:30:00 3.3 C 97 % 2.87 C
1304 02-02-2019 12:35:00 3.4 C 97 % 2.97 C
1305 02-02-2019 12:40:00 3.4 C 97 % 2.97 C
1306 02-02-2019 12:45:00 3.4 C 97 % 2.97 C
1307 02-02-2019 12:50:00 3.5 C 97 % 3.07 C
1308 02-02-2019 12:55:00 3.5 C 97 % 3.07 C
1309 02-02-2019 13:00:00 3.5 C 97 % 3.07 C
1310 02-02-2019 13:05:00 3.4 C 97 % 2.97 C
1311 02-02-2019 13:10:00 3.5 C 97 % 3.07 C
1312 02-02-2019 13:15:00 3.6 C 97 % 3.17 C
1313 02-02-2019 13:20:00 3.7 C 97 % 3.27 C
1314 02-02-2019 13:25:00 3.7 C 97 % 3.27 C
1315 02-02-2019 13:30:00 3.8 C 97 % 3.37 C
1316 02-02-2019 13:35:00 3.7 C 97 % 3.27 C
1317 02-02-2019 13:40:00 3.8 C 97 % 3.37 C
1318 02-02-2019 13:45:00 3.8 C 97 % 3.37 C
1319 02-02-2019 13:50:00 3.8 C 97 % 3.37 C
1320 02-02-2019 13:55:00 3.8 C 97 % 3.37 C
1321 02-02-2019 14:00:00 3.8 C 97 % 3.37 C
1322 02-02-2019 14:05:00 3.8 C 97 % 3.37 C
1323 02-02-2019 14:10:00 3.8 C 97 % 3.37 C
1324 02-02-2019 14:15:00 3.8 C 97 % 3.37 C
1325 02-02-2019 14:20:00 3.8 C 97 % 3.37 C
Sensor: Nr:Datum:Temp:Feuchte:Taupunkt:
Aussen-T/F 1326 02-02-2019 14:25:00 3.8 C 97 % 3.37 C
1327 02-02-2019 14:30:00 3.7 C 97 % 3.27 C
1328 02-02-2019 14:35:00 3.7 C 97 % 3.27 C
1329 02-02-2019 14:40:00 3.7 C 97 % 3.27 C
1330 02-02-2019 14:45:00 3.6 C 97 % 3.17 C
1331 02-02-2019 14:50:00 3.6 C 97 % 3.17 C
1332 02-02-2019 14:55:00 3.6 C 97 % 3.17 C
1333 02-02-2019 15:00:00 3.6 C 97 % 3.17 C
1334 02-02-2019 15:05:00 3.7 C 97 % 3.27 C
1335 02-02-2019 15:10:00 3.8 C 97 % 3.37 C
1336 02-02-2019 15:15:00 3.8 C 97 % 3.37 C
1337 02-02-2019 15:20:00 3.9 C 97 % 3.47 C
1338 02-02-2019 15:25:00 4 C 97 % 3.57 C
1339 02-02-2019 15:30:00 4 C 97 % 3.57 C
1340 02-02-2019 15:35:00 4.1 C 97 % 3.67 C
1341 02-02-2019 15:40:00 4.1 C 97 % 3.67 C
1342 02-02-2019 15:45:00 4 C 97 % 3.57 C
1343 02-02-2019 15:50:00 4 C 97 % 3.57 C
1344 02-02-2019 15:55:00 3.9 C 97 % 3.47 C
1345 02-02-2019 16:00:00 3.9 C 97 % 3.47 C
1346 02-02-2019 16:05:00 3.8 C 97 % 3.37 C
1347 02-02-2019 16:10:00 3.8 C 97 % 3.37 C
1348 02-02-2019 16:15:00 3.7 C 97 % 3.27 C
1349 02-02-2019 16:20:00 3.7 C 97 % 3.27 C
1350 02-02-2019 16:25:00 3.7 C 97 % 3.27 C
Sensor: Nr:Datum:Temp:Feuchte:Taupunkt:
Aussen-T/F 1351 02-02-2019 16:30:00 3.7 C 97 % 3.27 C
1352 02-02-2019 16:35:00 3.7 C 97 % 3.27 C
1353 02-02-2019 16:40:00 3.6 C 97 % 3.17 C
1354 02-02-2019 16:45:00 3.6 C 97 % 3.17 C
1355 02-02-2019 16:50:00 3.5 C 97 % 3.07 C
1356 02-02-2019 16:55:00 3.4 C 97 % 2.97 C
1357 02-02-2019 17:00:00 3.3 C 97 % 2.87 C
1358 02-02-2019 17:05:00 3.3 C 97 % 2.87 C
1359 02-02-2019 17:10:00 3.2 C 97 % 2.77 C
1360 02-02-2019 17:15:00 3.2 C 97 % 2.77 C
1361 02-02-2019 17:20:00 3.2 C 97 % 2.77 C
1362 02-02-2019 17:25:00 3.2 C 97 % 2.77 C
1363 02-02-2019 17:30:00 3.2 C 97 % 2.77 C
1364 02-02-2019 17:35:00 3.1 C 97 % 2.67 C
1365 02-02-2019 17:40:00 3.2 C 97 % 2.77 C
1366 02-02-2019 17:45:00 3.3 C 97 % 2.87 C
1367 02-02-2019 17:50:00 3.4 C 97 % 2.97 C
1368 02-02-2019 17:55:00 3.4 C 97 % 2.97 C
1369 02-02-2019 18:00:00 3.4 C 97 % 2.97 C
1370 02-02-2019 18:05:00 3.4 C 97 % 2.97 C
1371 02-02-2019 18:10:00 3.3 C 97 % 2.87 C
1372 02-02-2019 18:15:00 3.3 C 97 % 2.87 C
1373 02-02-2019 18:20:00 3.2 C 97 % 2.77 C
1374 02-02-2019 18:25:00 3.2 C 97 % 2.77 C
1375 02-02-2019 18:30:00 3.2 C 97 % 2.77 C
Sensor: Nr:Datum:Temp:Feuchte:Taupunkt:
Aussen-T/F 1376 02-02-2019 18:35:00 3.1 C 97 % 2.67 C
1377 02-02-2019 18:40:00 3.1 C 97 % 2.67 C
1378 02-02-2019 18:45:00 3 C 97 % 2.57 C
1379 02-02-2019 18:50:00 2.9 C 97 % 2.47 C
1380 02-02-2019 18:55:00 2.8 C 97 % 2.37 C
1381 02-02-2019 19:00:00 2.8 C 96 % 2.23 C
1382 02-02-2019 19:05:00 2.8 C 97 % 2.37 C
1383 02-02-2019 19:10:00 2.7 C 96 % 2.13 C
1384 02-02-2019 19:15:00 2.7 C 96 % 2.13 C
1385 02-02-2019 19:20:00 2.7 C 97 % 2.27 C
1386 02-02-2019 19:25:00 2.6 C 97 % 2.17 C
1387 02-02-2019 19:30:00 2.6 C 97 % 2.17 C
1388 02-02-2019 19:35:00 2.6 C 96 % 2.03 C
1389 02-02-2019 19:40:00 2.6 C 97 % 2.17 C
1390 02-02-2019 19:45:00 2.5 C 97 % 2.07 C
1391 02-02-2019 19:50:00 2.5 C 97 % 2.07 C
1392 02-02-2019 19:55:00 2.4 C 97 % 1.97 C
1393 02-02-2019 20:00:00 2.4 C 97 % 1.97 C
1394 02-02-2019 20:05:00 2.4 C 97 % 1.97 C
1395 02-02-2019 20:10:00 2.4 C 96 % 1.83 C
1396 02-02-2019 20:15:00 2.3 C 96 % 1.73 C
1397 02-02-2019 20:20:00 2.3 C 96 % 1.73 C
1398 02-02-2019 20:25:00 2.3 C 96 % 1.73 C
1399 02-02-2019 20:30:00 2.3 C 96 % 1.73 C
1400 02-02-2019 20:35:00 2.3 C 96 % 1.73 C
Sensor: Nr:Datum:Temp:Feuchte:Taupunkt:
Aussen-T/F 1401 02-02-2019 20:40:00 2.3 C 96 % 1.73 C
1402 02-02-2019 20:45:00 2.3 C 96 % 1.73 C
1403 02-02-2019 20:50:00 2.2 C 96 % 1.63 C
1404 02-02-2019 20:55:00 2.2 C 96 % 1.63 C
1405 02-02-2019 21:00:00 2.2 C 96 % 1.63 C
1406 02-02-2019 21:05:00 2.2 C 96 % 1.63 C
1407 02-02-2019 21:10:00 2.2 C 96 % 1.63 C
1408 02-02-2019 21:15:00 2.1 C 96 % 1.53 C
1409 02-02-2019 21:20:00 2.1 C 96 % 1.53 C
1410 02-02-2019 21:25:00 2.1 C 96 % 1.53 C
1411 02-02-2019 21:30:00 2.1 C 96 % 1.53 C
1412 02-02-2019 21:35:00 2.1 C 96 % 1.53 C
1413 02-02-2019 21:40:00 2.1 C 96 % 1.53 C
1414 02-02-2019 21:45:00 2 C 96 % 1.43 C
1415 02-02-2019 21:50:00 2 C 96 % 1.43 C
1416 02-02-2019 21:55:00 2 C 96 % 1.43 C
1417 02-02-2019 22:00:00 1.9 C 96 % 1.33 C
1418 02-02-2019 22:05:00 1.9 C 96 % 1.33 C
1419 02-02-2019 22:10:00 1.9 C 96 % 1.33 C
1420 02-02-2019 22:15:00 1.9 C 96 % 1.33 C
1421 02-02-2019 22:20:00 1.9 C 96 % 1.33 C
1422 02-02-2019 22:25:00 1.9 C 96 % 1.33 C
1423 02-02-2019 22:30:00 1.9 C 96 % 1.33 C
1424 02-02-2019 22:35:00 1.9 C 96 % 1.33 C
1425 02-02-2019 22:40:00 1.9 C 96 % 1.33 C
Sensor: Nr:Datum:Temp:Feuchte:Taupunkt:
Aussen-T/F 1426 02-02-2019 22:45:00 1.8 C 96 % 1.23 C
1427 02-02-2019 22:50:00 1.8 C 96 % 1.23 C
1428 02-02-2019 22:55:00 1.8 C 96 % 1.23 C
1429 02-02-2019 23:00:00 1.8 C 96 % 1.23 C
1430 02-02-2019 23:05:00 1.8 C 96 % 1.23 C
1431 02-02-2019 23:10:00 1.8 C 96 % 1.23 C
1432 02-02-2019 23:15:00 1.8 C 96 % 1.23 C
1433 02-02-2019 23:20:00 1.8 C 96 % 1.23 C
1434 02-02-2019 23:25:00 1.8 C 96 % 1.23 C
1435 02-02-2019 23:30:00 1.8 C 97 % 1.38 C
1436 02-02-2019 23:35:00 1.8 C 97 % 1.38 C
1437 02-02-2019 23:40:00 1.8 C 97 % 1.38 C
1438 02-02-2019 23:45:00 1.8 C 97 % 1.38 C
1439 02-02-2019 23:50:00 1.8 C 96 % 1.23 C
1440 02-02-2019 23:55:00 1.8 C 96 % 1.23 C
1441 03-02-2019 00:00:00 1.8 C 97 % 1.38 C
1442 03-02-2019 00:05:00 1.8 C 96 % 1.23 C
1443 03-02-2019 00:10:00 1.8 C 97 % 1.38 C
1444 03-02-2019 00:15:00 1.8 C 97 % 1.38 C
1445 03-02-2019 00:20:00 1.9 C 97 % 1.48 C
1446 03-02-2019 00:25:00 1.9 C 97 % 1.48 C
1447 03-02-2019 00:30:00 1.9 C 97 % 1.48 C
1448 03-02-2019 00:35:00 1.9 C 96 % 1.33 C
1449 03-02-2019 00:40:00 1.9 C 96 % 1.33 C
1450 03-02-2019 00:45:00 1.9 C 96 % 1.33 C
Sensor: Nr:Datum:Temp:Feuchte:Taupunkt:
Aussen-T/F 1451 03-02-2019 00:50:00 1.9 C 96 % 1.33 C
1452 03-02-2019 00:55:00 2 C 96 % 1.43 C
1453 03-02-2019 01:00:00 2 C 96 % 1.43 C
1454 03-02-2019 01:05:00 2 C 96 % 1.43 C
1455 03-02-2019 01:10:00 2 C 96 % 1.43 C
1456 03-02-2019 01:15:00 2 C 96 % 1.43 C
1457 03-02-2019 01:20:00 2.1 C 96 % 1.53 C
1458 03-02-2019 01:25:00 2.1 C 96 % 1.53 C
1459 03-02-2019 01:30:00 2.1 C 96 % 1.53 C
1460 03-02-2019 01:35:00 2.1 C 96 % 1.53 C
1461 03-02-2019 01:40:00 2.1 C 96 % 1.53 C
1462 03-02-2019 01:45:00 2.1 C 96 % 1.53 C
1463 03-02-2019 01:50:00 2.1 C 96 % 1.53 C
1464 03-02-2019 01:55:00 2.1 C 96 % 1.53 C
1465 03-02-2019 02:00:00 2.1 C 96 % 1.53 C
1466 03-02-2019 02:05:00 2.1 C 95 % 1.38 C
1467 03-02-2019 02:10:00 2.1 C 95 % 1.38 C
1468 03-02-2019 02:15:00 2.1 C 95 % 1.38 C
1469 03-02-2019 02:20:00 2.1 C 95 % 1.38 C
1470 03-02-2019 02:25:00 2.2 C 95 % 1.48 C
1471 03-02-2019 02:30:00 2.2 C 94 % 1.34 C
1472 03-02-2019 02:35:00 2.2 C 94 % 1.34 C
1473 03-02-2019 02:40:00 2.2 C 94 % 1.34 C
1474 03-02-2019 02:45:00 2.2 C 93 % 1.19 C
1475 03-02-2019 02:50:00 2.2 C 93 % 1.19 C
Sensor: Nr:Datum:Temp:Feuchte:Taupunkt:
Aussen-T/F 1476 03-02-2019 02:55:00 2.2 C 93 % 1.19 C
1477 03-02-2019 03:00:00 2.2 C 93 % 1.19 C
1478 03-02-2019 03:05:00 2.2 C 93 % 1.19 C
1479 03-02-2019 03:10:00 2.2 C 93 % 1.19 C
1480 03-02-2019 03:15:00 2.2 C 93 % 1.19 C
1481 03-02-2019 03:20:00 2.2 C 93 % 1.19 C
1482 03-02-2019 03:25:00 2.2 C 93 % 1.19 C
1483 03-02-2019 03:30:00 2.2 C 93 % 1.19 C
1484 03-02-2019 03:35:00 2.2 C 93 % 1.19 C
1485 03-02-2019 03:40:00 2.2 C 93 % 1.19 C
1486 03-02-2019 03:45:00 2.2 C 93 % 1.19 C
1487 03-02-2019 03:50:00 2.1 C 93 % 1.09 C
1488 03-02-2019 03:55:00 2.1 C 93 % 1.09 C
1489 03-02-2019 04:00:00 2.1 C 93 % 1.09 C
1490 03-02-2019 04:05:00 2.1 C 93 % 1.09 C
1491 03-02-2019 04:10:00 2.1 C 93 % 1.09 C
1492 03-02-2019 04:15:00 2.1 C 93 % 1.09 C
1493 03-02-2019 04:20:00 2.1 C 93 % 1.09 C
1494 03-02-2019 04:25:00 2.1 C 93 % 1.09 C
1495 03-02-2019 04:30:00 2.1 C 94 % 1.24 C
1496 03-02-2019 04:35:00 2.1 C 94 % 1.24 C
1497 03-02-2019 04:40:00 2.1 C 94 % 1.24 C
1498 03-02-2019 04:45:00 2.1 C 94 % 1.24 C
1499 03-02-2019 04:50:00 2.1 C 94 % 1.24 C
1500 03-02-2019 04:55:00 2.1 C 94 % 1.24 C
Sensor: Nr:Datum:Temp:Feuchte:Taupunkt:
Aussen-T/F 1501 03-02-2019 05:00:00 2.1 C 94 % 1.24 C
1502 03-02-2019 05:05:00 2.1 C 93 % 1.09 C
1503 03-02-2019 05:10:00 2.2 C 93 % 1.19 C
1504 03-02-2019 05:15:00 2.2 C 93 % 1.19 C
1505 03-02-2019 05:20:00 2.2 C 93 % 1.19 C
1506 03-02-2019 05:25:00 2.2 C 93 % 1.19 C
1507 03-02-2019 05:30:00 2.2 C 93 % 1.19 C
1508 03-02-2019 05:35:00 2.2 C 93 % 1.19 C
1509 03-02-2019 05:40:00 2.2 C 93 % 1.19 C
1510 03-02-2019 05:45:00 2.2 C 93 % 1.19 C
1511 03-02-2019 05:50:00 2.2 C 93 % 1.19 C
1512 03-02-2019 05:55:00 2.2 C 93 % 1.19 C
1513 03-02-2019 06:00:00 2.2 C 93 % 1.19 C
1514 03-02-2019 06:05:00 2.2 C 93 % 1.19 C
1515 03-02-2019 06:10:00 2.2 C 93 % 1.19 C
1516 03-02-2019 06:15:00 2.3 C 92 % 1.14 C
1517 03-02-2019 06:20:00 2.3 C 92 % 1.14 C
1518 03-02-2019 06:25:00 2.3 C 93 % 1.29 C
1519 03-02-2019 06:30:00 2.2 C 92 % 1.04 C
1520 03-02-2019 06:35:00 2.2 C 92 % 1.04 C
1521 03-02-2019 06:40:00 2.2 C 92 % 1.04 C
1522 03-02-2019 06:45:00 2.1 C 92 % 0.94 C
1523 03-02-2019 06:50:00 2.1 C 93 % 1.09 C
1524 03-02-2019 06:55:00 2 C 93 % 0.99 C
1525 03-02-2019 07:00:00 1.9 C 93 % 0.89 C
Sensor: Nr:Datum:Temp:Feuchte:Taupunkt:
Aussen-T/F 1526 03-02-2019 07:05:00 1.9 C 93 % 0.89 C
1527 03-02-2019 07:10:00 1.9 C 93 % 0.89 C
1528 03-02-2019 07:15:00 1.9 C 93 % 0.89 C
1529 03-02-2019 07:20:00 1.9 C 93 % 0.89 C
1530 03-02-2019 07:25:00 1.9 C 93 % 0.89 C
1531 03-02-2019 07:30:00 1.9 C 93 % 0.89 C
1532 03-02-2019 07:35:00 1.9 C 93 % 0.89 C
1533 03-02-2019 07:40:00 1.9 C 93 % 0.89 C
1534 03-02-2019 07:45:00 1.9 C 93 % 0.89 C
1535 03-02-2019 07:50:00 1.9 C 93 % 0.89 C
1536 03-02-2019 07:55:00 1.9 C 93 % 0.89 C
1537 03-02-2019 08:00:00 1.9 C 93 % 0.89 C
1538 03-02-2019 08:05:00 1.9 C 93 % 0.89 C
1539 03-02-2019 08:10:00 1.8 C 93 % 0.79 C
1540 03-02-2019 08:15:00 1.8 C 93 % 0.79 C
1541 03-02-2019 08:20:00 1.8 C 93 % 0.79 C
1542 03-02-2019 08:25:00 1.9 C 93 % 0.89 C
1543 03-02-2019 08:30:00 1.9 C 93 % 0.89 C
1544 03-02-2019 08:35:00 1.9 C 93 % 0.89 C
1545 03-02-2019 08:40:00 1.9 C 93 % 0.89 C
1546 03-02-2019 08:45:00 1.9 C 93 % 0.89 C
1547 03-02-2019 08:50:00 1.9 C 93 % 0.89 C
1548 03-02-2019 08:55:00 1.9 C 93 % 0.89 C
1549 03-02-2019 09:00:00 1.9 C 93 % 0.89 C
1550 03-02-2019 09:05:00 1.9 C 93 % 0.89 C
Sensor: Nr:Datum:Temp:Feuchte:Taupunkt:
Aussen-T/F 1551 03-02-2019 09:10:00 2 C 93 % 0.99 C
1552 03-02-2019 09:15:00 2 C 94 % 1.14 C
1553 03-02-2019 09:20:00 2 C 94 % 1.14 C
1554 03-02-2019 09:25:00 2 C 94 % 1.14 C
1555 03-02-2019 09:30:00 2 C 93 % 0.99 C
1556 03-02-2019 09:35:00 2 C 93 % 0.99 C
1557 03-02-2019 09:40:00 2 C 93 % 0.99 C
1558 03-02-2019 09:45:00 2 C 93 % 0.99 C
1559 03-02-2019 09:50:00 2.1 C 93 % 1.09 C
1560 03-02-2019 09:55:00 2.2 C 92 % 1.04 C
1561 03-02-2019 10:00:00 2.2 C 92 % 1.04 C
1562 03-02-2019 10:05:00 2.3 C 92 % 1.14 C
1563 03-02-2019 10:10:00 2.3 C 92 % 1.14 C
1564 03-02-2019 10:15:00 2.4 C 92 % 1.24 C
1565 03-02-2019 10:20:00 2.4 C 92 % 1.24 C
1566 03-02-2019 10:25:00 2.4 C 92 % 1.24 C
1567 03-02-2019 10:30:00 2.5 C 91 % 1.18 C
1568 03-02-2019 10:35:00 2.5 C 91 % 1.18 C
1569 03-02-2019 10:40:00 2.6 C 91 % 1.28 C
1570 03-02-2019 10:45:00 2.6 C 91 % 1.28 C
1571 03-02-2019 10:50:00 2.7 C 90 % 1.23 C
1572 03-02-2019 10:55:00 2.7 C 90 % 1.23 C
1573 03-02-2019 11:00:00 2.7 C 90 % 1.23 C
1574 03-02-2019 11:05:00 2.8 C 90 % 1.33 C
1575 03-02-2019 11:10:00 2.9 C 90 % 1.43 C
Sensor: Nr:Datum:Temp:Feuchte:Taupunkt:
Aussen-T/F 1576 03-02-2019 11:15:00 2.9 C 89 % 1.27 C
1577 03-02-2019 11:20:00 3.1 C 89 % 1.47 C
1578 03-02-2019 11:25:00 3.2 C 89 % 1.57 C
1579 03-02-2019 11:30:00 3.2 C 88 % 1.41 C
1580 03-02-2019 11:35:00 3.3 C 88 % 1.51 C
1581 03-02-2019 11:40:00 3.3 C 88 % 1.51 C
1582 03-02-2019 11:45:00 3.3 C 88 % 1.51 C
1583 03-02-2019 11:50:00 3.3 C 88 % 1.51 C
1584 03-02-2019 11:55:00 3.3 C 88 % 1.51 C
1585 03-02-2019 12:00:00 3.3 C 88 % 1.51 C
1586 03-02-2019 12:05:00 3.3 C 87 % 1.35 C
1587 03-02-2019 12:10:00 3.3 C 87 % 1.35 C
1588 03-02-2019 12:15:00 3.4 C 86 % 1.29 C
1589 03-02-2019 12:20:00 3.4 C 86 % 1.29 C
1590 03-02-2019 12:25:00 3.6 C 85 % 1.32 C
1591 03-02-2019 12:30:00 3.7 C 85 % 1.42 C
1592 03-02-2019 12:35:00 3.7 C 85 % 1.42 C
1593 03-02-2019 12:40:00 3.8 C 84 % 1.35 C
1594 03-02-2019 12:45:00 3.8 C 85 % 1.52 C
1595 03-02-2019 12:50:00 3.9 C 85 % 1.61 C
1596 03-02-2019 12:55:00 3.8 C 85 % 1.52 C
1597 03-02-2019 13:00:00 3.8 C 84 % 1.35 C
1598 03-02-2019 13:05:00 3.8 C 85 % 1.52 C
1599 03-02-2019 13:10:00 3.8 C 85 % 1.52 C
1600 03-02-2019 13:15:00 3.8 C 84 % 1.35 C
Sensor: Nr:Datum:Temp:Feuchte:Taupunkt:
Aussen-T/F 1601 03-02-2019 13:20:00 3.9 C 85 % 1.61 C
1602 03-02-2019 13:25:00 3.9 C 83 % 1.28 C
1603 03-02-2019 13:30:00 3.9 C 83 % 1.28 C
1604 03-02-2019 13:35:00 4 C 83 % 1.38 C
1605 03-02-2019 13:40:00 4.1 C 83 % 1.48 C
1606 03-02-2019 13:45:00 4.2 C 82 % 1.41 C
1607 03-02-2019 13:50:00 4.2 C 81 % 1.24 C
1608 03-02-2019 13:55:00 4.2 C 82 % 1.41 C
1609 03-02-2019 14:00:00 4.2 C 82 % 1.41 C
1610 03-02-2019 14:05:00 4.2 C 83 % 1.58 C
1611 03-02-2019 14:10:00 4.1 C 83 % 1.48 C
1612 03-02-2019 14:15:00 4.1 C 84 % 1.65 C
1613 03-02-2019 14:20:00 3.9 C 84 % 1.45 C
1614 03-02-2019 14:25:00 3.9 C 84 % 1.45 C
1615 03-02-2019 14:30:00 3.9 C 84 % 1.45 C
1616 03-02-2019 14:35:00 4 C 84 % 1.55 C
1617 03-02-2019 14:40:00 4.1 C 83 % 1.48 C
1618 03-02-2019 14:45:00 4.2 C 83 % 1.58 C
1619 03-02-2019 14:50:00 4.2 C 82 % 1.41 C
1620 03-02-2019 14:55:00 4.4 C 81 % 1.43 C
1621 03-02-2019 15:00:00 4.4 C 79 % 1.09 C
1622 03-02-2019 15:05:00 4.4 C 78 % 0.91 C
1623 03-02-2019 15:10:00 4.4 C 78 % 0.91 C
1624 03-02-2019 15:15:00 4.5 C 78 % 1.01 C
1625 03-02-2019 15:20:00 4.5 C 77 % 0.83 C
Sensor: Nr:Datum:Temp:Feuchte:Taupunkt:
Aussen-T/F 1626 03-02-2019 15:25:00 4.6 C 76 % 0.74 C
1627 03-02-2019 15:30:00 4.6 C 78 % 1.1 C
1628 03-02-2019 15:35:00 4.5 C 77 % 0.83 C
1629 03-02-2019 15:40:00 4.6 C 76 % 0.74 C
1630 03-02-2019 15:45:00 4.6 C 75 % 0.56 C
1631 03-02-2019 15:50:00 4.5 C 75 % 0.46 C
1632 03-02-2019 15:55:00 4.5 C 75 % 0.46 C
1633 03-02-2019 16:00:00 4.4 C 75 % 0.37 C
1634 03-02-2019 16:05:00 4.4 C 75 % 0.37 C
1635 03-02-2019 16:10:00 4.4 C 76 % 0.55 C
1636 03-02-2019 16:15:00 4.4 C 76 % 0.55 C
1637 03-02-2019 16:20:00 4.4 C 76 % 0.55 C
1638 03-02-2019 16:25:00 4.4 C 76 % 0.55 C
1639 03-02-2019 16:30:00 4.4 C 76 % 0.55 C
1640 03-02-2019 16:35:00 4.5 C 76 % 0.65 C
1641 03-02-2019 16:40:00 4.5 C 77 % 0.83 C
1642 03-02-2019 16:45:00 4.5 C 76 % 0.65 C
1643 03-02-2019 16:50:00 4.5 C 77 % 0.83 C
1644 03-02-2019 16:55:00 4.4 C 77 % 0.73 C
1645 03-02-2019 17:00:00 4.4 C 77 % 0.73 C
1646 03-02-2019 17:05:00 4.4 C 77 % 0.73 C
1647 03-02-2019 17:10:00 4.3 C 77 % 0.63 C
1648 03-02-2019 17:15:00 4.3 C 77 % 0.63 C
1649 03-02-2019 17:20:00 4.3 C 77 % 0.63 C
1650 03-02-2019 17:25:00 4.3 C 77 % 0.63 C
Sensor: Nr:Datum:Temp:Feuchte:Taupunkt:
Aussen-T/F 1651 03-02-2019 17:30:00 4.3 C 78 % 0.81 C
1652 03-02-2019 17:35:00 4.3 C 79 % 0.99 C
1653 03-02-2019 17:40:00 4.2 C 79 % 0.89 C
1654 03-02-2019 17:45:00 4.2 C 79 % 0.89 C
1655 03-02-2019 17:50:00 4.1 C 79 % 0.79 C
1656 03-02-2019 17:55:00 4.1 C 80 % 0.97 C
1657 03-02-2019 18:00:00 4.1 C 80 % 0.97 C
1658 03-02-2019 18:05:00 4 C 81 % 1.04 C
1659 03-02-2019 18:10:00 3.9 C 81 % 0.95 C
1660 03-02-2019 18:15:00 3.9 C 82 % 1.12 C
1661 03-02-2019 18:20:00 3.9 C 82 % 1.12 C
1662 03-02-2019 18:25:00 3.9 C 83 % 1.28 C
1663 03-02-2019 18:30:00 3.8 C 83 % 1.19 C
1664 03-02-2019 18:35:00 3.8 C 83 % 1.19 C
1665 03-02-2019 18:40:00 3.8 C 83 % 1.19 C
1666 03-02-2019 18:45:00 3.8 C 83 % 1.19 C
1667 03-02-2019 18:50:00 3.8 C 83 % 1.19 C
1668 03-02-2019 18:55:00 3.8 C 83 % 1.19 C
1669 03-02-2019 19:00:00 3.8 C 84 % 1.35 C
1670 03-02-2019 19:05:00 3.7 C 84 % 1.25 C
1671 03-02-2019 19:10:00 3.7 C 84 % 1.25 C
1672 03-02-2019 19:15:00 3.7 C 84 % 1.25 C
1673 03-02-2019 19:20:00 3.6 C 84 % 1.16 C
1674 03-02-2019 19:25:00 3.6 C 85 % 1.32 C
1675 03-02-2019 19:30:00 3.6 C 85 % 1.32 C
Sensor: Nr:Datum:Temp:Feuchte:Taupunkt:
Aussen-T/F 1676 03-02-2019 19:35:00 3.6 C 85 % 1.32 C
1677 03-02-2019 19:40:00 3.5 C 85 % 1.22 C
1678 03-02-2019 19:45:00 3.4 C 86 % 1.29 C
1679 03-02-2019 19:50:00 3.4 C 86 % 1.29 C
1680 03-02-2019 19:55:00 3.4 C 86 % 1.29 C
1681 03-02-2019 20:00:00 3.3 C 86 % 1.19 C
1682 03-02-2019 20:05:00 3.3 C 87 % 1.35 C
1683 03-02-2019 20:10:00 3.3 C 87 % 1.35 C
1684 03-02-2019 20:15:00 3.3 C 87 % 1.35 C
1685 03-02-2019 20:20:00 3.3 C 87 % 1.35 C
1686 03-02-2019 20:25:00 3.2 C 88 % 1.41 C
1687 03-02-2019 20:30:00 3.2 C 88 % 1.41 C
1688 03-02-2019 20:35:00 3.2 C 88 % 1.41 C
1689 03-02-2019 20:40:00 3.1 C 87 % 1.15 C
1690 03-02-2019 20:45:00 3.1 C 87 % 1.15 C
1691 03-02-2019 20:50:00 3.1 C 87 % 1.15 C
1692 03-02-2019 20:55:00 2.9 C 87 % 0.96 C
1693 03-02-2019 21:00:00 2.7 C 87 % 0.76 C
1694 03-02-2019 21:05:00 2.4 C 87 % 0.46 C
1695 03-02-2019 21:10:00 2.3 C 88 % 0.52 C
1696 03-02-2019 21:15:00 2.1 C 88 % 0.33 C
1697 03-02-2019 21:20:00 2 C 89 % 0.38 C
1698 03-02-2019 21:25:00 1.9 C 89 % 0.28 C
1699 03-02-2019 21:30:00 1.8 C 89 % 0.19 C
1700 03-02-2019 21:35:00 1.7 C 90 % 0.24 C
Sensor: Nr:Datum:Temp:Feuchte:Taupunkt:
Aussen-T/F 1701 03-02-2019 21:40:00 1.6 C 90 % 0.14 C
1702 03-02-2019 21:45:00 1.6 C 90 % 0.14 C
1703 03-02-2019 21:50:00 1.5 C 91 % 0.19 C
1704 03-02-2019 21:55:00 1.5 C 91 % 0.19 C
1705 03-02-2019 22:00:00 1.4 C 91 % 0.1 C
1706 03-02-2019 22:05:00 1.4 C 91 % 0.1 C
1707 03-02-2019 22:10:00 1.3 C 91 % 0 C
1708 03-02-2019 22:15:00 1.2 C 91 % -0.1 C
1709 03-02-2019 22:20:00 1.1 C 91 % -0.2 C
1710 03-02-2019 22:25:00 1.1 C 91 % -0.2 C
1711 03-02-2019 22:30:00 0.9 C 91 % -0.4 C
1712 03-02-2019 22:35:00 0.8 C 91 % -0.5 C
1713 03-02-2019 22:40:00 0.8 C 91 % -0.5 C
1714 03-02-2019 22:45:00 0.7 C 92 % -0.45 C
1715 03-02-2019 22:50:00 0.6 C 92 % -0.55 C
1716 03-02-2019 22:55:00 0.6 C 92 % -0.55 C
1717 03-02-2019 23:00:00 0.6 C 92 % -0.55 C
1718 03-02-2019 23:05:00 0.5 C 93 % -0.5 C
1719 03-02-2019 23:10:00 0.5 C 93 % -0.5 C
1720 03-02-2019 23:15:00 0.4 C 93 % -0.6 C
1721 03-02-2019 23:20:00 0.4 C 92 % -0.74 C
1722 03-02-2019 23:25:00 0.3 C 93 % -0.7 C
1723 03-02-2019 23:30:00 0.3 C 93 % -0.7 C
1724 03-02-2019 23:35:00 0.2 C 93 % -0.79 C
1725 03-02-2019 23:40:00 0.1 C 93 % -0.89 C
Sensor: Nr:Datum:Temp:Feuchte:Taupunkt:
Aussen-T/F 1726 03-02-2019 23:45:00 0 C 93 % -0.99 C
1727 03-02-2019 23:50:00 -0.1 C 93 % -1.09 C
1728 03-02-2019 23:55:00 -0.1 C 93 % -1.09 C
1729 04-02-2019 00:00:00 -0.1 C 93 % -1.09 C
1730 04-02-2019 00:05:00 -0.2 C 93 % -1.19 C
1731 04-02-2019 00:10:00 -0.2 C 93 % -1.19 C
1732 04-02-2019 00:15:00 -0.2 C 93 % -1.19 C
1733 04-02-2019 00:20:00 -0.3 C 94 % -1.15 C
1734 04-02-2019 00:25:00 -0.3 C 94 % -1.15 C
1735 04-02-2019 00:30:00 -0.3 C 94 % -1.15 C
1736 04-02-2019 00:35:00 -0.4 C 94 % -1.25 C
1737 04-02-2019 00:40:00 -0.4 C 94 % -1.25 C
1738 04-02-2019 00:45:00 -0.4 C 94 % -1.25 C
1739 04-02-2019 00:50:00 -0.5 C 94 % -1.34 C
1740 04-02-2019 00:55:00 -0.5 C 94 % -1.34 C
1741 04-02-2019 01:00:00 -0.5 C 94 % -1.34 C
1742 04-02-2019 01:05:00 -0.4 C 95 % -1.1 C
1743 04-02-2019 01:10:00 -0.3 C 95 % -1 C
1744 04-02-2019 01:15:00 -0.2 C 95 % -0.9 C
1745 04-02-2019 01:20:00 0 C 95 % -0.7 C
1746 04-02-2019 01:25:00 0.1 C 95 % -0.6 C
1747 04-02-2019 01:30:00 0.1 C 95 % -0.6 C
1748 04-02-2019 01:35:00 0.1 C 95 % -0.6 C
1749 04-02-2019 01:40:00 0.1 C 95 % -0.6 C
1750 04-02-2019 01:45:00 0.1 C 95 % -0.6 C
Sensor: Nr:Datum:Temp:Feuchte:Taupunkt:
Aussen-T/F 1751 04-02-2019 01:50:00 0.1 C 95 % -0.6 C
1752 04-02-2019 01:55:00 0.1 C 95 % -0.6 C
1753 04-02-2019 02:00:00 0.1 C 95 % -0.6 C
1754 04-02-2019 02:05:00 0.1 C 95 % -0.6 C
1755 04-02-2019 02:10:00 0.1 C 95 % -0.6 C
1756 04-02-2019 02:15:00 0.1 C 94 % -0.75 C
1757 04-02-2019 02:20:00 0.1 C 94 % -0.75 C
1758 04-02-2019 02:25:00 0.1 C 95 % -0.6 C
1759 04-02-2019 02:30:00 0.1 C 94 % -0.75 C
1760 04-02-2019 02:35:00 0 C 94 % -0.85 C
1761 04-02-2019 02:40:00 -0.1 C 94 % -0.95 C
1762 04-02-2019 02:45:00 -0.2 C 94 % -1.05 C
1763 04-02-2019 02:50:00 -0.2 C 94 % -1.05 C
1764 04-02-2019 02:55:00 -0.2 C 94 % -1.05 C
1765 04-02-2019 03:00:00 -0.3 C 94 % -1.15 C
1766 04-02-2019 03:05:00 -0.2 C 94 % -1.05 C
1767 04-02-2019 03:10:00 -0.2 C 94 % -1.05 C
1768 04-02-2019 03:15:00 -0.2 C 94 % -1.05 C
1769 04-02-2019 03:20:00 -0.2 C 94 % -1.05 C
1770 04-02-2019 03:25:00 -0.2 C 94 % -1.05 C
1771 04-02-2019 03:30:00 -0.2 C 94 % -1.05 C
1772 04-02-2019 03:35:00 -0.2 C 94 % -1.05 C
1773 04-02-2019 03:40:00 -0.2 C 94 % -1.05 C
1774 04-02-2019 03:45:00 -0.1 C 94 % -0.95 C
1775 04-02-2019 03:50:00 -0.2 C 94 % -1.05 C
Sensor: Nr:Datum:Temp:Feuchte:Taupunkt:
Aussen-T/F 1776 04-02-2019 03:55:00 -0.2 C 94 % -1.05 C
1777 04-02-2019 04:00:00 -0.3 C 94 % -1.15 C
1778 04-02-2019 04:05:00 -0.3 C 94 % -1.15 C
1779 04-02-2019 04:10:00 -0.3 C 94 % -1.15 C
1780 04-02-2019 04:15:00 -0.4 C 94 % -1.25 C
1781 04-02-2019 04:20:00 -0.5 C 94 % -1.34 C
1782 04-02-2019 04:25:00 -0.6 C 94 % -1.44 C
1783 04-02-2019 04:30:00 -0.6 C 94 % -1.44 C
1784 04-02-2019 04:35:00 -0.6 C 94 % -1.44 C
1785 04-02-2019 04:40:00 -0.6 C 94 % -1.44 C
1786 04-02-2019 04:45:00 -0.5 C 94 % -1.34 C
1787 04-02-2019 04:50:00 -0.5 C 94 % -1.34 C
1788 04-02-2019 04:55:00 -0.5 C 95 % -1.2 C
1789 04-02-2019 05:00:00 -0.4 C 94 % -1.25 C
1790 04-02-2019 05:05:00 -0.4 C 95 % -1.1 C
1791 04-02-2019 05:10:00 -0.3 C 95 % -1 C
1792 04-02-2019 05:15:00 -0.2 C 95 % -0.9 C
1793 04-02-2019 05:20:00 -0.2 C 95 % -0.9 C
1794 04-02-2019 05:25:00 -0.1 C 95 % -0.8 C
1795 04-02-2019 05:30:00 0.1 C 95 % -0.6 C
1796 04-02-2019 05:35:00 0.1 C 95 % -0.6 C
1797 04-02-2019 05:40:00 0.2 C 95 % -0.5 C
1798 04-02-2019 05:45:00 0.2 C 95 % -0.5 C
1799 04-02-2019 05:50:00 0.3 C 95 % -0.4 C
1800 04-02-2019 05:55:00 0.3 C 95 % -0.4 C
Sensor: Nr:Datum:Temp:Feuchte:Taupunkt:
Aussen-T/F 1801 04-02-2019 06:00:00 0.3 C 95 % -0.4 C
1802 04-02-2019 06:05:00 0.3 C 95 % -0.4 C
1803 04-02-2019 06:10:00 0.3 C 95 % -0.4 C
1804 04-02-2019 06:15:00 0.3 C 95 % -0.4 C
1805 04-02-2019 06:20:00 0.4 C 95 % -0.31 C
1806 04-02-2019 06:25:00 0.4 C 95 % -0.31 C
1807 04-02-2019 06:30:00 0.4 C 95 % -0.31 C
1808 04-02-2019 06:35:00 0.4 C 95 % -0.31 C
1809 04-02-2019 06:40:00 0.4 C 95 % -0.31 C
1810 04-02-2019 06:45:00 0.4 C 95 % -0.31 C
1811 04-02-2019 06:50:00 0.4 C 95 % -0.31 C
1812 04-02-2019 06:55:00 0.4 C 95 % -0.31 C
1813 04-02-2019 07:00:00 0.4 C 95 % -0.31 C
1814 04-02-2019 07:05:00 0.4 C 95 % -0.31 C
1815 04-02-2019 07:10:00 0.5 C 95 % -0.21 C
1816 04-02-2019 07:15:00 0.5 C 95 % -0.21 C
1817 04-02-2019 07:20:00 0.5 C 95 % -0.21 C
1818 04-02-2019 07:25:00 0.6 C 95 % -0.11 C
1819 04-02-2019 07:30:00 0.5 C 95 % -0.21 C
1820 04-02-2019 07:35:00 0.5 C 95 % -0.21 C
1821 04-02-2019 07:40:00 0.5 C 95 % -0.21 C
1822 04-02-2019 07:45:00 0.6 C 95 % -0.11 C
1823 04-02-2019 07:50:00 0.6 C 94 % -0.25 C
1824 04-02-2019 07:55:00 0.6 C 95 % -0.11 C
1825 04-02-2019 08:00:00 0.6 C 95 % -0.11 C
Sensor: Nr:Datum:Temp:Feuchte:Taupunkt:
Aussen-T/F 1826 04-02-2019 08:05:00 0.6 C 95 % -0.11 C
1827 04-02-2019 08:10:00 0.6 C 95 % -0.11 C
1828 04-02-2019 08:15:00 0.6 C 95 % -0.11 C
1829 04-02-2019 08:20:00 0.7 C 95 % -0.01 C
1830 04-02-2019 08:25:00 0.7 C 94 % -0.15 C
1831 04-02-2019 08:30:00 0.7 C 94 % -0.15 C
1832 04-02-2019 08:35:00 0.7 C 94 % -0.15 C
1833 04-02-2019 08:40:00 0.8 C 94 % -0.05 C
1834 04-02-2019 08:45:00 0.8 C 94 % -0.05 C
1835 04-02-2019 08:50:00 0.8 C 94 % -0.05 C
1836 04-02-2019 08:55:00 0.8 C 94 % -0.05 C
1837 04-02-2019 09:00:00 0.8 C 94 % -0.05 C
1838 04-02-2019 09:05:00 0.8 C 94 % -0.05 C
1839 04-02-2019 09:10:00 0.7 C 94 % -0.15 C
1840 04-02-2019 09:15:00 0.7 C 94 % -0.15 C
1841 04-02-2019 09:20:00 0.6 C 93 % -0.4 C
1842 04-02-2019 09:25:00 0.6 C 94 % -0.25 C
1843 04-02-2019 09:30:00 0.5 C 94 % -0.35 C
1844 04-02-2019 09:35:00 0.5 C 94 % -0.35 C
1845 04-02-2019 09:40:00 0.5 C 94 % -0.35 C
1846 04-02-2019 09:45:00 0.6 C 94 % -0.25 C
1847 04-02-2019 09:50:00 0.5 C 94 % -0.35 C
1848 04-02-2019 09:55:00 0.5 C 94 % -0.35 C
1849 04-02-2019 10:00:00 0.6 C 94 % -0.25 C
1850 04-02-2019 10:05:00 0.6 C 94 % -0.25 C
Sensor: Nr:Datum:Temp:Feuchte:Taupunkt:
Aussen-T/F 1851 04-02-2019 10:10:00 0.6 C 94 % -0.25 C
1852 04-02-2019 10:15:00 0.7 C 94 % -0.15 C
1853 04-02-2019 10:20:00 0.8 C 94 % -0.05 C
1854 04-02-2019 10:25:00 0.8 C 95 % 0.09 C
1855 04-02-2019 10:30:00 0.9 C 94 % 0.05 C
1856 04-02-2019 10:35:00 1 C 94 % 0.15 C
1857 04-02-2019 10:40:00 1.1 C 94 % 0.24 C
1858 04-02-2019 10:45:00 1.2 C 94 % 0.34 C
1859 04-02-2019 10:50:00 1.2 C 94 % 0.34 C
1860 04-02-2019 10:55:00 1.3 C 94 % 0.44 C
1861 04-02-2019 11:00:00 1.4 C 94 % 0.54 C
1862 04-02-2019 11:05:00 1.6 C 93 % 0.59 C
1863 04-02-2019 11:10:00 1.7 C 93 % 0.69 C
1864 04-02-2019 11:15:00 1.8 C 93 % 0.79 C
1865 04-02-2019 11:20:00 1.9 C 92 % 0.74 C
1866 04-02-2019 11:25:00 2 C 91 % 0.69 C
1867 04-02-2019 11:30:00 2.1 C 91 % 0.79 C
1868 04-02-2019 11:35:00 2.2 C 90 % 0.73 C
1869 04-02-2019 11:40:00 2.3 C 90 % 0.83 C
1870 04-02-2019 11:45:00 2.4 C 90 % 0.93 C
1871 04-02-2019 11:50:00 2.5 C 89 % 0.88 C
1872 04-02-2019 11:55:00 2.6 C 89 % 0.97 C
1873 04-02-2019 12:00:00 2.7 C 89 % 1.07 C
1874 04-02-2019 12:05:00 2.9 C 89 % 1.27 C
1875 04-02-2019 12:10:00 3.1 C 88 % 1.31 C
Sensor: Nr:Datum:Temp:Feuchte:Taupunkt:
Aussen-T/F 1876 04-02-2019 12:15:00 3.2 C 88 % 1.41 C
1877 04-02-2019 12:20:00 3.3 C 85 % 1.03 C
1878 04-02-2019 12:25:00 3.6 C 82 % 0.82 C
1879 04-02-2019 12:30:00 3.9 C 80 % 0.77 C
1880 04-02-2019 12:35:00 4.2 C 78 % 0.71 C
1881 04-02-2019 12:40:00 4.3 C 77 % 0.63 C
1882 04-02-2019 12:45:00 4.5 C 77 % 0.83 C
1883 04-02-2019 12:50:00 4.6 C 75 % 0.56 C
1884 04-02-2019 12:55:00 4.7 C 74 % 0.47 C
1885 04-02-2019 13:00:00 4.8 C 74 % 0.57 C
1886 04-02-2019 13:05:00 4.8 C 73 % 0.38 C
1887 04-02-2019 13:10:00 4.8 C 74 % 0.57 C
1888 04-02-2019 13:15:00 4.8 C 73 % 0.38 C
1889 04-02-2019 13:20:00 4.8 C 72 % 0.19 C
1890 04-02-2019 13:25:00 4.8 C 72 % 0.19 C
1891 04-02-2019 13:30:00 4.8 C 72 % 0.19 C
1892 04-02-2019 13:35:00 4.7 C 72 % 0.09 C
1893 04-02-2019 13:40:00 4.7 C 73 % 0.28 C
1894 04-02-2019 13:45:00 4.7 C 72 % 0.09 C
1895 04-02-2019 13:50:00 4.8 C 72 % 0.19 C
1896 04-02-2019 13:55:00 4.9 C 72 % 0.29 C
1897 04-02-2019 14:00:00 4.9 C 71 % 0.09 C
1898 04-02-2019 14:05:00 5 C 72 % 0.38 C
1899 04-02-2019 14:10:00 5.2 C 71 % 0.38 C
1900 04-02-2019 14:15:00 5.2 C 69 % -0.01 C
Sensor: Nr:Datum:Temp:Feuchte:Taupunkt:
Aussen-T/F 1901 04-02-2019 14:20:00 5.3 C 69 % 0.09 C
1902 04-02-2019 14:25:00 5.4 C 70 % 0.38 C
1903 04-02-2019 14:30:00 5.4 C 67 % -0.22 C
1904 04-02-2019 14:35:00 5.4 C 67 % -0.22 C
1905 04-02-2019 14:40:00 5.4 C 67 % -0.22 C
1906 04-02-2019 14:45:00 5.5 C 66 % -0.33 C
1907 04-02-2019 14:50:00 5.5 C 67 % -0.13 C
1908 04-02-2019 14:55:00 5.5 C 66 % -0.33 C
1909 04-02-2019 15:00:00 5.4 C 66 % -0.43 C
1910 04-02-2019 15:05:00 5.4 C 66 % -0.43 C
1911 04-02-2019 15:10:00 5.4 C 67 % -0.22 C
1912 04-02-2019 15:15:00 5.3 C 68 % -0.12 C
1913 04-02-2019 15:20:00 5.3 C 66 % -0.52 C
1914 04-02-2019 15:25:00 5.3 C 66 % -0.52 C
1915 04-02-2019 15:30:00 5.3 C 65 % -0.73 C
1916 04-02-2019 15:35:00 5.3 C 67 % -0.32 C
1917 04-02-2019 15:40:00 5.3 C 68 % -0.12 C
1918 04-02-2019 15:45:00 5.3 C 68 % -0.12 C
1919 04-02-2019 15:50:00 5.3 C 68 % -0.12 C
1920 04-02-2019 15:55:00 5.3 C 66 % -0.52 C
1921 04-02-2019 16:00:00 5.3 C 67 % -0.32 C
1922 04-02-2019 16:05:00 5.3 C 69 % 0.09 C
1923 04-02-2019 16:10:00 5.3 C 70 % 0.28 C
1924 04-02-2019 16:15:00 5.3 C 68 % -0.12 C
1925 04-02-2019 16:20:00 5.3 C 67 % -0.32 C
Sensor: Nr:Datum:Temp:Feuchte:Taupunkt:
Aussen-T/F 1926 04-02-2019 16:25:00 5.2 C 70 % 0.19 C
1927 04-02-2019 16:30:00 5.2 C 73 % 0.77 C
1928 04-02-2019 16:35:00 5 C 73 % 0.57 C
1929 04-02-2019 16:40:00 4.8 C 74 % 0.57 C
1930 04-02-2019 16:45:00 4.7 C 76 % 0.84 C
1931 04-02-2019 16:50:00 4.4 C 77 % 0.73 C
1932 04-02-2019 16:55:00 4.2 C 78 % 0.71 C
1933 04-02-2019 17:00:00 3.9 C 79 % 0.6 C
1934 04-02-2019 17:05:00 3.6 C 81 % 0.65 C
1935 04-02-2019 17:10:00 3.3 C 81 % 0.36 C
1936 04-02-2019 17:15:00 3.1 C 82 % 0.33 C
1937 04-02-2019 17:20:00 2.9 C 83 % 0.31 C
1938 04-02-2019 17:25:00 2.7 C 84 % 0.27 C
1939 04-02-2019 17:30:00 2.6 C 84 % 0.18 C
1940 04-02-2019 17:35:00 2.4 C 85 % 0.14 C
1941 04-02-2019 17:40:00 2.3 C 85 % 0.04 C
1942 04-02-2019 17:45:00 2.2 C 85 % -0.05 C
1943 04-02-2019 17:50:00 2.1 C 86 % 0.01 C
1944 04-02-2019 17:55:00 1.9 C 86 % -0.19 C
1945 04-02-2019 18:00:00 1.8 C 86 % -0.29 C
1946 04-02-2019 18:05:00 1.7 C 87 % -0.23 C
1947 04-02-2019 18:10:00 1.6 C 87 % -0.32 C
1948 04-02-2019 18:15:00 1.6 C 87 % -0.32 C
1949 04-02-2019 18:20:00 1.5 C 87 % -0.42 C
1950 04-02-2019 18:25:00 1.4 C 87 % -0.52 C
Sensor: Nr:Datum:Temp:Feuchte:Taupunkt:
Aussen-T/F 1951 04-02-2019 18:30:00 1.3 C 87 % -0.62 C
1952 04-02-2019 18:35:00 1.3 C 88 % -0.46 C
1953 04-02-2019 18:40:00 1.2 C 88 % -0.56 C
1954 04-02-2019 18:45:00 1.2 C 88 % -0.56 C
1955 04-02-2019 18:50:00 1.1 C 89 % -0.51 C
1956 04-02-2019 18:55:00 1.1 C 89 % -0.51 C
1957 04-02-2019 19:00:00 1.1 C 89 % -0.51 C
1958 04-02-2019 19:05:00 1.1 C 89 % -0.51 C
1959 04-02-2019 19:10:00 1.2 C 89 % -0.41 C
1960 04-02-2019 19:15:00 1.2 C 89 % -0.41 C
1961 04-02-2019 19:20:00 1.3 C 90 % -0.15 C
1962 04-02-2019 19:25:00 1.3 C 90 % -0.15 C
1963 04-02-2019 19:30:00 1.4 C 90 % -0.06 C
1964 04-02-2019 19:35:00 1.5 C 90 % 0.04 C
1965 04-02-2019 19:40:00 1.6 C 90 % 0.14 C
1966 04-02-2019 19:45:00 1.7 C 89 % 0.09 C
1967 04-02-2019 19:50:00 1.7 C 90 % 0.24 C
1968 04-02-2019 19:55:00 1.8 C 90 % 0.34 C
1969 04-02-2019 20:00:00 1.8 C 89 % 0.19 C
1970 04-02-2019 20:05:00 1.9 C 89 % 0.28 C
1971 04-02-2019 20:10:00 1.9 C 89 % 0.28 C
1972 04-02-2019 20:15:00 1.9 C 89 % 0.28 C
1973 04-02-2019 20:20:00 1.9 C 88 % 0.13 C
1974 04-02-2019 20:25:00 2 C 88 % 0.23 C
1975 04-02-2019 20:30:00 2 C 88 % 0.23 C
Sensor: Nr:Datum:Temp:Feuchte:Taupunkt:
Aussen-T/F 1976 04-02-2019 20:35:00 2 C 88 % 0.23 C
1977 04-02-2019 20:40:00 2 C 88 % 0.23 C
1978 04-02-2019 20:45:00 2.2 C 86 % 0.11 C
1979 04-02-2019 20:50:00 2.2 C 85 % -0.05 C
1980 04-02-2019 20:55:00 2.3 C 84 % -0.12 C
1981 04-02-2019 21:00:00 2.3 C 83 % -0.28 C
1982 04-02-2019 21:05:00 2.4 C 83 % -0.18 C
1983 04-02-2019 21:10:00 2.5 C 83 % -0.09 C
1984 04-02-2019 21:15:00 2.6 C 83 % 0.01 C
1985 04-02-2019 21:20:00 2.7 C 82 % -0.06 C
1986 04-02-2019 21:25:00 2.7 C 83 % 0.11 C
1987 04-02-2019 21:30:00 2.7 C 83 % 0.11 C
1988 04-02-2019 21:35:00 2.7 C 83 % 0.11 C
1989 04-02-2019 21:40:00 2.7 C 83 % 0.11 C
1990 04-02-2019 21:45:00 2.7 C 82 % -0.06 C
1991 04-02-2019 21:50:00 2.7 C 82 % -0.06 C
1992 04-02-2019 21:55:00 2.8 C 81 % -0.13 C
1993 04-02-2019 22:00:00 2.8 C 82 % 0.04 C
1994 04-02-2019 22:05:00 2.9 C 83 % 0.31 C
1995 04-02-2019 22:10:00 2.9 C 82 % 0.14 C
1996 04-02-2019 22:15:00 2.9 C 83 % 0.31 C
1997 04-02-2019 22:20:00 2.9 C 82 % 0.14 C
1998 04-02-2019 22:25:00 2.9 C 83 % 0.31 C
1999 04-02-2019 22:30:00 2.8 C 83 % 0.21 C
2000 04-02-2019 22:35:00 2.8 C 82 % 0.04 C
Sensor: Nr:Datum:Temp:Feuchte:Taupunkt:
Aussen-T/F 2001 04-02-2019 22:40:00 2.8 C 83 % 0.21 C
2002 04-02-2019 22:45:00 2.8 C 83 % 0.21 C
2003 04-02-2019 22:50:00 2.9 C 84 % 0.47 C
2004 04-02-2019 22:55:00 2.8 C 85 % 0.54 C
2005 04-02-2019 23:00:00 2.8 C 85 % 0.54 C
2006 04-02-2019 23:05:00 2.8 C 85 % 0.54 C
2007 04-02-2019 23:10:00 2.7 C 86 % 0.6 C
2008 04-02-2019 23:15:00 2.7 C 85 % 0.44 C
2009 04-02-2019 23:20:00 2.7 C 85 % 0.44 C
2010 04-02-2019 23:25:00 2.7 C 86 % 0.6 C
2011 04-02-2019 23:30:00 2.7 C 86 % 0.6 C
2012 04-02-2019 23:35:00 2.7 C 85 % 0.44 C
2013 04-02-2019 23:40:00 2.7 C 85 % 0.44 C
2014 04-02-2019 23:45:00 2.7 C 85 % 0.44 C
2015 04-02-2019 23:50:00 2.7 C 83 % 0.11 C
2016 04-02-2019 23:55:00 2.7 C 83 % 0.11 C
2017 05-02-2019 00:00:00 2.8 C 83 % 0.21 C
2018 05-02-2019 00:05:00 2.8 C 83 % 0.21 C
2019 05-02-2019 00:10:00 2.9 C 83 % 0.31 C
2020 05-02-2019 00:15:00 2.9 C 83 % 0.31 C
2021 05-02-2019 00:20:00 2.9 C 83 % 0.31 C
2022 05-02-2019 00:25:00 3 C 83 % 0.4 C
2023 05-02-2019 00:30:00 3 C 83 % 0.4 C
2024 05-02-2019 00:35:00 3 C 84 % 0.57 C
2025 05-02-2019 00:40:00 3.1 C 82 % 0.33 C
Sensor: Nr:Datum:Temp:Feuchte:Taupunkt:
Aussen-T/F 2026 05-02-2019 00:45:00 3.1 C 82 % 0.33 C
2027 05-02-2019 00:50:00 3.2 C 82 % 0.43 C
2028 05-02-2019 00:55:00 3.2 C 81 % 0.26 C
2029 05-02-2019 01:00:00 3.2 C 83 % 0.6 C
2030 05-02-2019 01:05:00 3.2 C 81 % 0.26 C
2031 05-02-2019 01:10:00 3.3 C 81 % 0.36 C
2032 05-02-2019 01:15:00 3.3 C 80 % 0.19 C
2033 05-02-2019 01:20:00 3.3 C 81 % 0.36 C
2034 05-02-2019 01:25:00 3.3 C 80 % 0.19 C
2035 05-02-2019 01:30:00 3.4 C 81 % 0.46 C
2036 05-02-2019 01:35:00 3.3 C 79 % 0.02 C
2037 05-02-2019 01:40:00 3.4 C 80 % 0.29 C
2038 05-02-2019 01:45:00 3.4 C 81 % 0.46 C
2039 05-02-2019 01:50:00 3.4 C 82 % 0.63 C
2040 05-02-2019 01:55:00 3.3 C 81 % 0.36 C
2041 05-02-2019 02:00:00 3.3 C 82 % 0.53 C
2042 05-02-2019 02:05:00 3.3 C 80 % 0.19 C
2043 05-02-2019 02:10:00 3.3 C 80 % 0.19 C
2044 05-02-2019 02:15:00 3.3 C 81 % 0.36 C
2045 05-02-2019 02:20:00 3.3 C 80 % 0.19 C
2046 05-02-2019 02:25:00 3.4 C 80 % 0.29 C
2047 05-02-2019 02:30:00 3.4 C 79 % 0.11 C
2048 05-02-2019 02:35:00 3.4 C 78 % -0.06 C
2049 05-02-2019 02:40:00 3.5 C 78 % 0.04 C
2050 05-02-2019 02:45:00 3.6 C 78 % 0.13 C
Sensor: Nr:Datum:Temp:Feuchte:Taupunkt:
Aussen-T/F 2051 05-02-2019 02:50:00 3.6 C 78 % 0.13 C
2052 05-02-2019 02:55:00 3.6 C 77 % -0.05 C
2053 05-02-2019 03:00:00 3.6 C 77 % -0.05 C
2054 05-02-2019 03:05:00 3.6 C 77 % -0.05 C
2055 05-02-2019 03:10:00 3.7 C 77 % 0.05 C
2056 05-02-2019 03:15:00 3.7 C 77 % 0.05 C
2057 05-02-2019 03:20:00 3.6 C 76 % -0.22 C
2058 05-02-2019 03:25:00 3.6 C 77 % -0.05 C
2059 05-02-2019 03:30:00 3.6 C 78 % 0.13 C
2060 05-02-2019 03:35:00 3.6 C 78 % 0.13 C
2061 05-02-2019 03:40:00 3.6 C 80 % 0.48 C
2062 05-02-2019 03:45:00 3.6 C 79 % 0.31 C
2063 05-02-2019 03:50:00 3.5 C 80 % 0.38 C
2064 05-02-2019 03:55:00 3.5 C 78 % 0.04 C
2065 05-02-2019 04:00:00 3.5 C 81 % 0.55 C
2066 05-02-2019 04:05:00 3.5 C 80 % 0.38 C
2067 05-02-2019 04:10:00 3.4 C 79 % 0.11 C
2068 05-02-2019 04:15:00 3.4 C 79 % 0.11 C
2069 05-02-2019 04:20:00 3.4 C 80 % 0.29 C
2070 05-02-2019 04:25:00 3.4 C 80 % 0.29 C
2071 05-02-2019 04:30:00 3.4 C 79 % 0.11 C
2072 05-02-2019 04:35:00 3.4 C 78 % -0.06 C
2073 05-02-2019 04:40:00 3.4 C 78 % -0.06 C
2074 05-02-2019 04:45:00 3.4 C 78 % -0.06 C
2075 05-02-2019 04:50:00 3.5 C 77 % -0.14 C
Sensor: Nr:Datum:Temp:Feuchte:Taupunkt:
Aussen-T/F 2076 05-02-2019 04:55:00 3.6 C 78 % 0.13 C
2077 05-02-2019 05:00:00 3.6 C 77 % -0.05 C
2078 05-02-2019 05:05:00 3.6 C 77 % -0.05 C
2079 05-02-2019 05:10:00 3.6 C 77 % -0.05 C
2080 05-02-2019 05:15:00 3.6 C 77 % -0.05 C
2081 05-02-2019 05:20:00 3.6 C 76 % -0.22 C
2082 05-02-2019 05:25:00 3.7 C 77 % 0.05 C
2083 05-02-2019 05:30:00 3.6 C 77 % -0.05 C
2084 05-02-2019 05:35:00 3.7 C 76 % -0.13 C
2085 05-02-2019 05:40:00 3.7 C 76 % -0.13 C
2086 05-02-2019 05:45:00 3.7 C 76 % -0.13 C
2087 05-02-2019 05:50:00 3.7 C 75 % -0.31 C
2088 05-02-2019 05:55:00 3.7 C 78 % 0.23 C
2089 05-02-2019 06:00:00 3.7 C 78 % 0.23 C
2090 05-02-2019 06:05:00 3.7 C 80 % 0.58 C
2091 05-02-2019 06:10:00 3.6 C 80 % 0.48 C
2092 05-02-2019 06:15:00 3.6 C 80 % 0.48 C
2093 05-02-2019 06:20:00 3.4 C 80 % 0.29 C
2094 05-02-2019 06:25:00 3.4 C 81 % 0.46 C
2095 05-02-2019 06:30:00 3.3 C 82 % 0.53 C
2096 05-02-2019 06:35:00 3.3 C 83 % 0.7 C
2097 05-02-2019 06:40:00 3.2 C 83 % 0.6 C
2098 05-02-2019 06:45:00 3.2 C 83 % 0.6 C
2099 05-02-2019 06:50:00 3.2 C 84 % 0.76 C
2100 05-02-2019 06:55:00 3.1 C 84 % 0.67 C
Sensor: Nr:Datum:Temp:Feuchte:Taupunkt:
Aussen-T/F 2101 05-02-2019 07:00:00 3.1 C 84 % 0.67 C
2102 05-02-2019 07:05:00 3.1 C 84 % 0.67 C
2103 05-02-2019 07:10:00 3 C 84 % 0.57 C
2104 05-02-2019 07:15:00 3 C 85 % 0.73 C
2105 05-02-2019 07:20:00 3 C 85 % 0.73 C
2106 05-02-2019 07:25:00 3 C 84 % 0.57 C
2107 05-02-2019 07:30:00 3 C 85 % 0.73 C
2108 05-02-2019 07:35:00 3 C 85 % 0.73 C
2109 05-02-2019 07:40:00 2.9 C 85 % 0.63 C
2110 05-02-2019 07:45:00 2.9 C 86 % 0.8 C
2111 05-02-2019 07:50:00 2.9 C 86 % 0.8 C
2112 05-02-2019 07:55:00 2.9 C 85 % 0.63 C
2113 05-02-2019 08:00:00 2.9 C 86 % 0.8 C
2114 05-02-2019 08:05:00 2.9 C 86 % 0.8 C
2115 05-02-2019 08:10:00 2.9 C 86 % 0.8 C
2116 05-02-2019 08:15:00 2.9 C 86 % 0.8 C
2117 05-02-2019 08:20:00 2.9 C 85 % 0.63 C
2118 05-02-2019 08:25:00 2.9 C 86 % 0.8 C
2119 05-02-2019 08:30:00 2.9 C 86 % 0.8 C
2120 05-02-2019 08:35:00 3 C 85 % 0.73 C
2121 05-02-2019 08:40:00 3 C 84 % 0.57 C
2122 05-02-2019 08:45:00 3.1 C 83 % 0.5 C
2123 05-02-2019 08:50:00 3.2 C 84 % 0.76 C
2124 05-02-2019 08:55:00 3.2 C 83 % 0.6 C
2125 05-02-2019 09:00:00 3.3 C 83 % 0.7 C
Sensor: Nr:Datum:Temp:Feuchte:Taupunkt:
Aussen-T/F 2126 05-02-2019 09:05:00 3.3 C 82 % 0.53 C
2127 05-02-2019 09:10:00 3.4 C 82 % 0.63 C
2128 05-02-2019 09:15:00 3.5 C 81 % 0.55 C
2129 05-02-2019 09:20:00 3.6 C 80 % 0.48 C
2130 05-02-2019 09:25:00 3.6 C 80 % 0.48 C
2131 05-02-2019 09:30:00 3.6 C 80 % 0.48 C
2132 05-02-2019 09:35:00 3.7 C 80 % 0.58 C
2133 05-02-2019 09:40:00 3.7 C 80 % 0.58 C
2134 05-02-2019 09:45:00 3.7 C 79 % 0.4 C
2135 05-02-2019 09:50:00 3.8 C 79 % 0.5 C
2136 05-02-2019 09:55:00 3.8 C 79 % 0.5 C
2137 05-02-2019 10:00:00 3.8 C 79 % 0.5 C
2138 05-02-2019 10:05:00 3.9 C 79 % 0.6 C
2139 05-02-2019 10:10:00 3.9 C 79 % 0.6 C
2140 05-02-2019 10:15:00 4 C 79 % 0.7 C
2141 05-02-2019 10:20:00 4.1 C 78 % 0.62 C
2142 05-02-2019 10:25:00 4.2 C 78 % 0.71 C
2143 05-02-2019 10:30:00 4.2 C 78 % 0.71 C
2144 05-02-2019 10:35:00 4.3 C 77 % 0.63 C
2145 05-02-2019 10:40:00 4.3 C 78 % 0.81 C
2146 05-02-2019 10:45:00 4.4 C 78 % 0.91 C
2147 05-02-2019 10:50:00 4.4 C 77 % 0.73 C
2148 05-02-2019 10:55:00 4.6 C 77 % 0.92 C
2149 05-02-2019 11:00:00 4.7 C 78 % 1.2 C
2150 05-02-2019 11:05:00 4.7 C 77 % 1.02 C
Sensor: Nr:Datum:Temp:Feuchte:Taupunkt:
Aussen-T/F 2151 05-02-2019 11:10:00 4.8 C 76 % 0.94 C
2152 05-02-2019 11:15:00 4.8 C 76 % 0.94 C
2153 05-02-2019 11:20:00 4.9 C 76 % 1.03 C
2154 05-02-2019 11:25:00 5 C 76 % 1.13 C
2155 05-02-2019 11:30:00 5.1 C 75 % 1.04 C
2156 05-02-2019 11:35:00 5.1 C 75 % 1.04 C
2157 05-02-2019 11:40:00 5.2 C 75 % 1.14 C
2158 05-02-2019 11:45:00 5.2 C 75 % 1.14 C
2159 05-02-2019 11:50:00 5.3 C 75 % 1.24 C
2160 05-02-2019 11:55:00 5.3 C 75 % 1.24 C
2161 05-02-2019 12:00:00 5.4 C 76 % 1.52 C
2162 05-02-2019 12:05:00 5.6 C 76 % 1.71 C
2163 05-02-2019 12:10:00 5.6 C 75 % 1.53 C
2164 05-02-2019 12:15:00 5.8 C 75 % 1.72 C
2165 05-02-2019 12:20:00 5.8 C 75 % 1.72 C
2166 05-02-2019 12:25:00 5.9 C 74 % 1.63 C
2167 05-02-2019 12:30:00 6 C 75 % 1.91 C
2168 05-02-2019 12:35:00 6 C 74 % 1.73 C
2169 05-02-2019 12:40:00 6 C 74 % 1.73 C
2170 05-02-2019 12:45:00 6.1 C 74 % 1.82 C
2171 05-02-2019 12:50:00 6 C 74 % 1.73 C
2172 05-02-2019 12:55:00 6.1 C 74 % 1.82 C
2173 05-02-2019 13:00:00 6.1 C 74 % 1.82 C
2174 05-02-2019 13:05:00 6.1 C 74 % 1.82 C
2175 05-02-2019 13:10:00 6.2 C 73 % 1.73 C
Sensor: Nr:Datum:Temp:Feuchte:Taupunkt:
Aussen-T/F 2176 05-02-2019 13:15:00 6.2 C 74 % 1.92 C
2177 05-02-2019 13:20:00 6.3 C 74 % 2.02 C
2178 05-02-2019 13:25:00 6.3 C 74 % 2.02 C
2179 05-02-2019 13:30:00 6.4 C 73 % 1.92 C
2180 05-02-2019 13:35:00 6.4 C 73 % 1.92 C
2181 05-02-2019 13:40:00 6.4 C 73 % 1.92 C
2182 05-02-2019 13:45:00 6.4 C 73 % 1.92 C
2183 05-02-2019 13:50:00 6.4 C 73 % 1.92 C
2184 05-02-2019 13:55:00 6.5 C 73 % 2.02 C
2185 05-02-2019 14:00:00 6.5 C 72 % 1.83 C
2186 05-02-2019 14:05:00 6.6 C 73 % 2.12 C
2187 05-02-2019 14:10:00 6.6 C 73 % 2.12 C
2188 05-02-2019 14:15:00 6.7 C 73 % 2.21 C
2189 05-02-2019 14:20:00 6.7 C 73 % 2.21 C
2190 05-02-2019 14:25:00 6.7 C 73 % 2.21 C
2191 05-02-2019 14:30:00 6.7 C 73 % 2.21 C
2192 05-02-2019 14:35:00 6.8 C 73 % 2.31 C
2193 05-02-2019 14:40:00 6.8 C 73 % 2.31 C
2194 05-02-2019 14:45:00 6.9 C 73 % 2.4 C
2195 05-02-2019 14:50:00 6.9 C 73 % 2.4 C
2196 05-02-2019 14:55:00 6.9 C 72 % 2.21 C
2197 05-02-2019 15:00:00 7 C 74 % 2.69 C
2198 05-02-2019 15:05:00 7 C 73 % 2.5 C
2199 05-02-2019 15:10:00 7.1 C 73 % 2.6 C
2200 05-02-2019 15:15:00 7.1 C 73 % 2.6 C
Sensor: Nr:Datum:Temp:Feuchte:Taupunkt:
Aussen-T/F 2201 05-02-2019 15:20:00 7 C 74 % 2.69 C
2202 05-02-2019 15:25:00 7.1 C 74 % 2.79 C
2203 05-02-2019 15:30:00 7.1 C 73 % 2.6 C
2204 05-02-2019 15:35:00 7 C 73 % 2.5 C
2205 05-02-2019 15:40:00 7 C 73 % 2.5 C
2206 05-02-2019 15:45:00 7 C 74 % 2.69 C
2207 05-02-2019 15:50:00 7 C 75 % 2.88 C
2208 05-02-2019 15:55:00 7 C 74 % 2.69 C
2209 05-02-2019 16:00:00 7 C 74 % 2.69 C
2210 05-02-2019 16:05:00 6.9 C 74 % 2.6 C
2211 05-02-2019 16:10:00 6.9 C 74 % 2.6 C
2212 05-02-2019 16:15:00 6.9 C 75 % 2.78 C
2213 05-02-2019 16:20:00 6.9 C 75 % 2.78 C
2214 05-02-2019 16:25:00 6.8 C 76 % 2.87 C
2215 05-02-2019 16:30:00 6.8 C 76 % 2.87 C
2216 05-02-2019 16:35:00 6.8 C 77 % 3.06 C
2217 05-02-2019 16:40:00 6.8 C 78 % 3.24 C
2218 05-02-2019 16:45:00 6.8 C 79 % 3.42 C
2219 05-02-2019 16:50:00 6.7 C 80 % 3.5 C
2220 05-02-2019 16:55:00 6.7 C 80 % 3.5 C
2221 05-02-2019 17:00:00 6.6 C 81 % 3.58 C
2222 05-02-2019 17:05:00 6.6 C 81 % 3.58 C
2223 05-02-2019 17:10:00 6.6 C 81 % 3.58 C
2224 05-02-2019 17:15:00 6.4 C 82 % 3.56 C
2225 05-02-2019 17:20:00 6.3 C 82 % 3.46 C
Sensor: Nr:Datum:Temp:Feuchte:Taupunkt:
Aussen-T/F 2226 05-02-2019 17:25:00 6.3 C 83 % 3.63 C
2227 05-02-2019 17:30:00 6.1 C 83 % 3.44 C
2228 05-02-2019 17:35:00 6 C 84 % 3.51 C
2229 05-02-2019 17:40:00 5.9 C 84 % 3.41 C
2230 05-02-2019 17:45:00 5.8 C 84 % 3.31 C
2231 05-02-2019 17:50:00 5.7 C 85 % 3.38 C
2232 05-02-2019 17:55:00 5.6 C 85 % 3.28 C
2233 05-02-2019 18:00:00 5.5 C 85 % 3.18 C
2234 05-02-2019 18:05:00 5.4 C 86 % 3.25 C
2235 05-02-2019 18:10:00 5.3 C 86 % 3.15 C
2236 05-02-2019 18:15:00 5.3 C 86 % 3.15 C
2237 05-02-2019 18:20:00 5.2 C 86 % 3.05 C
2238 05-02-2019 18:25:00 5.2 C 86 % 3.05 C
2239 05-02-2019 18:30:00 5.1 C 86 % 2.96 C
2240 05-02-2019 18:35:00 5.1 C 86 % 2.96 C
2241 05-02-2019 18:40:00 5 C 87 % 3.02 C
2242 05-02-2019 18:45:00 5 C 87 % 3.02 C
2243 05-02-2019 18:50:00 4.9 C 87 % 2.92 C
2244 05-02-2019 18:55:00 4.9 C 87 % 2.92 C
2245 05-02-2019 19:00:00 4.8 C 87 % 2.82 C
2246 05-02-2019 19:05:00 4.8 C 87 % 2.82 C
2247 05-02-2019 19:10:00 4.8 C 87 % 2.82 C
2248 05-02-2019 19:15:00 4.8 C 87 % 2.82 C
2249 05-02-2019 19:20:00 4.8 C 87 % 2.82 C
2250 05-02-2019 19:25:00 4.8 C 88 % 2.99 C
Sensor: Nr:Datum:Temp:Feuchte:Taupunkt:
Aussen-T/F 2251 05-02-2019 19:30:00 4.7 C 88 % 2.89 C
2252 05-02-2019 19:35:00 4.7 C 87 % 2.73 C
2253 05-02-2019 19:40:00 4.7 C 88 % 2.89 C
2254 05-02-2019 19:45:00 4.7 C 88 % 2.89 C
2255 05-02-2019 19:50:00 4.7 C 88 % 2.89 C
2256 05-02-2019 19:55:00 4.7 C 88 % 2.89 C
2257 05-02-2019 20:00:00 4.7 C 88 % 2.89 C
2258 05-02-2019 20:05:00 4.6 C 88 % 2.79 C
2259 05-02-2019 20:10:00 4.6 C 88 % 2.79 C
2260 05-02-2019 20:15:00 4.5 C 88 % 2.69 C
2261 05-02-2019 20:20:00 4.4 C 88 % 2.59 C
2262 05-02-2019 20:25:00 4.4 C 88 % 2.59 C
2263 05-02-2019 20:30:00 4.3 C 88 % 2.49 C
2264 05-02-2019 20:35:00 4.2 C 88 % 2.39 C
2265 05-02-2019 20:40:00 4.2 C 88 % 2.39 C
2266 05-02-2019 20:45:00 4.1 C 89 % 2.45 C
2267 05-02-2019 20:50:00 4.1 C 89 % 2.45 C
2268 05-02-2019 20:55:00 4.1 C 89 % 2.45 C
2269 05-02-2019 21:00:00 4.1 C 89 % 2.45 C
2270 05-02-2019 21:05:00 4.1 C 89 % 2.45 C
2271 05-02-2019 21:10:00 4.2 C 90 % 2.71 C
2272 05-02-2019 21:15:00 4.2 C 90 % 2.71 C
2273 05-02-2019 21:20:00 4.2 C 90 % 2.71 C
2274 05-02-2019 21:25:00 4.2 C 90 % 2.71 C
2275 05-02-2019 21:30:00 4.2 C 90 % 2.71 C
Sensor: Nr:Datum:Temp:Feuchte:Taupunkt:
Aussen-T/F 2276 05-02-2019 21:35:00 4.2 C 90 % 2.71 C
2277 05-02-2019 21:40:00 4.2 C 89 % 2.55 C
2278 05-02-2019 21:45:00 4.1 C 89 % 2.45 C
2279 05-02-2019 21:50:00 3.9 C 88 % 2.1 C
2280 05-02-2019 21:55:00 3.7 C 88 % 1.9 C
2281 05-02-2019 22:00:00 3.4 C 88 % 1.61 C
2282 05-02-2019 22:05:00 3.3 C 89 % 1.67 C
2283 05-02-2019 22:10:00 3.1 C 89 % 1.47 C
2284 05-02-2019 22:15:00 2.9 C 89 % 1.27 C
2285 05-02-2019 22:20:00 2.8 C 89 % 1.17 C
2286 05-02-2019 22:25:00 2.7 C 89 % 1.07 C
2287 05-02-2019 22:30:00 2.6 C 90 % 1.13 C
2288 05-02-2019 22:35:00 2.4 C 90 % 0.93 C
2289 05-02-2019 22:40:00 2.4 C 90 % 0.93 C
2290 05-02-2019 22:45:00 2.3 C 91 % 0.99 C
2291 05-02-2019 22:50:00 2.2 C 91 % 0.89 C
2292 05-02-2019 22:55:00 2.2 C 91 % 0.89 C
2293 05-02-2019 23:00:00 2.1 C 91 % 0.79 C
2294 05-02-2019 23:05:00 2.1 C 91 % 0.79 C
2295 05-02-2019 23:10:00 2 C 92 % 0.84 C
2296 05-02-2019 23:15:00 1.9 C 91 % 0.59 C
2297 05-02-2019 23:20:00 1.9 C 92 % 0.74 C
2298 05-02-2019 23:25:00 1.8 C 92 % 0.64 C
2299 05-02-2019 23:30:00 1.8 C 92 % 0.64 C
2300 05-02-2019 23:35:00 1.7 C 92 % 0.54 C
Sensor: Nr:Datum:Temp:Feuchte:Taupunkt:
Aussen-T/F 2301 05-02-2019 23:40:00 1.6 C 92 % 0.44 C
2302 05-02-2019 23:45:00 1.4 C 92 % 0.25 C
2303 05-02-2019 23:50:00 1.3 C 91 % 0 C
2304 05-02-2019 23:55:00 1.1 C 92 % -0.05 C
2305 06-02-2019 00:00:00 1 C 92 % -0.15 C
2306 06-02-2019 00:05:00 0.8 C 92 % -0.35 C
2307 06-02-2019 00:10:00 0.7 C 92 % -0.45 C
2308 06-02-2019 00:15:00 0.6 C 92 % -0.55 C
2309 06-02-2019 00:20:00 0.5 C 92 % -0.65 C
2310 06-02-2019 00:25:00 0.4 C 93 % -0.6 C
2311 06-02-2019 00:30:00 0.3 C 93 % -0.7 C
2312 06-02-2019 00:35:00 0.3 C 93 % -0.7 C
2313 06-02-2019 00:40:00 0.2 C 93 % -0.79 C
2314 06-02-2019 00:45:00 0.2 C 93 % -0.79 C
2315 06-02-2019 00:50:00 0.1 C 93 % -0.89 C
2316 06-02-2019 00:55:00 0.1 C 93 % -0.89 C
2317 06-02-2019 01:00:00 0 C 94 % -0.85 C
2318 06-02-2019 01:05:00 0 C 94 % -0.85 C
2319 06-02-2019 01:10:00 -0.1 C 94 % -0.95 C
2320 06-02-2019 01:15:00 -0.1 C 94 % -0.95 C
2321 06-02-2019 01:20:00 -0.2 C 94 % -1.05 C
2322 06-02-2019 01:25:00 -0.3 C 94 % -1.15 C
2323 06-02-2019 01:30:00 -0.3 C 94 % -1.15 C
2324 06-02-2019 01:35:00 -0.3 C 94 % -1.15 C
2325 06-02-2019 01:40:00 -0.3 C 94 % -1.15 C
Sensor: Nr:Datum:Temp:Feuchte:Taupunkt:
Aussen-T/F 2326 06-02-2019 01:45:00 -0.3 C 94 % -1.15 C
2327 06-02-2019 01:50:00 -0.4 C 94 % -1.25 C
2328 06-02-2019 01:55:00 -0.4 C 94 % -1.25 C
2329 06-02-2019 02:00:00 -0.5 C 94 % -1.34 C
2330 06-02-2019 02:05:00 -0.6 C 94 % -1.44 C
2331 06-02-2019 02:10:00 -0.6 C 94 % -1.44 C
2332 06-02-2019 02:15:00 -0.6 C 94 % -1.44 C
2333 06-02-2019 02:20:00 -0.6 C 95 % -1.3 C
2334 06-02-2019 02:25:00 -0.6 C 95 % -1.3 C
2335 06-02-2019 02:30:00 -0.7 C 95 % -1.4 C
2336 06-02-2019 02:35:00 -0.7 C 95 % -1.4 C
2337 06-02-2019 02:40:00 -0.7 C 94 % -1.54 C
2338 06-02-2019 02:45:00 -0.8 C 94 % -1.64 C
2339 06-02-2019 02:50:00 -0.8 C 94 % -1.64 C
2340 06-02-2019 02:55:00 -0.9 C 95 % -1.6 C
2341 06-02-2019 03:00:00 -0.9 C 95 % -1.6 C
2342 06-02-2019 03:05:00 -1 C 95 % -1.7 C
2343 06-02-2019 03:10:00 -1.1 C 95 % -1.8 C
2344 06-02-2019 03:15:00 -1.1 C 94 % -1.94 C
2345 06-02-2019 03:20:00 -1.2 C 94 % -2.04 C
2346 06-02-2019 03:25:00 -1.2 C 95 % -1.9 C
2347 06-02-2019 03:30:00 -1.2 C 95 % -1.9 C
2348 06-02-2019 03:35:00 -1.3 C 95 % -2 C
2349 06-02-2019 03:40:00 -1.2 C 95 % -1.9 C
2350 06-02-2019 03:45:00 -1.2 C 95 % -1.9 C
Sensor: Nr:Datum:Temp:Feuchte:Taupunkt:
Aussen-T/F 2351 06-02-2019 03:50:00 -1.3 C 95 % -2 C
2352 06-02-2019 03:55:00 -1.3 C 95 % -2 C
2353 06-02-2019 04:00:00 -1.3 C 95 % -2 C
2354 06-02-2019 04:05:00 -1.4 C 95 % -2.1 C
2355 06-02-2019 04:10:00 -1.4 C 95 % -2.1 C
2356 06-02-2019 04:15:00 -1.4 C 95 % -2.1 C
2357 06-02-2019 04:20:00 -1.3 C 95 % -2 C
2358 06-02-2019 04:25:00 -1.3 C 95 % -2 C
2359 06-02-2019 04:30:00 -1.4 C 95 % -2.1 C
2360 06-02-2019 04:35:00 -1.4 C 95 % -2.1 C
2361 06-02-2019 04:40:00 -1.5 C 95 % -2.19 C
2362 06-02-2019 04:45:00 -1.5 C 95 % -2.19 C
2363 06-02-2019 04:50:00 -1.6 C 95 % -2.29 C
2364 06-02-2019 04:55:00 -1.6 C 95 % -2.29 C
2365 06-02-2019 05:00:00 -1.6 C 95 % -2.29 C
2366 06-02-2019 05:05:00 -1.6 C 95 % -2.29 C
2367 06-02-2019 05:10:00 -1.4 C 95 % -2.1 C
2368 06-02-2019 05:15:00 -1.4 C 95 % -2.1 C
2369 06-02-2019 05:20:00 -1.4 C 95 % -2.1 C
2370 06-02-2019 05:25:00 -1.6 C 95 % -2.29 C
2371 06-02-2019 05:30:00 -1.6 C 95 % -2.29 C
2372 06-02-2019 05:35:00 -1.7 C 95 % -2.39 C
2373 06-02-2019 05:40:00 -1.7 C 95 % -2.39 C
2374 06-02-2019 05:45:00 -1.7 C 95 % -2.39 C
2375 06-02-2019 05:50:00 -1.7 C 95 % -2.39 C
Sensor: Nr:Datum:Temp:Feuchte:Taupunkt:
Aussen-T/F 2376 06-02-2019 05:55:00 -1.7 C 95 % -2.39 C
2377 06-02-2019 06:00:00 -1.7 C 95 % -2.39 C
2378 06-02-2019 06:05:00 -1.7 C 95 % -2.39 C
2379 06-02-2019 06:10:00 -1.7 C 95 % -2.39 C
2380 06-02-2019 06:15:00 -1.7 C 95 % -2.39 C
2381 06-02-2019 06:20:00 -1.8 C 95 % -2.49 C
2382 06-02-2019 06:25:00 -1.8 C 95 % -2.49 C
2383 06-02-2019 06:30:00 -1.8 C 95 % -2.49 C
2384 06-02-2019 06:35:00 -1.8 C 95 % -2.49 C
2385 06-02-2019 06:40:00 -1.8 C 95 % -2.49 C
2386 06-02-2019 06:45:00 -1.8 C 95 % -2.49 C
2387 06-02-2019 06:50:00 -1.8 C 95 % -2.49 C
2388 06-02-2019 06:55:00 -1.8 C 95 % -2.49 C
2389 06-02-2019 07:00:00 -1.8 C 95 % -2.49 C
2390 06-02-2019 07:05:00 -1.9 C 95 % -2.59 C
2391 06-02-2019 07:10:00 -1.9 C 95 % -2.59 C
2392 06-02-2019 07:15:00 -1.9 C 95 % -2.59 C
2393 06-02-2019 07:20:00 -2 C 95 % -2.69 C
2394 06-02-2019 07:25:00 -2.1 C 95 % -2.79 C
2395 06-02-2019 07:30:00 -2.1 C 95 % -2.79 C
2396 06-02-2019 07:35:00 -1.9 C 95 % -2.59 C
2397 06-02-2019 07:40:00 -1.9 C 95 % -2.59 C
2398 06-02-2019 07:45:00 -2 C 95 % -2.69 C
2399 06-02-2019 07:50:00 -2.1 C 95 % -2.79 C
2400 06-02-2019 07:55:00 -2.1 C 95 % -2.79 C
Sensor: Nr:Datum:Temp:Feuchte:Taupunkt:
Aussen-T/F 2401 06-02-2019 08:00:00 -2.2 C 95 % -2.89 C
2402 06-02-2019 08:05:00 -2.2 C 95 % -2.89 C
2403 06-02-2019 08:10:00 -2.3 C 95 % -2.99 C
2404 06-02-2019 08:15:00 -2.3 C 95 % -2.99 C
2405 06-02-2019 08:20:00 -2.3 C 95 % -2.99 C
2406 06-02-2019 08:25:00 -2.2 C 96 % -2.75 C
2407 06-02-2019 08:30:00 -2.2 C 96 % -2.75 C
2408 06-02-2019 08:35:00 -2.2 C 96 % -2.75 C
2409 06-02-2019 08:40:00 -2.2 C 96 % -2.75 C
2410 06-02-2019 08:45:00 -2.2 C 96 % -2.75 C
2411 06-02-2019 08:50:00 -2.2 C 96 % -2.75 C
2412 06-02-2019 08:55:00 -2.1 C 96 % -2.65 C
2413 06-02-2019 09:00:00 -2 C 96 % -2.55 C
2414 06-02-2019 09:05:00 -1.9 C 96 % -2.45 C
2415 06-02-2019 09:10:00 -1.8 C 96 % -2.35 C
2416 06-02-2019 09:15:00 -1.7 C 96 % -2.25 C
2417 06-02-2019 09:20:00 -1.6 C 96 % -2.15 C
2418 06-02-2019 09:25:00 -1.4 C 96 % -1.95 C
2419 06-02-2019 09:30:00 -1.3 C 96 % -1.85 C
2420 06-02-2019 09:35:00 -1.2 C 96 % -1.75 C
2421 06-02-2019 09:40:00 -1.1 C 96 % -1.66 C
2422 06-02-2019 09:45:00 -0.9 C 96 % -1.46 C
2423 06-02-2019 09:50:00 -0.8 C 96 % -1.36 C
2424 06-02-2019 09:55:00 -0.7 C 96 % -1.26 C
2425 06-02-2019 10:00:00 -0.6 C 96 % -1.16 C
Sensor: Nr:Datum:Temp:Feuchte:Taupunkt:
Aussen-T/F 2426 06-02-2019 10:05:00 -0.4 C 96 % -0.96 C
2427 06-02-2019 10:10:00 -0.4 C 97 % -0.82 C
2428 06-02-2019 10:15:00 -0.3 C 96 % -0.86 C
2429 06-02-2019 10:20:00 -0.1 C 96 % -0.66 C
2430 06-02-2019 10:25:00 0.1 C 97 % -0.32 C
2431 06-02-2019 10:30:00 0.2 C 96 % -0.36 C
2432 06-02-2019 10:35:00 0.3 C 96 % -0.26 C
2433 06-02-2019 10:40:00 0.4 C 96 % -0.16 C
2434 06-02-2019 10:45:00 0.6 C 96 % 0.04 C
2435 06-02-2019 10:50:00 0.7 C 96 % 0.14 C
2436 06-02-2019 10:55:00 0.8 C 96 % 0.24 C
2437 06-02-2019 11:00:00 0.9 C 96 % 0.34 C
2438 06-02-2019 11:05:00 1.1 C 96 % 0.54 C
2439 06-02-2019 11:10:00 1.3 C 96 % 0.73 C
2440 06-02-2019 11:15:00 1.4 C 95 % 0.69 C
2441 06-02-2019 11:20:00 1.5 C 95 % 0.79 C
2442 06-02-2019 11:25:00 1.6 C 95 % 0.89 C
2443 06-02-2019 11:30:00 1.8 C 94 % 0.94 C
2444 06-02-2019 11:35:00 1.9 C 94 % 1.04 C
2445 06-02-2019 11:40:00 2 C 94 % 1.14 C
2446 06-02-2019 11:45:00 2.1 C 93 % 1.09 C
2447 06-02-2019 11:50:00 2.2 C 93 % 1.19 C
2448 06-02-2019 11:55:00 2.3 C 92 % 1.14 C
2449 06-02-2019 12:00:00 2.4 C 92 % 1.24 C
2450 06-02-2019 12:05:00 2.5 C 91 % 1.18 C
Sensor: Nr:Datum:Temp:Feuchte:Taupunkt:
Aussen-T/F 2451 06-02-2019 12:10:00 2.6 C 91 % 1.28 C
2452 06-02-2019 12:15:00 2.7 C 91 % 1.38 C
2453 06-02-2019 12:20:00 2.8 C 92 % 1.63 C
2454 06-02-2019 12:25:00 2.9 C 91 % 1.58 C
2455 06-02-2019 12:30:00 3.1 C 91 % 1.78 C
2456 06-02-2019 12:35:00 3.2 C 91 % 1.88 C
2457 06-02-2019 12:40:00 3.3 C 91 % 1.98 C
2458 06-02-2019 12:45:00 3.4 C 91 % 2.07 C
2459 06-02-2019 12:50:00 3.4 C 91 % 2.07 C
2460 06-02-2019 12:55:00 3.5 C 90 % 2.02 C
2461 06-02-2019 13:00:00 3.6 C 90 % 2.12 C
2462 06-02-2019 13:05:00 3.7 C 90 % 2.22 C
2463 06-02-2019 13:10:00 3.7 C 90 % 2.22 C
2464 06-02-2019 13:15:00 3.8 C 90 % 2.31 C
2465 06-02-2019 13:20:00 3.9 C 89 % 2.26 C
2466 06-02-2019 13:25:00 4.1 C 88 % 2.3 C
2467 06-02-2019 13:30:00 4.2 C 87 % 2.23 C
2468 06-02-2019 13:35:00 4.3 C 87 % 2.33 C
2469 06-02-2019 13:40:00 4.4 C 86 % 2.27 C
2470 06-02-2019 13:45:00 4.6 C 84 % 2.14 C
2471 06-02-2019 13:50:00 4.7 C 84 % 2.23 C
2472 06-02-2019 13:55:00 4.8 C 82 % 1.99 C
2473 06-02-2019 14:00:00 4.8 C 81 % 1.82 C
2474 06-02-2019 14:05:00 4.9 C 78 % 1.39 C
2475 06-02-2019 14:10:00 5.1 C 76 % 1.23 C
Sensor: Nr:Datum:Temp:Feuchte:Taupunkt:
Aussen-T/F 2476 06-02-2019 14:15:00 5.3 C 74 % 1.05 C
2477 06-02-2019 14:20:00 5.6 C 74 % 1.34 C
2478 06-02-2019 14:25:00 5.8 C 67 % 0.16 C
2479 06-02-2019 14:30:00 6 C 68 % 0.55 C
2480 06-02-2019 14:35:00 6.1 C 68 % 0.65 C
2481 06-02-2019 14:40:00 6.1 C 68 % 0.65 C
2482 06-02-2019 14:45:00 6.1 C 67 % 0.44 C
2483 06-02-2019 14:50:00 6.1 C 66 % 0.24 C
2484 06-02-2019 14:55:00 6.2 C 66 % 0.33 C
2485 06-02-2019 15:00:00 6.2 C 67 % 0.54 C
2486 06-02-2019 15:05:00 6.3 C 69 % 1.04 C
2487 06-02-2019 15:10:00 6.2 C 69 % 0.95 C
2488 06-02-2019 15:15:00 6.2 C 70 % 1.15 C
2489 06-02-2019 15:20:00 6.2 C 72 % 1.54 C
2490 06-02-2019 15:25:00 6.1 C 72 % 1.44 C
2491 06-02-2019 15:30:00 5.9 C 72 % 1.25 C
2492 06-02-2019 15:35:00 5.8 C 73 % 1.34 C
2493 06-02-2019 15:40:00 5.8 C 75 % 1.72 C
2494 06-02-2019 15:45:00 5.7 C 75 % 1.62 C
2495 06-02-2019 15:50:00 5.7 C 76 % 1.81 C
2496 06-02-2019 15:55:00 5.6 C 77 % 1.89 C
2497 06-02-2019 16:00:00 5.4 C 77 % 1.7 C
2498 06-02-2019 16:05:00 5.4 C 77 % 1.7 C
2499 06-02-2019 16:10:00 5.3 C 78 % 1.78 C
2500 06-02-2019 16:15:00 5.3 C 78 % 1.78 C
Sensor: Nr:Datum:Temp:Feuchte:Taupunkt:
Aussen-T/F 2501 06-02-2019 16:20:00 5.3 C 78 % 1.78 C
2502 06-02-2019 16:25:00 5.2 C 79 % 1.86 C
2503 06-02-2019 16:30:00 5.2 C 78 % 1.69 C
2504 06-02-2019 16:35:00 5.1 C 78 % 1.59 C
2505 06-02-2019 16:40:00 5 C 78 % 1.49 C
2506 06-02-2019 16:45:00 4.9 C 78 % 1.39 C
2507 06-02-2019 16:50:00 4.8 C 79 % 1.47 C
2508 06-02-2019 16:55:00 4.7 C 79 % 1.38 C
2509 06-02-2019 17:00:00 4.6 C 80 % 1.46 C
2510 06-02-2019 17:05:00 4.4 C 80 % 1.26 C
2511 06-02-2019 17:10:00 4.3 C 81 % 1.34 C
2512 06-02-2019 17:15:00 4.1 C 81 % 1.14 C
2513 06-02-2019 17:20:00 4 C 82 % 1.21 C
2514 06-02-2019 17:25:00 3.8 C 82 % 1.02 C
2515 06-02-2019 17:30:00 3.7 C 83 % 1.09 C
2516 06-02-2019 17:35:00 3.6 C 82 % 0.82 C
2517 06-02-2019 17:40:00 3.4 C 82 % 0.63 C
2518 06-02-2019 17:45:00 3.3 C 83 % 0.7 C
2519 06-02-2019 17:50:00 3.2 C 83 % 0.6 C
2520 06-02-2019 17:55:00 3.1 C 84 % 0.67 C
2521 06-02-2019 18:00:00 3.1 C 84 % 0.67 C
2522 06-02-2019 18:05:00 2.9 C 85 % 0.63 C
2523 06-02-2019 18:10:00 2.8 C 85 % 0.54 C
2524 06-02-2019 18:15:00 2.8 C 86 % 0.7 C
2525 06-02-2019 18:20:00 2.7 C 86 % 0.6 C
Sensor: Nr:Datum:Temp:Feuchte:Taupunkt:
Aussen-T/F 2526 06-02-2019 18:25:00 2.7 C 86 % 0.6 C
2527 06-02-2019 18:30:00 2.6 C 86 % 0.5 C
2528 06-02-2019 18:35:00 2.5 C 86 % 0.4 C
2529 06-02-2019 18:40:00 2.5 C 87 % 0.56 C
2530 06-02-2019 18:45:00 2.4 C 87 % 0.46 C
2531 06-02-2019 18:50:00 2.4 C 87 % 0.46 C
2532 06-02-2019 18:55:00 2.3 C 87 % 0.36 C
2533 06-02-2019 19:00:00 2.3 C 88 % 0.52 C
2534 06-02-2019 19:05:00 2.2 C 88 % 0.42 C
2535 06-02-2019 19:10:00 2.1 C 89 % 0.48 C
2536 06-02-2019 19:15:00 2.1 C 89 % 0.48 C
2537 06-02-2019 19:20:00 2.1 C 89 % 0.48 C
2538 06-02-2019 19:25:00 2.1 C 90 % 0.64 C
2539 06-02-2019 19:30:00 2.1 C 90 % 0.64 C
2540 06-02-2019 19:35:00 2.1 C 90 % 0.64 C
2541 06-02-2019 19:40:00 2.2 C 90 % 0.73 C
2542 06-02-2019 19:45:00 2.2 C 90 % 0.73 C
2543 06-02-2019 19:50:00 2.1 C 89 % 0.48 C
2544 06-02-2019 19:55:00 2.1 C 89 % 0.48 C
2545 06-02-2019 20:00:00 2.1 C 89 % 0.48 C
2546 06-02-2019 20:05:00 2.1 C 89 % 0.48 C
2547 06-02-2019 20:10:00 2 C 89 % 0.38 C
2548 06-02-2019 20:15:00 2 C 89 % 0.38 C
2549 06-02-2019 20:20:00 1.9 C 89 % 0.28 C
2550 06-02-2019 20:25:00 1.9 C 89 % 0.28 C
Sensor: Nr:Datum:Temp:Feuchte:Taupunkt:
Aussen-T/F 2551 06-02-2019 20:30:00 1.9 C 90 % 0.44 C
2552 06-02-2019 20:35:00 1.9 C 90 % 0.44 C
2553 06-02-2019 20:40:00 1.9 C 90 % 0.44 C
2554 06-02-2019 20:45:00 1.8 C 90 % 0.34 C
2555 06-02-2019 20:50:00 1.8 C 90 % 0.34 C
2556 06-02-2019 20:55:00 1.7 C 91 % 0.39 C
2557 06-02-2019 21:00:00 1.7 C 91 % 0.39 C
2558 06-02-2019 21:05:00 1.7 C 91 % 0.39 C
2559 06-02-2019 21:10:00 1.7 C 91 % 0.39 C
2560 06-02-2019 21:15:00 1.7 C 91 % 0.39 C
2561 06-02-2019 21:20:00 1.6 C 91 % 0.29 C
2562 06-02-2019 21:25:00 1.6 C 91 % 0.29 C
2563 06-02-2019 21:30:00 1.5 C 91 % 0.19 C
2564 06-02-2019 21:35:00 1.4 C 91 % 0.1 C
2565 06-02-2019 21:40:00 1.4 C 91 % 0.1 C
2566 06-02-2019 21:45:00 1.3 C 91 % 0 C
2567 06-02-2019 21:50:00 1.4 C 91 % 0.1 C
2568 06-02-2019 21:55:00 1.4 C 92 % 0.25 C
2569 06-02-2019 22:00:00 1.3 C 91 % 0 C
2570 06-02-2019 22:05:00 1.3 C 91 % 0 C
2571 06-02-2019 22:10:00 1.2 C 91 % -0.1 C
2572 06-02-2019 22:15:00 1.2 C 92 % 0.05 C
2573 06-02-2019 22:20:00 1.2 C 92 % 0.05 C
2574 06-02-2019 22:25:00 1.2 C 92 % 0.05 C
2575 06-02-2019 22:30:00 1.2 C 92 % 0.05 C
Sensor: Nr:Datum:Temp:Feuchte:Taupunkt:
Aussen-T/F 2576 06-02-2019 22:35:00 1.2 C 92 % 0.05 C
2577 06-02-2019 22:40:00 1.2 C 92 % 0.05 C
2578 06-02-2019 22:45:00 1.2 C 92 % 0.05 C
2579 06-02-2019 22:50:00 1.2 C 92 % 0.05 C
2580 06-02-2019 22:55:00 1.2 C 92 % 0.05 C
2581 06-02-2019 23:00:00 1.2 C 92 % 0.05 C
2582 06-02-2019 23:05:00 1.2 C 92 % 0.05 C
2583 06-02-2019 23:10:00 1.3 C 92 % 0.15 C
2584 06-02-2019 23:15:00 1.3 C 92 % 0.15 C
2585 06-02-2019 23:20:00 1.3 C 92 % 0.15 C
2586 06-02-2019 23:25:00 1.3 C 92 % 0.15 C
2587 06-02-2019 23:30:00 1.3 C 92 % 0.15 C
2588 06-02-2019 23:35:00 1.3 C 92 % 0.15 C
2589 06-02-2019 23:40:00 1.3 C 92 % 0.15 C
2590 06-02-2019 23:45:00 1.3 C 92 % 0.15 C
2591 06-02-2019 23:50:00 1.2 C 92 % 0.05 C
2592 06-02-2019 23:55:00 1.2 C 91 % -0.1 C
2593 07-02-2019 00:00:00 1.1 C 91 % -0.2 C
2594 07-02-2019 00:05:00 1 C 91 % -0.3 C
2595 07-02-2019 00:10:00 0.9 C 91 % -0.4 C
2596 07-02-2019 00:15:00 0.8 C 91 % -0.5 C
2597 07-02-2019 00:20:00 0.8 C 92 % -0.35 C
2598 07-02-2019 00:25:00 0.9 C 92 % -0.25 C
2599 07-02-2019 00:30:00 0.9 C 92 % -0.25 C
2600 07-02-2019 00:35:00 0.9 C 92 % -0.25 C
Sensor: Nr:Datum:Temp:Feuchte:Taupunkt:
Aussen-T/F 2601 07-02-2019 00:40:00 0.9 C 92 % -0.25 C
2602 07-02-2019 00:45:00 0.9 C 92 % -0.25 C
2603 07-02-2019 00:50:00 0.9 C 92 % -0.25 C
2604 07-02-2019 00:55:00 0.9 C 92 % -0.25 C
2605 07-02-2019 01:00:00 1 C 92 % -0.15 C
2606 07-02-2019 01:05:00 1.1 C 92 % -0.05 C
2607 07-02-2019 01:10:00 1.1 C 92 % -0.05 C
2608 07-02-2019 01:15:00 1.1 C 92 % -0.05 C
2609 07-02-2019 01:20:00 1.2 C 92 % 0.05 C
2610 07-02-2019 01:25:00 1.2 C 92 % 0.05 C
2611 07-02-2019 01:30:00 1.3 C 92 % 0.15 C
2612 07-02-2019 01:35:00 1.3 C 92 % 0.15 C
2613 07-02-2019 01:40:00 1.3 C 92 % 0.15 C
2614 07-02-2019 01:45:00 1.3 C 92 % 0.15 C
2615 07-02-2019 01:50:00 1.3 C 92 % 0.15 C
2616 07-02-2019 01:55:00 1.3 C 92 % 0.15 C
2617 07-02-2019 02:00:00 1.3 C 92 % 0.15 C
2618 07-02-2019 02:05:00 1.3 C 92 % 0.15 C
2619 07-02-2019 02:10:00 1.4 C 92 % 0.25 C
2620 07-02-2019 02:15:00 1.4 C 92 % 0.25 C
2621 07-02-2019 02:20:00 1.4 C 91 % 0.1 C
2622 07-02-2019 02:25:00 1.5 C 91 % 0.19 C
2623 07-02-2019 02:30:00 1.5 C 91 % 0.19 C
2624 07-02-2019 02:35:00 1.5 C 91 % 0.19 C
2625 07-02-2019 02:40:00 1.5 C 91 % 0.19 C
Sensor: Nr:Datum:Temp:Feuchte:Taupunkt:
Aussen-T/F 2626 07-02-2019 02:45:00 1.5 C 91 % 0.19 C
2627 07-02-2019 02:50:00 1.5 C 91 % 0.19 C
2628 07-02-2019 02:55:00 1.5 C 92 % 0.35 C
2629 07-02-2019 03:00:00 1.6 C 92 % 0.44 C
2630 07-02-2019 03:05:00 1.6 C 92 % 0.44 C
2631 07-02-2019 03:10:00 1.6 C 92 % 0.44 C
2632 07-02-2019 03:15:00 1.7 C 92 % 0.54 C
2633 07-02-2019 03:20:00 1.7 C 92 % 0.54 C
2634 07-02-2019 03:25:00 1.7 C 92 % 0.54 C
2635 07-02-2019 03:30:00 1.7 C 92 % 0.54 C
2636 07-02-2019 03:35:00 1.8 C 92 % 0.64 C
2637 07-02-2019 03:40:00 1.8 C 91 % 0.49 C
2638 07-02-2019 03:45:00 1.8 C 91 % 0.49 C
2639 07-02-2019 03:50:00 1.9 C 91 % 0.59 C
2640 07-02-2019 03:55:00 1.9 C 91 % 0.59 C
2641 07-02-2019 04:00:00 2 C 91 % 0.69 C
2642 07-02-2019 04:05:00 2.1 C 91 % 0.79 C
2643 07-02-2019 04:10:00 2.2 C 90 % 0.73 C
2644 07-02-2019 04:15:00 2.2 C 90 % 0.73 C
2645 07-02-2019 04:20:00 2.3 C 90 % 0.83 C
2646 07-02-2019 04:25:00 2.3 C 90 % 0.83 C
2647 07-02-2019 04:30:00 2.4 C 90 % 0.93 C
2648 07-02-2019 04:35:00 2.4 C 90 % 0.93 C
2649 07-02-2019 04:40:00 2.4 C 90 % 0.93 C
2650 07-02-2019 04:45:00 2.5 C 91 % 1.18 C
Sensor: Nr:Datum:Temp:Feuchte:Taupunkt:
Aussen-T/F 2651 07-02-2019 04:50:00 2.6 C 91 % 1.28 C
2652 07-02-2019 04:55:00 2.6 C 91 % 1.28 C
2653 07-02-2019 05:00:00 2.6 C 92 % 1.43 C
2654 07-02-2019 05:05:00 2.6 C 92 % 1.43 C
2655 07-02-2019 05:10:00 2.6 C 92 % 1.43 C
2656 07-02-2019 05:15:00 2.6 C 92 % 1.43 C
2657 07-02-2019 05:20:00 2.6 C 92 % 1.43 C
2658 07-02-2019 05:25:00 2.6 C 91 % 1.28 C
2659 07-02-2019 05:30:00 2.6 C 91 % 1.28 C
2660 07-02-2019 05:35:00 2.7 C 90 % 1.23 C
2661 07-02-2019 05:40:00 2.7 C 90 % 1.23 C
2662 07-02-2019 05:45:00 2.7 C 90 % 1.23 C
2663 07-02-2019 05:50:00 2.8 C 90 % 1.33 C
2664 07-02-2019 05:55:00 2.8 C 90 % 1.33 C
2665 07-02-2019 06:00:00 2.8 C 90 % 1.33 C
2666 07-02-2019 06:05:00 2.9 C 90 % 1.43 C
2667 07-02-2019 06:10:00 2.9 C 89 % 1.27 C
2668 07-02-2019 06:15:00 2.9 C 89 % 1.27 C
2669 07-02-2019 06:20:00 3 C 88 % 1.21 C
2670 07-02-2019 06:25:00 3 C 88 % 1.21 C
2671 07-02-2019 06:30:00 3 C 88 % 1.21 C
2672 07-02-2019 06:35:00 3.1 C 88 % 1.31 C
2673 07-02-2019 06:40:00 3.1 C 88 % 1.31 C
2674 07-02-2019 06:45:00 3.1 C 88 % 1.31 C
2675 07-02-2019 06:50:00 3.1 C 88 % 1.31 C
Sensor: Nr:Datum:Temp:Feuchte:Taupunkt:
Aussen-T/F 2676 07-02-2019 06:55:00 3.2 C 88 % 1.41 C
2677 07-02-2019 07:00:00 3.2 C 89 % 1.57 C
2678 07-02-2019 07:05:00 3.3 C 89 % 1.67 C
2679 07-02-2019 07:10:00 3.3 C 89 % 1.67 C
2680 07-02-2019 07:15:00 3.4 C 89 % 1.76 C
2681 07-02-2019 07:20:00 3.4 C 90 % 1.92 C
2682 07-02-2019 07:25:00 3.4 C 89 % 1.76 C
2683 07-02-2019 07:30:00 3.5 C 90 % 2.02 C
2684 07-02-2019 07:35:00 3.6 C 90 % 2.12 C
2685 07-02-2019 07:40:00 3.7 C 89 % 2.06 C
2686 07-02-2019 07:45:00 3.7 C 89 % 2.06 C
2687 07-02-2019 07:50:00 3.7 C 90 % 2.22 C
2688 07-02-2019 07:55:00 3.8 C 90 % 2.31 C
2689 07-02-2019 08:00:00 3.8 C 90 % 2.31 C
2690 07-02-2019 08:05:00 3.9 C 91 % 2.57 C
2691 07-02-2019 08:10:00 3.9 C 91 % 2.57 C
2692 07-02-2019 08:15:00 3.9 C 92 % 2.72 C
2693 07-02-2019 08:20:00 3.9 C 92 % 2.72 C
2694 07-02-2019 08:25:00 4 C 93 % 2.97 C
2695 07-02-2019 08:30:00 4 C 93 % 2.97 C
2696 07-02-2019 08:35:00 4.1 C 93 % 3.07 C
2697 07-02-2019 08:40:00 4.1 C 93 % 3.07 C
2698 07-02-2019 08:45:00 4.1 C 93 % 3.07 C
2699 07-02-2019 08:50:00 4.1 C 94 % 3.22 C
2700 07-02-2019 08:55:00 4.1 C 94 % 3.22 C
Sensor: Nr:Datum:Temp:Feuchte:Taupunkt:
Aussen-T/F 2701 07-02-2019 09:00:00 4.2 C 94 % 3.32 C
2702 07-02-2019 09:05:00 4.2 C 94 % 3.32 C
2703 07-02-2019 09:10:00 4.3 C 94 % 3.42 C
2704 07-02-2019 09:15:00 4.3 C 94 % 3.42 C
2705 07-02-2019 09:20:00 4.4 C 95 % 3.67 C
2706 07-02-2019 09:25:00 4.5 C 95 % 3.77 C
2707 07-02-2019 09:30:00 4.6 C 95 % 3.87 C
2708 07-02-2019 09:35:00 4.6 C 95 % 3.87 C
2709 07-02-2019 09:40:00 4.7 C 95 % 3.97 C
2710 07-02-2019 09:45:00 4.8 C 95 % 4.07 C
2711 07-02-2019 09:50:00 4.9 C 95 % 4.17 C
2712 07-02-2019 09:55:00 4.9 C 95 % 4.17 C
2713 07-02-2019 10:00:00 4.9 C 95 % 4.17 C
2714 07-02-2019 10:05:00 5 C 95 % 4.27 C
2715 07-02-2019 10:10:00 5 C 95 % 4.27 C
2716 07-02-2019 10:15:00 5.1 C 95 % 4.37 C
2717 07-02-2019 10:20:00 5.1 C 95 % 4.37 C
2718 07-02-2019 10:25:00 5.2 C 95 % 4.47 C
2719 07-02-2019 10:30:00 5.2 C 95 % 4.47 C
2720 07-02-2019 10:35:00 5.2 C 95 % 4.47 C
2721 07-02-2019 10:40:00 5.3 C 95 % 4.57 C
2722 07-02-2019 10:45:00 5.3 C 95 % 4.57 C
2723 07-02-2019 10:50:00 5.4 C 96 % 4.81 C
2724 07-02-2019 10:55:00 5.4 C 95 % 4.66 C
2725 07-02-2019 11:00:00 5.5 C 96 % 4.91 C
Sensor: Nr:Datum:Temp:Feuchte:Taupunkt:
Aussen-T/F 2726 07-02-2019 11:05:00 5.4 C 95 % 4.66 C
2727 07-02-2019 11:10:00 5.5 C 96 % 4.91 C
2728 07-02-2019 11:15:00 5.6 C 95 % 4.86 C
2729 07-02-2019 11:20:00 5.7 C 96 % 5.11 C
2730 07-02-2019 11:25:00 5.7 C 96 % 5.11 C
2731 07-02-2019 11:30:00 5.7 C 96 % 5.11 C
2732 07-02-2019 11:35:00 5.7 C 96 % 5.11 C
2733 07-02-2019 11:40:00 5.7 C 95 % 4.96 C
2734 07-02-2019 11:45:00 5.7 C 95 % 4.96 C
2735 07-02-2019 11:50:00 5.8 C 96 % 5.21 C
2736 07-02-2019 11:55:00 6.1 C 96 % 5.51 C
2737 07-02-2019 12:00:00 6.3 C 96 % 5.71 C
2738 07-02-2019 12:05:00 6.4 C 96 % 5.81 C
2739 07-02-2019 12:10:00 6.6 C 96 % 6.01 C
2740 07-02-2019 12:15:00 6.7 C 96 % 6.11 C
2741 07-02-2019 12:20:00 6.7 C 95 % 5.96 C
2742 07-02-2019 12:25:00 6.7 C 95 % 5.96 C
2743 07-02-2019 12:30:00 6.8 C 95 % 6.06 C
2744 07-02-2019 12:35:00 6.9 C 95 % 6.16 C
2745 07-02-2019 12:40:00 6.9 C 95 % 6.16 C
2746 07-02-2019 12:45:00 7 C 94 % 6.1 C
2747 07-02-2019 12:50:00 7.1 C 94 % 6.2 C
2748 07-02-2019 12:55:00 7.2 C 94 % 6.3 C
2749 07-02-2019 13:00:00 7.3 C 93 % 6.25 C
2750 07-02-2019 13:05:00 7.3 C 93 % 6.25 C
Sensor: Nr:Datum:Temp:Feuchte:Taupunkt:
Aussen-T/F 2751 07-02-2019 13:10:00 7.4 C 93 % 6.34 C
2752 07-02-2019 13:15:00 7.5 C 92 % 6.29 C
2753 07-02-2019 13:20:00 7.6 C 91 % 6.23 C
2754 07-02-2019 13:25:00 7.6 C 91 % 6.23 C
2755 07-02-2019 13:30:00 7.6 C 90 % 6.07 C
2756 07-02-2019 13:35:00 7.6 C 90 % 6.07 C
2757 07-02-2019 13:40:00 7.6 C 90 % 6.07 C
2758 07-02-2019 13:45:00 7.6 C 90 % 6.07 C
2759 07-02-2019 13:50:00 7.7 C 89 % 6 C
2760 07-02-2019 13:55:00 7.7 C 89 % 6 C
2761 07-02-2019 14:00:00 7.8 C 89 % 6.1 C
2762 07-02-2019 14:05:00 7.8 C 88 % 5.94 C
2763 07-02-2019 14:10:00 7.8 C 87 % 5.78 C
2764 07-02-2019 14:15:00 7.9 C 87 % 5.87 C
2765 07-02-2019 14:20:00 8 C 86 % 5.81 C
2766 07-02-2019 14:25:00 8.1 C 85 % 5.73 C
2767 07-02-2019 14:30:00 8.1 C 84 % 5.56 C
2768 07-02-2019 14:35:00 8.2 C 84 % 5.66 C
2769 07-02-2019 14:40:00 8.3 C 84 % 5.76 C
2770 07-02-2019 14:45:00 8.3 C 84 % 5.76 C
2771 07-02-2019 14:50:00 8.4 C 82 % 5.51 C
2772 07-02-2019 14:55:00 8.4 C 82 % 5.51 C
2773 07-02-2019 15:00:00 8.4 C 82 % 5.51 C
2774 07-02-2019 15:05:00 8.5 C 82 % 5.61 C
2775 07-02-2019 15:10:00 8.5 C 81 % 5.43 C
Sensor: Nr:Datum:Temp:Feuchte:Taupunkt:
Aussen-T/F 2776 07-02-2019 15:15:00 8.5 C 81 % 5.43 C
2777 07-02-2019 15:20:00 8.5 C 81 % 5.43 C
2778 07-02-2019 15:25:00 8.4 C 81 % 5.33 C
2779 07-02-2019 15:30:00 8.5 C 81 % 5.43 C
2780 07-02-2019 15:35:00 8.5 C 81 % 5.43 C
2781 07-02-2019 15:40:00 8.6 C 81 % 5.53 C
2782 07-02-2019 15:45:00 8.7 C 80 % 5.45 C
2783 07-02-2019 15:50:00 8.7 C 80 % 5.45 C
2784 07-02-2019 15:55:00 8.6 C 79 % 5.17 C
2785 07-02-2019 16:00:00 8.6 C 80 % 5.35 C
2786 07-02-2019 16:05:00 8.6 C 80 % 5.35 C
2787 07-02-2019 16:10:00 8.6 C 80 % 5.35 C
2788 07-02-2019 16:15:00 8.6 C 80 % 5.35 C
2789 07-02-2019 16:20:00 8.7 C 79 % 5.27 C
2790 07-02-2019 16:25:00 8.7 C 78 % 5.08 C
2791 07-02-2019 16:30:00 8.7 C 79 % 5.27 C
2792 07-02-2019 16:35:00 8.7 C 79 % 5.27 C
2793 07-02-2019 16:40:00 8.7 C 79 % 5.27 C
2794 07-02-2019 16:45:00 8.5 C 79 % 5.07 C
2795 07-02-2019 16:50:00 8.4 C 79 % 4.98 C
2796 07-02-2019 16:55:00 8.3 C 79 % 4.88 C
2797 07-02-2019 17:00:00 8.1 C 79 % 4.68 C
2798 07-02-2019 17:05:00 8.1 C 80 % 4.86 C
2799 07-02-2019 17:10:00 7.9 C 80 % 4.67 C
2800 07-02-2019 17:15:00 7.8 C 80 % 4.57 C
Sensor: Nr:Datum:Temp:Feuchte:Taupunkt:
Aussen-T/F 2801 07-02-2019 17:20:00 7.5 C 81 % 4.46 C
2802 07-02-2019 17:25:00 7.4 C 82 % 4.53 C
2803 07-02-2019 17:30:00 7.3 C 83 % 4.61 C
2804 07-02-2019 17:35:00 7.3 C 83 % 4.61 C
2805 07-02-2019 17:40:00 7.2 C 84 % 4.68 C
2806 07-02-2019 17:45:00 7.2 C 84 % 4.68 C
2807 07-02-2019 17:50:00 7.2 C 84 % 4.68 C
2808 07-02-2019 17:55:00 7.2 C 85 % 4.85 C
2809 07-02-2019 18:00:00 7.1 C 84 % 4.58 C
2810 07-02-2019 18:05:00 7.1 C 84 % 4.58 C
2811 07-02-2019 18:10:00 7 C 84 % 4.49 C
2812 07-02-2019 18:15:00 6.9 C 84 % 4.39 C
2813 07-02-2019 18:20:00 6.7 C 83 % 4.02 C
2814 07-02-2019 18:25:00 6.6 C 84 % 4.1 C
2815 07-02-2019 18:30:00 6.5 C 84 % 4 C
2816 07-02-2019 18:35:00 6.4 C 84 % 3.9 C
2817 07-02-2019 18:40:00 6.3 C 84 % 3.8 C
2818 07-02-2019 18:45:00 6.2 C 84 % 3.7 C
2819 07-02-2019 18:50:00 6.2 C 84 % 3.7 C
2820 07-02-2019 18:55:00 6.2 C 83 % 3.53 C
2821 07-02-2019 19:00:00 6.4 C 82 % 3.56 C
2822 07-02-2019 19:05:00 6.7 C 81 % 3.68 C
2823 07-02-2019 19:10:00 6.8 C 81 % 3.77 C
2824 07-02-2019 19:15:00 6.8 C 81 % 3.77 C
2825 07-02-2019 19:20:00 6.7 C 80 % 3.5 C
Sensor: Nr:Datum:Temp:Feuchte:Taupunkt:
Aussen-T/F 2826 07-02-2019 19:25:00 6.7 C 81 % 3.68 C
2827 07-02-2019 19:30:00 6.6 C 81 % 3.58 C
2828 07-02-2019 19:35:00 6.6 C 81 % 3.58 C
2829 07-02-2019 19:40:00 6.7 C 81 % 3.68 C
2830 07-02-2019 19:45:00 6.7 C 81 % 3.68 C
2831 07-02-2019 19:50:00 6.6 C 81 % 3.58 C
2832 07-02-2019 19:55:00 6.5 C 82 % 3.66 C
2833 07-02-2019 20:00:00 6.4 C 83 % 3.73 C
2834 07-02-2019 20:05:00 6.4 C 83 % 3.73 C
2835 07-02-2019 20:10:00 6.4 C 83 % 3.73 C
2836 07-02-2019 20:15:00 6.4 C 83 % 3.73 C
2837 07-02-2019 20:20:00 6.3 C 82 % 3.46 C
2838 07-02-2019 20:25:00 6.3 C 83 % 3.63 C
2839 07-02-2019 20:30:00 6.2 C 83 % 3.53 C
2840 07-02-2019 20:35:00 6.2 C 83 % 3.53 C
2841 07-02-2019 20:40:00 6.2 C 83 % 3.53 C
2842 07-02-2019 20:45:00 6.2 C 83 % 3.53 C
2843 07-02-2019 20:50:00 6.2 C 84 % 3.7 C
2844 07-02-2019 20:55:00 6.2 C 84 % 3.7 C
2845 07-02-2019 21:00:00 6.2 C 84 % 3.7 C
2846 07-02-2019 21:05:00 6.3 C 84 % 3.8 C
2847 07-02-2019 21:10:00 6.5 C 84 % 4 C
2848 07-02-2019 21:15:00 6.7 C 83 % 4.02 C
2849 07-02-2019 21:20:00 6.9 C 83 % 4.22 C
2850 07-02-2019 21:25:00 7.2 C 82 % 4.34 C
Sensor: Nr:Datum:Temp:Feuchte:Taupunkt:
Aussen-T/F 2851 07-02-2019 21:30:00 7.3 C 81 % 4.26 C
2852 07-02-2019 21:35:00 7.3 C 81 % 4.26 C
2853 07-02-2019 21:40:00 7.2 C 81 % 4.16 C
2854 07-02-2019 21:45:00 7.1 C 81 % 4.07 C
2855 07-02-2019 21:50:00 7.1 C 81 % 4.07 C
2856 07-02-2019 21:55:00 7 C 81 % 3.97 C
2857 07-02-2019 22:00:00 6.9 C 81 % 3.87 C
2858 07-02-2019 22:05:00 6.8 C 81 % 3.77 C
2859 07-02-2019 22:10:00 6.7 C 81 % 3.68 C
2860 07-02-2019 22:15:00 6.6 C 81 % 3.58 C
2861 07-02-2019 22:20:00 6.5 C 81 % 3.48 C
2862 07-02-2019 22:25:00 6.4 C 81 % 3.38 C
2863 07-02-2019 22:30:00 6.3 C 82 % 3.46 C
2864 07-02-2019 22:35:00 6.3 C 83 % 3.63 C
2865 07-02-2019 22:40:00 6.2 C 83 % 3.53 C
2866 07-02-2019 22:45:00 6.2 C 84 % 3.7 C
2867 07-02-2019 22:50:00 6.2 C 84 % 3.7 C
2868 07-02-2019 22:55:00 6.2 C 84 % 3.7 C
2869 07-02-2019 23:00:00 6.2 C 84 % 3.7 C
2870 07-02-2019 23:05:00 6.3 C 84 % 3.8 C
2871 07-02-2019 23:10:00 6.4 C 84 % 3.9 C
2872 07-02-2019 23:15:00 6.3 C 84 % 3.8 C
2873 07-02-2019 23:20:00 6.3 C 84 % 3.8 C
2874 07-02-2019 23:25:00 6.3 C 84 % 3.8 C
2875 07-02-2019 23:30:00 6.3 C 85 % 3.97 C
Sensor: Nr:Datum:Temp:Feuchte:Taupunkt:
Aussen-T/F 2876 07-02-2019 23:35:00 6.2 C 84 % 3.7 C
2877 07-02-2019 23:40:00 6.1 C 85 % 3.77 C
2878 07-02-2019 23:45:00 6.1 C 85 % 3.77 C
2879 07-02-2019 23:50:00 6 C 85 % 3.67 C
2880 07-02-2019 23:55:00 5.9 C 85 % 3.58 C
2881 08-02-2019 00:00:00 5.8 C 85 % 3.48 C
2882 08-02-2019 00:05:00 5.7 C 86 % 3.55 C
2883 08-02-2019 00:10:00 5.6 C 86 % 3.45 C
2884 08-02-2019 00:15:00 5.4 C 86 % 3.25 C
2885 08-02-2019 00:20:00 5.3 C 87 % 3.32 C
2886 08-02-2019 00:25:00 5.3 C 88 % 3.48 C
2887 08-02-2019 00:30:00 5.4 C 89 % 3.74 C
2888 08-02-2019 00:35:00 5.4 C 89 % 3.74 C
2889 08-02-2019 00:40:00 5.5 C 88 % 3.67 C
2890 08-02-2019 00:45:00 5.6 C 88 % 3.77 C
2891 08-02-2019 00:50:00 5.6 C 88 % 3.77 C
2892 08-02-2019 00:55:00 5.7 C 88 % 3.87 C
2893 08-02-2019 01:00:00 5.9 C 88 % 4.07 C
2894 08-02-2019 01:05:00 6 C 87 % 4 C
2895 08-02-2019 01:10:00 6.1 C 86 % 3.94 C
2896 08-02-2019 01:15:00 6.2 C 86 % 4.04 C
2897 08-02-2019 01:20:00 6.1 C 85 % 3.77 C
2898 08-02-2019 01:25:00 5.9 C 85 % 3.58 C
2899 08-02-2019 01:30:00 5.8 C 86 % 3.64 C
2900 08-02-2019 01:35:00 5.7 C 86 % 3.55 C
Sensor: Nr:Datum:Temp:Feuchte:Taupunkt:
Aussen-T/F 2901 08-02-2019 01:40:00 5.7 C 87 % 3.71 C
2902 08-02-2019 01:45:00 5.8 C 87 % 3.81 C
2903 08-02-2019 01:50:00 5.8 C 87 % 3.81 C
2904 08-02-2019 01:55:00 5.7 C 87 % 3.71 C
2905 08-02-2019 02:00:00 5.7 C 87 % 3.71 C
2906 08-02-2019 02:05:00 5.7 C 87 % 3.71 C
2907 08-02-2019 02:10:00 5.7 C 87 % 3.71 C
2908 08-02-2019 02:15:00 5.8 C 87 % 3.81 C
2909 08-02-2019 02:20:00 5.8 C 87 % 3.81 C
2910 08-02-2019 02:25:00 5.9 C 87 % 3.91 C
2911 08-02-2019 02:30:00 5.9 C 87 % 3.91 C
2912 08-02-2019 02:35:00 5.9 C 87 % 3.91 C
2913 08-02-2019 02:40:00 5.9 C 87 % 3.91 C
2914 08-02-2019 02:45:00 5.8 C 86 % 3.64 C
2915 08-02-2019 02:50:00 5.8 C 86 % 3.64 C
2916 08-02-2019 02:55:00 5.7 C 87 % 3.71 C
2917 08-02-2019 03:00:00 5.6 C 87 % 3.61 C
2918 08-02-2019 03:05:00 5.6 C 88 % 3.77 C
2919 08-02-2019 03:10:00 5.7 C 88 % 3.87 C
2920 08-02-2019 03:15:00 5.7 C 88 % 3.87 C
2921 08-02-2019 03:20:00 5.8 C 88 % 3.97 C
2922 08-02-2019 03:25:00 5.8 C 88 % 3.97 C
2923 08-02-2019 03:30:00 5.8 C 87 % 3.81 C
2924 08-02-2019 03:35:00 5.8 C 87 % 3.81 C
2925 08-02-2019 03:40:00 5.8 C 87 % 3.81 C
Sensor: Nr:Datum:Temp:Feuchte:Taupunkt:
Aussen-T/F 2926 08-02-2019 03:45:00 5.8 C 87 % 3.81 C
2927 08-02-2019 03:50:00 5.8 C 88 % 3.97 C
2928 08-02-2019 03:55:00 5.8 C 88 % 3.97 C
2929 08-02-2019 04:00:00 5.9 C 88 % 4.07 C
2930 08-02-2019 04:05:00 6.1 C 87 % 4.1 C
2931 08-02-2019 04:10:00 6.2 C 87 % 4.2 C
2932 08-02-2019 04:15:00 6.3 C 86 % 4.14 C
2933 08-02-2019 04:20:00 6.3 C 86 % 4.14 C
2934 08-02-2019 04:25:00 6.3 C 86 % 4.14 C
2935 08-02-2019 04:30:00 6.3 C 86 % 4.14 C
2936 08-02-2019 04:35:00 6.4 C 86 % 4.23 C
2937 08-02-2019 04:40:00 6.4 C 86 % 4.23 C
2938 08-02-2019 04:45:00 6.4 C 86 % 4.23 C
2939 08-02-2019 04:50:00 6.4 C 86 % 4.23 C
2940 08-02-2019 04:55:00 6.4 C 86 % 4.23 C
2941 08-02-2019 05:00:00 6.3 C 86 % 4.14 C
2942 08-02-2019 05:05:00 6.3 C 86 % 4.14 C
2943 08-02-2019 05:10:00 6.3 C 86 % 4.14 C
2944 08-02-2019 05:15:00 6.3 C 86 % 4.14 C
2945 08-02-2019 05:20:00 6.3 C 86 % 4.14 C
2946 08-02-2019 05:25:00 6.4 C 87 % 4.4 C
2947 08-02-2019 05:30:00 6.4 C 86 % 4.23 C
2948 08-02-2019 05:35:00 6.4 C 86 % 4.23 C
2949 08-02-2019 05:40:00 6.5 C 86 % 4.33 C
2950 08-02-2019 05:45:00 6.5 C 86 % 4.33 C
Sensor: Nr:Datum:Temp:Feuchte:Taupunkt:
Aussen-T/F 2951 08-02-2019 05:50:00 6.5 C 86 % 4.33 C
2952 08-02-2019 05:55:00 6.6 C 86 % 4.43 C
2953 08-02-2019 06:00:00 6.5 C 86 % 4.33 C
2954 08-02-2019 06:05:00 6.4 C 86 % 4.23 C
2955 08-02-2019 06:10:00 6.3 C 86 % 4.14 C
2956 08-02-2019 06:15:00 6.3 C 86 % 4.14 C
2957 08-02-2019 06:20:00 6.3 C 87 % 4.3 C
2958 08-02-2019 06:25:00 6.3 C 87 % 4.3 C
2959 08-02-2019 06:30:00 6.3 C 87 % 4.3 C
2960 08-02-2019 06:35:00 6.3 C 87 % 4.3 C
2961 08-02-2019 06:40:00 6.3 C 87 % 4.3 C
2962 08-02-2019 06:45:00 6.3 C 87 % 4.3 C
2963 08-02-2019 06:50:00 6.3 C 87 % 4.3 C
2964 08-02-2019 06:55:00 6.3 C 87 % 4.3 C
2965 08-02-2019 07:00:00 6.3 C 87 % 4.3 C
2966 08-02-2019 07:05:00 6.3 C 87 % 4.3 C
2967 08-02-2019 07:10:00 6.3 C 87 % 4.3 C
2968 08-02-2019 07:15:00 6.3 C 87 % 4.3 C
2969 08-02-2019 07:20:00 6.3 C 87 % 4.3 C
2970 08-02-2019 07:25:00 6.3 C 87 % 4.3 C
2971 08-02-2019 07:30:00 6.3 C 87 % 4.3 C
2972 08-02-2019 07:35:00 6.4 C 87 % 4.4 C
2973 08-02-2019 07:40:00 6.4 C 87 % 4.4 C
2974 08-02-2019 07:45:00 6.5 C 86 % 4.33 C
2975 08-02-2019 07:50:00 6.6 C 86 % 4.43 C
Sensor: Nr:Datum:Temp:Feuchte:Taupunkt:
Aussen-T/F 2976 08-02-2019 07:55:00 6.6 C 86 % 4.43 C
2977 08-02-2019 08:00:00 6.6 C 86 % 4.43 C
2978 08-02-2019 08:05:00 6.6 C 86 % 4.43 C
2979 08-02-2019 08:10:00 6.6 C 86 % 4.43 C
2980 08-02-2019 08:15:00 6.6 C 86 % 4.43 C
2981 08-02-2019 08:20:00 6.6 C 86 % 4.43 C
2982 08-02-2019 08:25:00 6.7 C 86 % 4.53 C
2983 08-02-2019 08:30:00 6.7 C 86 % 4.53 C
2984 08-02-2019 08:35:00 6.7 C 86 % 4.53 C
2985 08-02-2019 08:40:00 6.7 C 86 % 4.53 C
2986 08-02-2019 08:45:00 6.7 C 86 % 4.53 C
2987 08-02-2019 08:50:00 6.8 C 86 % 4.63 C
2988 08-02-2019 08:55:00 6.8 C 86 % 4.63 C
2989 08-02-2019 09:00:00 6.8 C 86 % 4.63 C
2990 08-02-2019 09:05:00 6.9 C 86 % 4.72 C
2991 08-02-2019 09:10:00 6.9 C 86 % 4.72 C
2992 08-02-2019 09:15:00 6.9 C 86 % 4.72 C
2993 08-02-2019 09:20:00 7 C 86 % 4.82 C
2994 08-02-2019 09:25:00 7.1 C 86 % 4.92 C
2995 08-02-2019 09:30:00 7.1 C 86 % 4.92 C
2996 08-02-2019 09:35:00 7.1 C 85 % 4.75 C
2997 08-02-2019 09:40:00 7.2 C 85 % 4.85 C
2998 08-02-2019 09:45:00 7.2 C 85 % 4.85 C
2999 08-02-2019 09:50:00 7.2 C 85 % 4.85 C
3000 08-02-2019 09:55:00 7.2 C 85 % 4.85 C
Sensor: Nr:Datum:Temp:Feuchte:Taupunkt:
Aussen-T/F 3001 08-02-2019 10:00:00 7.2 C 85 % 4.85 C
3002 08-02-2019 10:05:00 7.3 C 85 % 4.95 C
3003 08-02-2019 10:10:00 7.3 C 85 % 4.95 C
3004 08-02-2019 10:15:00 7.3 C 85 % 4.95 C
3005 08-02-2019 10:20:00 7.3 C 85 % 4.95 C
3006 08-02-2019 10:25:00 7.3 C 85 % 4.95 C
3007 08-02-2019 10:30:00 7.4 C 86 % 5.22 C
3008 08-02-2019 10:35:00 7.4 C 85 % 5.05 C
3009 08-02-2019 10:40:00 7.5 C 85 % 5.15 C
3010 08-02-2019 10:45:00 7.6 C 85 % 5.24 C
3011 08-02-2019 10:50:00 7.7 C 85 % 5.34 C
3012 08-02-2019 10:55:00 7.8 C 85 % 5.44 C
3013 08-02-2019 11:00:00 7.9 C 84 % 5.37 C
3014 08-02-2019 11:05:00 8 C 84 % 5.47 C
3015 08-02-2019 11:10:00 8.1 C 84 % 5.56 C
3016 08-02-2019 11:15:00 8.3 C 83 % 5.59 C
3017 08-02-2019 11:20:00 8.3 C 83 % 5.59 C
3018 08-02-2019 11:25:00 8.5 C 83 % 5.78 C
3019 08-02-2019 11:30:00 8.6 C 82 % 5.71 C
3020 08-02-2019 11:35:00 8.7 C 82 % 5.8 C
3021 08-02-2019 11:40:00 8.7 C 81 % 5.63 C
3022 08-02-2019 11:45:00 8.7 C 81 % 5.63 C
3023 08-02-2019 11:50:00 8.8 C 81 % 5.72 C
3024 08-02-2019 11:55:00 8.8 C 81 % 5.72 C
3025 08-02-2019 12:00:00 8.9 C 82 % 6 C
Sensor: Nr:Datum:Temp:Feuchte:Taupunkt:
Aussen-T/F 3026 08-02-2019 12:05:00 9.1 C 80 % 5.84 C
3027 08-02-2019 12:10:00 9.2 C 80 % 5.94 C
3028 08-02-2019 12:15:00 9.3 C 80 % 6.03 C
3029 08-02-2019 12:20:00 9.4 C 80 % 6.13 C
3030 08-02-2019 12:25:00 9.4 C 79 % 5.95 C
3031 08-02-2019 12:30:00 9.6 C 79 % 6.14 C
3032 08-02-2019 12:35:00 9.6 C 79 % 6.14 C
3033 08-02-2019 12:40:00 9.7 C 79 % 6.24 C
3034 08-02-2019 12:45:00 9.7 C 79 % 6.24 C
3035 08-02-2019 12:50:00 9.7 C 78 % 6.06 C
3036 08-02-2019 12:55:00 9.7 C 79 % 6.24 C
3037 08-02-2019 13:00:00 9.7 C 78 % 6.06 C
3038 08-02-2019 13:05:00 9.7 C 79 % 6.24 C
3039 08-02-2019 13:10:00 9.6 C 79 % 6.14 C
3040 08-02-2019 13:15:00 9.5 C 78 % 5.86 C
3041 08-02-2019 13:20:00 9.4 C 79 % 5.95 C
3042 08-02-2019 13:25:00 9.3 C 79 % 5.85 C
3043 08-02-2019 13:30:00 9.2 C 80 % 5.94 C
3044 08-02-2019 13:35:00 9.1 C 80 % 5.84 C
3045 08-02-2019 13:40:00 8.9 C 80 % 5.64 C
3046 08-02-2019 13:45:00 8.8 C 81 % 5.72 C
3047 08-02-2019 13:50:00 8.7 C 81 % 5.63 C
3048 08-02-2019 13:55:00 8.7 C 81 % 5.63 C
3049 08-02-2019 14:00:00 8.6 C 81 % 5.53 C
3050 08-02-2019 14:05:00 8.5 C 81 % 5.43 C
Sensor: Nr:Datum:Temp:Feuchte:Taupunkt:
Aussen-T/F 3051 08-02-2019 14:10:00 8.4 C 81 % 5.33 C
3052 08-02-2019 14:15:00 8.4 C 82 % 5.51 C
3053 08-02-2019 14:20:00 8.4 C 82 % 5.51 C
3054 08-02-2019 14:25:00 8.4 C 82 % 5.51 C
3055 08-02-2019 14:30:00 8.4 C 82 % 5.51 C
3056 08-02-2019 14:35:00 8.4 C 82 % 5.51 C
3057 08-02-2019 14:40:00 8.4 C 82 % 5.51 C
3058 08-02-2019 14:45:00 8.4 C 82 % 5.51 C
3059 08-02-2019 14:50:00 8.3 C 82 % 5.41 C
3060 08-02-2019 14:55:00 8.3 C 82 % 5.41 C
3061 08-02-2019 15:00:00 8.3 C 83 % 5.59 C
3062 08-02-2019 15:05:00 8.3 C 82 % 5.41 C
3063 08-02-2019 15:10:00 8.3 C 82 % 5.41 C
3064 08-02-2019 15:15:00 8.3 C 82 % 5.41 C
3065 08-02-2019 15:20:00 8.3 C 82 % 5.41 C
3066 08-02-2019 15:25:00 8.3 C 83 % 5.59 C
3067 08-02-2019 15:30:00 8.2 C 83 % 5.49 C
3068 08-02-2019 15:35:00 8.2 C 83 % 5.49 C
3069 08-02-2019 15:40:00 8.2 C 83 % 5.49 C
3070 08-02-2019 15:45:00 8.2 C 83 % 5.49 C
3071 08-02-2019 15:50:00 8.2 C 83 % 5.49 C
3072 08-02-2019 15:55:00 8.2 C 83 % 5.49 C
3073 08-02-2019 16:00:00 8.2 C 83 % 5.49 C
3074 08-02-2019 16:05:00 8.2 C 83 % 5.49 C
3075 08-02-2019 16:10:00 8.3 C 83 % 5.59 C
Sensor: Nr:Datum:Temp:Feuchte:Taupunkt:
Aussen-T/F 3076 08-02-2019 16:15:00 8.3 C 83 % 5.59 C
3077 08-02-2019 16:20:00 8.3 C 82 % 5.41 C
3078 08-02-2019 16:25:00 8.3 C 82 % 5.41 C
3079 08-02-2019 16:30:00 8.3 C 83 % 5.59 C
3080 08-02-2019 16:35:00 8.3 C 83 % 5.59 C
3081 08-02-2019 16:40:00 8.3 C 83 % 5.59 C
3082 08-02-2019 16:45:00 8.3 C 83 % 5.59 C
3083 08-02-2019 16:50:00 8.3 C 83 % 5.59 C
3084 08-02-2019 16:55:00 8.3 C 82 % 5.41 C
3085 08-02-2019 17:00:00 8.3 C 82 % 5.41 C
3086 08-02-2019 17:05:00 8.3 C 82 % 5.41 C
3087 08-02-2019 17:10:00 8.3 C 82 % 5.41 C
3088 08-02-2019 17:15:00 8.3 C 82 % 5.41 C
3089 08-02-2019 17:20:00 8.3 C 82 % 5.41 C
3090 08-02-2019 17:25:00 8.2 C 82 % 5.32 C
3091 08-02-2019 17:30:00 8.2 C 82 % 5.32 C
3092 08-02-2019 17:35:00 8.2 C 82 % 5.32 C
3093 08-02-2019 17:40:00 8.2 C 82 % 5.32 C
3094 08-02-2019 17:45:00 8.1 C 82 % 5.22 C
3095 08-02-2019 17:50:00 8.1 C 82 % 5.22 C
3096 08-02-2019 17:55:00 8.1 C 82 % 5.22 C
3097 08-02-2019 18:00:00 8 C 83 % 5.29 C
3098 08-02-2019 18:05:00 8 C 83 % 5.29 C
3099 08-02-2019 18:10:00 7.9 C 83 % 5.2 C
3100 08-02-2019 18:15:00 7.9 C 83 % 5.2 C
Sensor: Nr:Datum:Temp:Feuchte:Taupunkt:
Aussen-T/F 3101 08-02-2019 18:20:00 8 C 83 % 5.29 C
3102 08-02-2019 18:25:00 8 C 83 % 5.29 C
3103 08-02-2019 18:30:00 8.1 C 82 % 5.22 C
3104 08-02-2019 18:35:00 8.1 C 82 % 5.22 C
3105 08-02-2019 18:40:00 8.2 C 82 % 5.32 C
3106 08-02-2019 18:45:00 8.2 C 81 % 5.14 C
3107 08-02-2019 18:50:00 8.2 C 81 % 5.14 C
3108 08-02-2019 18:55:00 8.2 C 82 % 5.32 C
3109 08-02-2019 19:00:00 8.2 C 81 % 5.14 C
3110 08-02-2019 19:05:00 8.2 C 81 % 5.14 C
3111 08-02-2019 19:10:00 8.2 C 81 % 5.14 C
3112 08-02-2019 19:15:00 8.2 C 81 % 5.14 C
3113 08-02-2019 19:20:00 8.2 C 81 % 5.14 C
3114 08-02-2019 19:25:00 8.2 C 81 % 5.14 C
3115 08-02-2019 19:30:00 8.2 C 81 % 5.14 C
3116 08-02-2019 19:35:00 8.2 C 81 % 5.14 C
3117 08-02-2019 19:40:00 8.2 C 81 % 5.14 C
3118 08-02-2019 19:45:00 8.2 C 81 % 5.14 C
3119 08-02-2019 19:50:00 8.3 C 81 % 5.24 C
3120 08-02-2019 19:55:00 8.3 C 81 % 5.24 C
3121 08-02-2019 20:00:00 8.3 C 81 % 5.24 C
3122 08-02-2019 20:05:00 8.3 C 81 % 5.24 C
3123 08-02-2019 20:10:00 8.3 C 80 % 5.06 C
3124 08-02-2019 20:15:00 8.3 C 81 % 5.24 C
3125 08-02-2019 20:20:00 8.2 C 80 % 4.96 C
Sensor: Nr:Datum:Temp:Feuchte:Taupunkt:
Aussen-T/F 3126 08-02-2019 20:25:00 8.2 C 80 % 4.96 C
3127 08-02-2019 20:30:00 8.3 C 80 % 5.06 C
3128 08-02-2019 20:35:00 8.2 C 80 % 4.96 C
3129 08-02-2019 20:40:00 8.2 C 80 % 4.96 C
3130 08-02-2019 20:45:00 8.2 C 80 % 4.96 C
3131 08-02-2019 20:50:00 8.2 C 80 % 4.96 C
3132 08-02-2019 20:55:00 8.1 C 81 % 5.04 C
3133 08-02-2019 21:00:00 8.1 C 80 % 4.86 C
3134 08-02-2019 21:05:00 8.2 C 80 % 4.96 C
3135 08-02-2019 21:10:00 8.2 C 80 % 4.96 C
3136 08-02-2019 21:15:00 8.1 C 80 % 4.86 C
3137 08-02-2019 21:20:00 8.1 C 80 % 4.86 C
3138 08-02-2019 21:25:00 8.1 C 80 % 4.86 C
3139 08-02-2019 21:30:00 8.1 C 81 % 5.04 C
3140 08-02-2019 21:35:00 8.1 C 80 % 4.86 C
3141 08-02-2019 21:40:00 8.1 C 80 % 4.86 C
3142 08-02-2019 21:45:00 8 C 80 % 4.77 C
3143 08-02-2019 21:50:00 7.9 C 80 % 4.67 C
3144 08-02-2019 21:55:00 7.9 C 80 % 4.67 C
3145 08-02-2019 22:00:00 7.9 C 80 % 4.67 C
3146 08-02-2019 22:05:00 7.8 C 80 % 4.57 C
3147 08-02-2019 22:10:00 7.8 C 81 % 4.75 C
3148 08-02-2019 22:15:00 7.7 C 81 % 4.65 C
3149 08-02-2019 22:20:00 7.6 C 81 % 4.55 C
3150 08-02-2019 22:25:00 7.7 C 81 % 4.65 C
Sensor: Nr:Datum:Temp:Feuchte:Taupunkt:
Aussen-T/F 3151 08-02-2019 22:30:00 7.7 C 81 % 4.65 C
3152 08-02-2019 22:35:00 7.8 C 81 % 4.75 C
3153 08-02-2019 22:40:00 7.8 C 81 % 4.75 C
3154 08-02-2019 22:45:00 7.7 C 81 % 4.65 C
3155 08-02-2019 22:50:00 7.8 C 80 % 4.57 C
3156 08-02-2019 22:55:00 7.8 C 80 % 4.57 C
3157 08-02-2019 23:00:00 7.9 C 80 % 4.67 C
3158 08-02-2019 23:05:00 7.9 C 80 % 4.67 C
3159 08-02-2019 23:10:00 8.1 C 80 % 4.86 C
3160 08-02-2019 23:15:00 8.1 C 79 % 4.68 C
3161 08-02-2019 23:20:00 8.1 C 79 % 4.68 C
3162 08-02-2019 23:25:00 8.1 C 79 % 4.68 C
3163 08-02-2019 23:30:00 8.1 C 79 % 4.68 C
3164 08-02-2019 23:35:00 8.1 C 80 % 4.86 C
3165 08-02-2019 23:40:00 8.1 C 79 % 4.68 C
3166 08-02-2019 23:45:00 8.2 C 79 % 4.78 C
3167 08-02-2019 23:50:00 8.2 C 79 % 4.78 C
3168 08-02-2019 23:55:00 8.3 C 78 % 4.7 C
3169 09-02-2019 00:00:00 8.3 C 79 % 4.88 C
3170 09-02-2019 00:05:00 8.2 C 78 % 4.6 C
3171 09-02-2019 00:10:00 8.2 C 79 % 4.78 C
3172 09-02-2019 00:15:00 8.2 C 79 % 4.78 C
3173 09-02-2019 00:20:00 8.2 C 78 % 4.6 C
3174 09-02-2019 00:25:00 8.3 C 78 % 4.7 C
3175 09-02-2019 00:30:00 8.3 C 78 % 4.7 C
Sensor: Nr:Datum:Temp:Feuchte:Taupunkt:
Aussen-T/F 3176 09-02-2019 00:35:00 8.4 C 78 % 4.79 C
3177 09-02-2019 00:40:00 8.4 C 77 % 4.61 C
3178 09-02-2019 00:45:00 8.4 C 77 % 4.61 C
3179 09-02-2019 00:50:00 8.3 C 77 % 4.51 C
3180 09-02-2019 00:55:00 8.3 C 77 % 4.51 C
3181 09-02-2019 01:00:00 8.3 C 78 % 4.7 C
3182 09-02-2019 01:05:00 8.3 C 78 % 4.7 C
3183 09-02-2019 01:10:00 8.2 C 79 % 4.78 C
3184 09-02-2019 01:15:00 8.1 C 82 % 5.22 C
3185 09-02-2019 01:20:00 7.9 C 81 % 4.85 C
3186 09-02-2019 01:25:00 7.8 C 81 % 4.75 C
3187 09-02-2019 01:30:00 7.7 C 82 % 4.83 C
3188 09-02-2019 01:35:00 7.6 C 82 % 4.73 C
3189 09-02-2019 01:40:00 7.5 C 83 % 4.81 C
3190 09-02-2019 01:45:00 7.4 C 83 % 4.71 C
3191 09-02-2019 01:50:00 7.4 C 84 % 4.88 C
3192 09-02-2019 01:55:00 7.3 C 84 % 4.78 C
3193 09-02-2019 02:00:00 7.3 C 85 % 4.95 C
3194 09-02-2019 02:05:00 7.3 C 85 % 4.95 C
3195 09-02-2019 02:10:00 7.3 C 86 % 5.12 C
3196 09-02-2019 02:15:00 7.3 C 86 % 5.12 C
3197 09-02-2019 02:20:00 7.4 C 86 % 5.22 C
3198 09-02-2019 02:25:00 7.4 C 86 % 5.22 C
3199 09-02-2019 02:30:00 7.5 C 86 % 5.31 C
3200 09-02-2019 02:35:00 7.6 C 86 % 5.41 C
Sensor: Nr:Datum:Temp:Feuchte:Taupunkt:
Aussen-T/F 3201 09-02-2019 02:40:00 7.6 C 85 % 5.24 C
3202 09-02-2019 02:45:00 7.6 C 85 % 5.24 C
3203 09-02-2019 02:50:00 7.7 C 85 % 5.34 C
3204 09-02-2019 02:55:00 7.7 C 85 % 5.34 C
3205 09-02-2019 03:00:00 7.7 C 85 % 5.34 C
3206 09-02-2019 03:05:00 7.8 C 85 % 5.44 C
3207 09-02-2019 03:10:00 7.8 C 85 % 5.44 C
3208 09-02-2019 03:15:00 7.9 C 85 % 5.54 C
3209 09-02-2019 03:20:00 8 C 84 % 5.47 C
3210 09-02-2019 03:25:00 8.1 C 84 % 5.56 C
3211 09-02-2019 03:30:00 8.1 C 84 % 5.56 C
3212 09-02-2019 03:35:00 8.2 C 84 % 5.66 C
3213 09-02-2019 03:40:00 8.3 C 84 % 5.76 C
3214 09-02-2019 03:45:00 8.3 C 84 % 5.76 C
3215 09-02-2019 03:50:00 8.3 C 84 % 5.76 C
3216 09-02-2019 03:55:00 8.4 C 83 % 5.69 C
3217 09-02-2019 04:00:00 8.6 C 83 % 5.88 C
3218 09-02-2019 04:05:00 8.7 C 82 % 5.8 C
3219 09-02-2019 04:10:00 8.8 C 81 % 5.72 C
3220 09-02-2019 04:15:00 8.9 C 81 % 5.82 C
3221 09-02-2019 04:20:00 8.9 C 81 % 5.82 C
3222 09-02-2019 04:25:00 9.1 C 81 % 6.02 C
3223 09-02-2019 04:30:00 9.1 C 82 % 6.19 C
3224 09-02-2019 04:35:00 9.1 C 82 % 6.19 C
3225 09-02-2019 04:40:00 9.1 C 83 % 6.37 C
Sensor: Nr:Datum:Temp:Feuchte:Taupunkt:
Aussen-T/F 3226 09-02-2019 04:45:00 8.9 C 83 % 6.17 C
3227 09-02-2019 04:50:00 8.9 C 83 % 6.17 C
3228 09-02-2019 04:55:00 8.8 C 83 % 6.08 C
3229 09-02-2019 05:00:00 8.7 C 83 % 5.98 C
3230 09-02-2019 05:05:00 8.6 C 83 % 5.88 C
3231 09-02-2019 05:10:00 8.5 C 84 % 5.96 C
3232 09-02-2019 05:15:00 8.4 C 84 % 5.86 C
3233 09-02-2019 05:20:00 8.3 C 84 % 5.76 C
3234 09-02-2019 05:25:00 8.3 C 84 % 5.76 C
3235 09-02-2019 05:30:00 8.2 C 84 % 5.66 C
3236 09-02-2019 05:35:00 8.1 C 84 % 5.56 C
3237 09-02-2019 05:40:00 8 C 84 % 5.47 C
3238 09-02-2019 05:45:00 7.9 C 84 % 5.37 C
3239 09-02-2019 05:50:00 8 C 83 % 5.29 C
3240 09-02-2019 05:55:00 8.1 C 83 % 5.39 C
3241 09-02-2019 06:00:00 8.1 C 83 % 5.39 C
3242 09-02-2019 06:05:00 8 C 83 % 5.29 C
3243 09-02-2019 06:10:00 7.9 C 83 % 5.2 C
3244 09-02-2019 06:15:00 7.8 C 83 % 5.1 C
3245 09-02-2019 06:20:00 7.8 C 83 % 5.1 C
3246 09-02-2019 06:25:00 7.7 C 83 % 5 C
3247 09-02-2019 06:30:00 7.7 C 83 % 5 C
3248 09-02-2019 06:35:00 7.7 C 82 % 4.83 C
3249 09-02-2019 06:40:00 7.7 C 82 % 4.83 C
3250 09-02-2019 06:45:00 7.7 C 83 % 5 C
Sensor: Nr:Datum:Temp:Feuchte:Taupunkt:
Aussen-T/F 3251 09-02-2019 06:50:00 7.7 C 83 % 5 C
3252 09-02-2019 06:55:00 7.8 C 83 % 5.1 C
3253 09-02-2019 07:00:00 7.8 C 83 % 5.1 C
3254 09-02-2019 07:05:00 7.8 C 84 % 5.27 C
3255 09-02-2019 07:10:00 7.8 C 84 % 5.27 C
3256 09-02-2019 07:15:00 7.7 C 85 % 5.34 C
3257 09-02-2019 07:20:00 7.7 C 85 % 5.34 C
3258 09-02-2019 07:25:00 7.5 C 86 % 5.31 C
3259 09-02-2019 07:30:00 7.4 C 86 % 5.22 C
3260 09-02-2019 07:35:00 7.3 C 86 % 5.12 C
3261 09-02-2019 07:40:00 7.3 C 87 % 5.28 C
3262 09-02-2019 07:45:00 7.2 C 87 % 5.19 C
3263 09-02-2019 07:50:00 7.2 C 87 % 5.19 C
3264 09-02-2019 07:55:00 7.2 C 87 % 5.19 C
3265 09-02-2019 08:00:00 7.3 C 87 % 5.28 C
3266 09-02-2019 08:05:00 7.4 C 86 % 5.22 C
3267 09-02-2019 08:10:00 7.4 C 86 % 5.22 C
3268 09-02-2019 08:15:00 7.4 C 86 % 5.22 C
3269 09-02-2019 08:20:00 7.3 C 86 % 5.12 C
3270 09-02-2019 08:25:00 7.3 C 87 % 5.28 C
3271 09-02-2019 08:30:00 7.2 C 87 % 5.19 C
3272 09-02-2019 08:35:00 7.1 C 87 % 5.09 C
3273 09-02-2019 08:40:00 7 C 87 % 4.99 C
3274 09-02-2019 08:45:00 7 C 87 % 4.99 C
3275 09-02-2019 08:50:00 7.1 C 86 % 4.92 C
Sensor: Nr:Datum:Temp:Feuchte:Taupunkt:
Aussen-T/F 3276 09-02-2019 08:55:00 7.2 C 85 % 4.85 C
3277 09-02-2019 09:00:00 7.3 C 84 % 4.78 C
3278 09-02-2019 09:05:00 7.3 C 84 % 4.78 C
3279 09-02-2019 09:10:00 7.3 C 84 % 4.78 C
3280 09-02-2019 09:15:00 7.3 C 83 % 4.61 C
3281 09-02-2019 09:20:00 7.6 C 83 % 4.9 C
3282 09-02-2019 09:25:00 7.6 C 83 % 4.9 C
3283 09-02-2019 09:30:00 7.8 C 82 % 4.92 C
3284 09-02-2019 09:35:00 7.9 C 81 % 4.85 C
3285 09-02-2019 09:40:00 8.1 C 81 % 5.04 C
3286 09-02-2019 09:45:00 8.1 C 81 % 5.04 C
3287 09-02-2019 09:50:00 8.2 C 81 % 5.14 C
3288 09-02-2019 09:55:00 8.3 C 81 % 5.24 C
3289 09-02-2019 10:00:00 8.4 C 81 % 5.33 C
3290 09-02-2019 10:05:00 8.6 C 80 % 5.35 C
3291 09-02-2019 10:10:00 8.7 C 80 % 5.45 C
3292 09-02-2019 10:15:00 8.8 C 79 % 5.36 C
3293 09-02-2019 10:20:00 8.9 C 79 % 5.46 C
3294 09-02-2019 10:25:00 8.9 C 79 % 5.46 C
3295 09-02-2019 10:30:00 8.9 C 79 % 5.46 C
3296 09-02-2019 10:35:00 9 C 79 % 5.56 C
3297 09-02-2019 10:40:00 9 C 79 % 5.56 C
3298 09-02-2019 10:45:00 9 C 79 % 5.56 C
3299 09-02-2019 10:50:00 9 C 79 % 5.56 C
3300 09-02-2019 10:55:00 9 C 79 % 5.56 C
Sensor: Nr:Datum:Temp:Feuchte:Taupunkt:
Aussen-T/F 3301 09-02-2019 11:00:00 9.1 C 79 % 5.66 C
3302 09-02-2019 11:05:00 9.1 C 79 % 5.66 C
3303 09-02-2019 11:10:00 9.1 C 79 % 5.66 C
3304 09-02-2019 11:15:00 9.2 C 79 % 5.75 C
3305 09-02-2019 11:20:00 9.2 C 78 % 5.57 C
3306 09-02-2019 11:25:00 9.2 C 78 % 5.57 C
3307 09-02-2019 11:30:00 9.2 C 77 % 5.38 C
3308 09-02-2019 11:35:00 9.3 C 77 % 5.48 C
3309 09-02-2019 11:40:00 9.4 C 77 % 5.58 C
3310 09-02-2019 11:45:00 9.6 C 77 % 5.77 C
3311 09-02-2019 11:50:00 9.6 C 76 % 5.58 C
3312 09-02-2019 11:55:00 9.7 C 76 % 5.68 C
3313 09-02-2019 12:00:00 9.7 C 76 % 5.68 C
3314 09-02-2019 12:05:00 9.7 C 76 % 5.68 C
3315 09-02-2019 12:10:00 9.8 C 75 % 5.59 C
3316 09-02-2019 12:15:00 9.8 C 75 % 5.59 C
3317 09-02-2019 12:20:00 9.8 C 74 % 5.39 C
3318 09-02-2019 12:25:00 9.9 C 74 % 5.49 C
3319 09-02-2019 12:30:00 9.9 C 74 % 5.49 C
3320 09-02-2019 12:35:00 10 C 74 % 5.59 C
3321 09-02-2019 12:40:00 10.1 C 73 % 5.49 C
3322 09-02-2019 12:45:00 10.2 C 73 % 5.58 C
3323 09-02-2019 12:50:00 10.3 C 72 % 5.48 C
3324 09-02-2019 12:55:00 10.5 C 71 % 5.47 C
3325 09-02-2019 13:00:00 10.6 C 71 % 5.57 C
Sensor: Nr:Datum:Temp:Feuchte:Taupunkt:
Aussen-T/F 3326 09-02-2019 13:05:00 10.6 C 70 % 5.36 C
3327 09-02-2019 13:10:00 10.6 C 71 % 5.57 C
3328 09-02-2019 13:15:00 10.6 C 72 % 5.77 C
3329 09-02-2019 13:20:00 10.6 C 71 % 5.57 C
3330 09-02-2019 13:25:00 10.7 C 72 % 5.87 C
3331 09-02-2019 13:30:00 10.7 C 70 % 5.46 C
3332 09-02-2019 13:35:00 10.8 C 69 % 5.35 C
3333 09-02-2019 13:40:00 10.9 C 68 % 5.23 C
3334 09-02-2019 13:45:00 10.9 C 69 % 5.44 C
3335 09-02-2019 13:50:00 10.9 C 69 % 5.44 C
3336 09-02-2019 13:55:00 10.9 C 69 % 5.44 C
3337 09-02-2019 14:00:00 11 C 68 % 5.33 C
3338 09-02-2019 14:05:00 11.1 C 68 % 5.43 C
3339 09-02-2019 14:10:00 11.2 C 68 % 5.52 C
3340 09-02-2019 14:15:00 11.2 C 67 % 5.31 C
3341 09-02-2019 14:20:00 11.2 C 68 % 5.52 C
3342 09-02-2019 14:25:00 11.2 C 68 % 5.52 C
3343 09-02-2019 14:30:00 11.1 C 68 % 5.43 C
3344 09-02-2019 14:35:00 11.1 C 67 % 5.21 C
3345 09-02-2019 14:40:00 11.1 C 68 % 5.43 C
3346 09-02-2019 14:45:00 11.1 C 68 % 5.43 C
3347 09-02-2019 14:50:00 11.1 C 67 % 5.21 C
3348 09-02-2019 14:55:00 11.1 C 67 % 5.21 C
3349 09-02-2019 15:00:00 10.9 C 67 % 5.02 C
3350 09-02-2019 15:05:00 10.9 C 67 % 5.02 C
Sensor: Nr:Datum:Temp:Feuchte:Taupunkt:
Aussen-T/F 3351 09-02-2019 15:10:00 10.8 C 67 % 4.93 C
3352 09-02-2019 15:15:00 10.7 C 67 % 4.83 C
3353 09-02-2019 15:20:00 10.7 C 68 % 5.04 C
3354 09-02-2019 15:25:00 10.6 C 69 % 5.16 C
3355 09-02-2019 15:30:00 10.5 C 69 % 5.06 C
3356 09-02-2019 15:35:00 10.5 C 69 % 5.06 C
3357 09-02-2019 15:40:00 10.5 C 69 % 5.06 C
3358 09-02-2019 15:45:00 10.4 C 69 % 4.97 C
3359 09-02-2019 15:50:00 10.4 C 70 % 5.17 C
3360 09-02-2019 15:55:00 10.4 C 70 % 5.17 C
3361 09-02-2019 16:00:00 10.4 C 69 % 4.97 C
3362 09-02-2019 16:05:00 10.4 C 70 % 5.17 C
3363 09-02-2019 16:10:00 10.3 C 71 % 5.28 C
3364 09-02-2019 16:15:00 10.2 C 72 % 5.39 C
3365 09-02-2019 16:20:00 10.1 C 72 % 5.29 C
3366 09-02-2019 16:25:00 10.1 C 72 % 5.29 C
3367 09-02-2019 16:30:00 10 C 73 % 5.39 C
3368 09-02-2019 16:35:00 9.9 C 73 % 5.29 C
3369 09-02-2019 16:40:00 9.9 C 72 % 5.1 C
3370 09-02-2019 16:45:00 9.9 C 73 % 5.29 C
3371 09-02-2019 16:50:00 9.8 C 73 % 5.2 C
3372 09-02-2019 16:55:00 9.8 C 73 % 5.2 C
3373 09-02-2019 17:00:00 9.8 C 72 % 5 C
3374 09-02-2019 17:05:00 9.7 C 72 % 4.9 C
3375 09-02-2019 17:10:00 9.7 C 73 % 5.1 C
Sensor: Nr:Datum:Temp:Feuchte:Taupunkt:
Aussen-T/F 3376 09-02-2019 17:15:00 9.6 C 74 % 5.2 C
3377 09-02-2019 17:20:00 9.5 C 74 % 5.1 C
3378 09-02-2019 17:25:00 9.4 C 74 % 5.01 C
3379 09-02-2019 17:30:00 9.3 C 74 % 4.91 C
3380 09-02-2019 17:35:00 9.3 C 74 % 4.91 C
3381 09-02-2019 17:40:00 9.2 C 75 % 5.01 C
3382 09-02-2019 17:45:00 9.1 C 75 % 4.91 C
3383 09-02-2019 17:50:00 9 C 75 % 4.81 C
3384 09-02-2019 17:55:00 8.9 C 76 % 4.91 C
3385 09-02-2019 18:00:00 8.8 C 76 % 4.81 C
3386 09-02-2019 18:05:00 8.8 C 77 % 5 C
3387 09-02-2019 18:10:00 8.7 C 77 % 4.9 C
3388 09-02-2019 18:15:00 8.6 C 78 % 4.99 C
3389 09-02-2019 18:20:00 8.6 C 78 % 4.99 C
3390 09-02-2019 18:25:00 8.5 C 78 % 4.89 C
3391 09-02-2019 18:30:00 8.4 C 79 % 4.98 C
3392 09-02-2019 18:35:00 8.4 C 79 % 4.98 C
3393 09-02-2019 18:40:00 8.4 C 78 % 4.79 C
3394 09-02-2019 18:45:00 8.4 C 79 % 4.98 C
3395 09-02-2019 18:50:00 8.4 C 79 % 4.98 C
3396 09-02-2019 18:55:00 8.5 C 80 % 5.25 C
3397 09-02-2019 19:00:00 8.6 C 81 % 5.53 C
3398 09-02-2019 19:05:00 8.4 C 84 % 5.86 C
3399 09-02-2019 19:10:00 8.2 C 85 % 5.83 C
3400 09-02-2019 19:15:00 8 C 86 % 5.81 C
Sensor: Nr:Datum:Temp:Feuchte:Taupunkt:
Aussen-T/F 3401 09-02-2019 19:20:00 7.8 C 86 % 5.61 C
3402 09-02-2019 19:25:00 7.7 C 86 % 5.51 C
3403 09-02-2019 19:30:00 7.7 C 86 % 5.51 C
3404 09-02-2019 19:35:00 7.6 C 86 % 5.41 C
3405 09-02-2019 19:40:00 7.6 C 85 % 5.24 C
3406 09-02-2019 19:45:00 7.6 C 84 % 5.07 C
3407 09-02-2019 19:50:00 7.6 C 84 % 5.07 C
3408 09-02-2019 19:55:00 7.6 C 84 % 5.07 C
3409 09-02-2019 20:00:00 7.5 C 84 % 4.98 C
3410 09-02-2019 20:05:00 7.4 C 84 % 4.88 C
3411 09-02-2019 20:10:00 7.3 C 84 % 4.78 C
3412 09-02-2019 20:15:00 7.2 C 85 % 4.85 C
3413 09-02-2019 20:20:00 7.2 C 85 % 4.85 C
3414 09-02-2019 20:25:00 7.1 C 86 % 4.92 C
3415 09-02-2019 20:30:00 7.1 C 86 % 4.92 C
3416 09-02-2019 20:35:00 7.2 C 87 % 5.19 C
3417 09-02-2019 20:40:00 7.2 C 87 % 5.19 C
3418 09-02-2019 20:45:00 7.2 C 87 % 5.19 C
3419 09-02-2019 20:50:00 7.3 C 87 % 5.28 C
3420 09-02-2019 20:55:00 7.3 C 87 % 5.28 C
3421 09-02-2019 21:00:00 7.4 C 87 % 5.38 C
3422 09-02-2019 21:05:00 7.5 C 86 % 5.31 C
3423 09-02-2019 21:10:00 7.5 C 86 % 5.31 C
3424 09-02-2019 21:15:00 7.5 C 86 % 5.31 C
3425 09-02-2019 21:20:00 7.6 C 86 % 5.41 C
Sensor: Nr:Datum:Temp:Feuchte:Taupunkt:
Aussen-T/F 3426 09-02-2019 21:25:00 7.6 C 86 % 5.41 C
3427 09-02-2019 21:30:00 7.6 C 86 % 5.41 C
3428 09-02-2019 21:35:00 7.6 C 86 % 5.41 C
3429 09-02-2019 21:40:00 7.7 C 86 % 5.51 C
3430 09-02-2019 21:45:00 7.7 C 86 % 5.51 C
3431 09-02-2019 21:50:00 7.8 C 85 % 5.44 C
3432 09-02-2019 21:55:00 7.8 C 85 % 5.44 C
3433 09-02-2019 22:00:00 7.9 C 85 % 5.54 C
3434 09-02-2019 22:05:00 7.9 C 85 % 5.54 C
3435 09-02-2019 22:10:00 7.9 C 85 % 5.54 C
3436 09-02-2019 22:15:00 8.1 C 84 % 5.56 C
3437 09-02-2019 22:20:00 8.1 C 84 % 5.56 C
3438 09-02-2019 22:25:00 8.1 C 84 % 5.56 C
3439 09-02-2019 22:30:00 8.2 C 84 % 5.66 C
3440 09-02-2019 22:35:00 8.3 C 83 % 5.59 C
3441 09-02-2019 22:40:00 8.3 C 83 % 5.59 C
3442 09-02-2019 22:45:00 8.3 C 83 % 5.59 C
3443 09-02-2019 22:50:00 8.4 C 83 % 5.69 C
3444 09-02-2019 22:55:00 8.4 C 82 % 5.51 C
3445 09-02-2019 23:00:00 8.6 C 82 % 5.71 C
3446 09-02-2019 23:05:00 8.6 C 82 % 5.71 C
3447 09-02-2019 23:10:00 8.6 C 82 % 5.71 C
3448 09-02-2019 23:15:00 8.6 C 82 % 5.71 C
3449 09-02-2019 23:20:00 8.6 C 82 % 5.71 C
3450 09-02-2019 23:25:00 8.6 C 82 % 5.71 C
Sensor: Nr:Datum:Temp:Feuchte:Taupunkt:
Aussen-T/F 3451 09-02-2019 23:30:00 8.6 C 82 % 5.71 C
3452 09-02-2019 23:35:00 8.6 C 82 % 5.71 C
3453 09-02-2019 23:40:00 8.6 C 82 % 5.71 C
3454 09-02-2019 23:45:00 8.7 C 82 % 5.8 C
3455 09-02-2019 23:50:00 8.7 C 82 % 5.8 C
3456 09-02-2019 23:55:00 8.7 C 82 % 5.8 C
3457 10-02-2019 00:00:00 8.7 C 82 % 5.8 C
3458 10-02-2019 00:05:00 8.7 C 82 % 5.8 C
3459 10-02-2019 00:10:00 8.7 C 82 % 5.8 C
3460 10-02-2019 00:15:00 8.7 C 82 % 5.8 C
3461 10-02-2019 00:20:00 8.7 C 82 % 5.8 C
3462 10-02-2019 00:25:00 8.7 C 82 % 5.8 C
3463 10-02-2019 00:30:00 8.7 C 82 % 5.8 C
3464 10-02-2019 00:35:00 8.6 C 82 % 5.71 C
3465 10-02-2019 00:40:00 8.6 C 82 % 5.71 C
3466 10-02-2019 00:45:00 8.5 C 82 % 5.61 C
3467 10-02-2019 00:50:00 8.4 C 82 % 5.51 C
3468 10-02-2019 00:55:00 8.4 C 82 % 5.51 C
3469 10-02-2019 01:00:00 8.3 C 83 % 5.59 C
3470 10-02-2019 01:05:00 8.2 C 83 % 5.49 C
3471 10-02-2019 01:10:00 8.1 C 83 % 5.39 C
3472 10-02-2019 01:15:00 8.1 C 83 % 5.39 C
3473 10-02-2019 01:20:00 7.9 C 83 % 5.2 C
3474 10-02-2019 01:25:00 7.9 C 84 % 5.37 C
3475 10-02-2019 01:30:00 7.8 C 84 % 5.27 C
Sensor: Nr:Datum:Temp:Feuchte:Taupunkt:
Aussen-T/F 3476 10-02-2019 01:35:00 7.7 C 84 % 5.17 C
3477 10-02-2019 01:40:00 7.6 C 85 % 5.24 C
3478 10-02-2019 01:45:00 7.5 C 85 % 5.15 C
3479 10-02-2019 01:50:00 7.6 C 85 % 5.24 C
3480 10-02-2019 01:55:00 7.5 C 85 % 5.15 C
3481 10-02-2019 02:00:00 7.4 C 85 % 5.05 C
3482 10-02-2019 02:05:00 7.4 C 85 % 5.05 C
3483 10-02-2019 02:10:00 7.4 C 85 % 5.05 C
3484 10-02-2019 02:15:00 7.3 C 85 % 4.95 C
3485 10-02-2019 02:20:00 7.3 C 85 % 4.95 C
3486 10-02-2019 02:25:00 7.3 C 85 % 4.95 C
3487 10-02-2019 02:30:00 7.4 C 85 % 5.05 C
3488 10-02-2019 02:35:00 7.4 C 85 % 5.05 C
3489 10-02-2019 02:40:00 7.5 C 84 % 4.98 C
3490 10-02-2019 02:45:00 7.6 C 84 % 5.07 C
3491 10-02-2019 02:50:00 7.5 C 84 % 4.98 C
3492 10-02-2019 02:55:00 7.5 C 84 % 4.98 C
3493 10-02-2019 03:00:00 7.5 C 84 % 4.98 C
3494 10-02-2019 03:05:00 7.4 C 84 % 4.88 C
3495 10-02-2019 03:10:00 7.6 C 84 % 5.07 C
3496 10-02-2019 03:15:00 7.7 C 83 % 5 C
3497 10-02-2019 03:20:00 7.7 C 83 % 5 C
3498 10-02-2019 03:25:00 7.7 C 83 % 5 C
3499 10-02-2019 03:30:00 7.6 C 83 % 4.9 C
3500 10-02-2019 03:35:00 7.6 C 84 % 5.07 C
Sensor: Nr:Datum:Temp:Feuchte:Taupunkt:
Aussen-T/F 3501 10-02-2019 03:40:00 7.7 C 84 % 5.17 C
3502 10-02-2019 03:45:00 7.7 C 85 % 5.34 C
3503 10-02-2019 03:50:00 7.6 C 86 % 5.41 C
3504 10-02-2019 03:55:00 7.5 C 87 % 5.48 C
3505 10-02-2019 04:00:00 7.4 C 88 % 5.55 C
3506 10-02-2019 04:05:00 7.3 C 89 % 5.61 C
3507 10-02-2019 04:10:00 7.2 C 90 % 5.67 C
3508 10-02-2019 04:15:00 7.1 C 90 % 5.57 C
3509 10-02-2019 04:20:00 6.9 C 90 % 5.38 C
3510 10-02-2019 04:25:00 6.9 C 90 % 5.38 C
3511 10-02-2019 04:30:00 6.9 C 90 % 5.38 C
3512 10-02-2019 04:35:00 6.9 C 91 % 5.54 C
3513 10-02-2019 04:40:00 6.8 C 91 % 5.44 C
3514 10-02-2019 04:45:00 6.8 C 92 % 5.59 C
3515 10-02-2019 04:50:00 6.8 C 92 % 5.59 C
3516 10-02-2019 04:55:00 6.8 C 92 % 5.59 C
3517 10-02-2019 05:00:00 6.8 C 93 % 5.75 C
3518 10-02-2019 05:05:00 6.8 C 93 % 5.75 C
3519 10-02-2019 05:10:00 6.8 C 93 % 5.75 C
3520 10-02-2019 05:15:00 6.8 C 93 % 5.75 C
3521 10-02-2019 05:20:00 6.8 C 94 % 5.9 C
3522 10-02-2019 05:25:00 6.9 C 94 % 6 C
3523 10-02-2019 05:30:00 6.9 C 94 % 6 C
3524 10-02-2019 05:35:00 7 C 94 % 6.1 C
3525 10-02-2019 05:40:00 7.1 C 94 % 6.2 C
Sensor: Nr:Datum:Temp:Feuchte:Taupunkt:
Aussen-T/F 3526 10-02-2019 05:45:00 7.1 C 94 % 6.2 C
3527 10-02-2019 05:50:00 7.2 C 94 % 6.3 C
3528 10-02-2019 05:55:00 7.3 C 94 % 6.4 C
3529 10-02-2019 06:00:00 7.3 C 94 % 6.4 C
3530 10-02-2019 06:05:00 7.3 C 94 % 6.4 C
3531 10-02-2019 06:10:00 7.3 C 94 % 6.4 C
3532 10-02-2019 06:15:00 7.4 C 94 % 6.5 C
3533 10-02-2019 06:20:00 7.5 C 94 % 6.6 C
3534 10-02-2019 06:25:00 7.6 C 94 % 6.7 C
3535 10-02-2019 06:30:00 7.7 C 94 % 6.8 C
3536 10-02-2019 06:35:00 7.7 C 94 % 6.8 C
3537 10-02-2019 06:40:00 7.8 C 94 % 6.9 C
3538 10-02-2019 06:45:00 7.9 C 94 % 7 C
3539 10-02-2019 06:50:00 7.9 C 94 % 7 C
3540 10-02-2019 06:55:00 8.1 C 94 % 7.19 C
3541 10-02-2019 07:00:00 8.1 C 94 % 7.19 C
3542 10-02-2019 07:05:00 8.1 C 94 % 7.19 C
3543 10-02-2019 07:10:00 8.2 C 94 % 7.29 C
3544 10-02-2019 07:15:00 8.2 C 94 % 7.29 C
3545 10-02-2019 07:20:00 8.3 C 93 % 7.24 C
3546 10-02-2019 07:25:00 8.4 C 93 % 7.34 C
3547 10-02-2019 07:30:00 8.4 C 93 % 7.34 C
3548 10-02-2019 07:35:00 8.5 C 93 % 7.43 C
3549 10-02-2019 07:40:00 8.5 C 93 % 7.43 C
3550 10-02-2019 07:45:00 8.6 C 93 % 7.53 C
Sensor: Nr:Datum:Temp:Feuchte:Taupunkt:
Aussen-T/F 3551 10-02-2019 07:50:00 8.6 C 93 % 7.53 C
3552 10-02-2019 07:55:00 8.7 C 93 % 7.63 C
3553 10-02-2019 08:00:00 8.7 C 92 % 7.47 C
3554 10-02-2019 08:05:00 8.7 C 92 % 7.47 C
3555 10-02-2019 08:10:00 8.7 C 92 % 7.47 C
3556 10-02-2019 08:15:00 8.8 C 92 % 7.57 C
3557 10-02-2019 08:20:00 8.8 C 92 % 7.57 C
3558 10-02-2019 08:25:00 8.8 C 92 % 7.57 C
3559 10-02-2019 08:30:00 8.8 C 92 % 7.57 C
3560 10-02-2019 08:35:00 8.8 C 92 % 7.57 C
3561 10-02-2019 08:40:00 8.8 C 92 % 7.57 C
3562 10-02-2019 08:45:00 8.8 C 91 % 7.41 C
3563 10-02-2019 08:50:00 8.9 C 91 % 7.51 C
3564 10-02-2019 08:55:00 8.9 C 91 % 7.51 C
3565 10-02-2019 09:00:00 9 C 91 % 7.61 C
3566 10-02-2019 09:05:00 9.1 C 90 % 7.55 C
3567 10-02-2019 09:10:00 9.2 C 90 % 7.65 C
3568 10-02-2019 09:15:00 9.3 C 90 % 7.75 C
3569 10-02-2019 09:20:00 9.3 C 89 % 7.58 C
3570 10-02-2019 09:25:00 9.4 C 89 % 7.68 C
3571 10-02-2019 09:30:00 9.6 C 89 % 7.88 C
3572 10-02-2019 09:35:00 9.7 C 89 % 7.98 C
3573 10-02-2019 09:40:00 9.7 C 88 % 7.81 C
3574 10-02-2019 09:45:00 9.8 C 88 % 7.91 C
3575 10-02-2019 09:50:00 9.9 C 88 % 8.01 C
Sensor: Nr:Datum:Temp:Feuchte:Taupunkt:
Aussen-T/F 3576 10-02-2019 09:55:00 9.9 C 88 % 8.01 C
3577 10-02-2019 10:00:00 10 C 88 % 8.11 C
3578 10-02-2019 10:05:00 10.1 C 88 % 8.21 C
3579 10-02-2019 10:10:00 10.1 C 88 % 8.21 C
3580 10-02-2019 10:15:00 10.1 C 88 % 8.21 C
3581 10-02-2019 10:20:00 10.2 C 88 % 8.3 C
3582 10-02-2019 10:25:00 10.2 C 88 % 8.3 C
3583 10-02-2019 10:30:00 10.2 C 88 % 8.3 C
3584 10-02-2019 10:35:00 10.2 C 89 % 8.47 C
3585 10-02-2019 10:40:00 10 C 89 % 8.27 C
3586 10-02-2019 10:45:00 9.9 C 90 % 8.34 C
3587 10-02-2019 10:50:00 9.9 C 90 % 8.34 C
3588 10-02-2019 10:55:00 9.8 C 90 % 8.24 C
3589 10-02-2019 11:00:00 9.8 C 90 % 8.24 C
3590 10-02-2019 11:05:00 9.8 C 90 % 8.24 C
3591 10-02-2019 11:10:00 9.8 C 90 % 8.24 C
3592 10-02-2019 11:15:00 9.7 C 90 % 8.14 C
3593 10-02-2019 11:20:00 9.7 C 91 % 8.3 C
3594 10-02-2019 11:25:00 9.7 C 91 % 8.3 C
3595 10-02-2019 11:30:00 9.7 C 91 % 8.3 C
3596 10-02-2019 11:35:00 9.7 C 91 % 8.3 C
3597 10-02-2019 11:40:00 9.7 C 91 % 8.3 C
3598 10-02-2019 11:45:00 9.7 C 91 % 8.3 C
3599 10-02-2019 11:50:00 9.7 C 91 % 8.3 C
3600 10-02-2019 11:55:00 9.7 C 92 % 8.46 C
Sensor: Nr:Datum:Temp:Feuchte:Taupunkt:
Aussen-T/F 3601 10-02-2019 12:00:00 9.7 C 92 % 8.46 C
3602 10-02-2019 12:05:00 9.7 C 91 % 8.3 C
3603 10-02-2019 12:10:00 9.7 C 91 % 8.3 C
3604 10-02-2019 12:15:00 9.7 C 92 % 8.46 C
3605 10-02-2019 12:20:00 9.7 C 92 % 8.46 C
3606 10-02-2019 12:25:00 9.7 C 92 % 8.46 C
3607 10-02-2019 12:30:00 9.7 C 92 % 8.46 C
3608 10-02-2019 12:35:00 9.6 C 92 % 8.37 C
3609 10-02-2019 12:40:00 9.6 C 92 % 8.37 C
3610 10-02-2019 12:45:00 9.6 C 92 % 8.37 C
3611 10-02-2019 12:50:00 9.6 C 91 % 8.21 C
3612 10-02-2019 12:55:00 9.6 C 91 % 8.21 C
3613 10-02-2019 13:00:00 9.6 C 91 % 8.21 C
3614 10-02-2019 13:05:00 9.6 C 92 % 8.37 C
3615 10-02-2019 13:10:00 9.6 C 92 % 8.37 C
3616 10-02-2019 13:15:00 9.6 C 92 % 8.37 C
3617 10-02-2019 13:20:00 9.6 C 92 % 8.37 C
3618 10-02-2019 13:25:00 9.7 C 93 % 8.62 C
3619 10-02-2019 13:30:00 9.8 C 92 % 8.56 C
3620 10-02-2019 13:35:00 9.9 C 92 % 8.66 C
3621 10-02-2019 13:40:00 9.9 C 92 % 8.66 C
3622 10-02-2019 13:45:00 10 C 91 % 8.6 C
3623 10-02-2019 13:50:00 10 C 91 % 8.6 C
3624 10-02-2019 13:55:00 10 C 91 % 8.6 C
3625 10-02-2019 14:00:00 9.9 C 91 % 8.5 C
Sensor: Nr:Datum:Temp:Feuchte:Taupunkt:
Aussen-T/F 3626 10-02-2019 14:05:00 9.9 C 91 % 8.5 C
3627 10-02-2019 14:10:00 9.8 C 92 % 8.56 C
3628 10-02-2019 14:15:00 9.8 C 92 % 8.56 C
3629 10-02-2019 14:20:00 9.7 C 92 % 8.46 C
3630 10-02-2019 14:25:00 9.6 C 91 % 8.21 C
3631 10-02-2019 14:30:00 9.4 C 91 % 8.01 C
3632 10-02-2019 14:35:00 9.3 C 91 % 7.91 C
3633 10-02-2019 14:40:00 9.2 C 90 % 7.65 C
3634 10-02-2019 14:45:00 9.1 C 89 % 7.39 C
3635 10-02-2019 14:50:00 8.9 C 88 % 7.02 C
3636 10-02-2019 14:55:00 8.9 C 88 % 7.02 C
3637 10-02-2019 15:00:00 9 C 88 % 7.12 C
3638 10-02-2019 15:05:00 8.9 C 87 % 6.86 C
3639 10-02-2019 15:10:00 8.8 C 86 % 6.59 C
3640 10-02-2019 15:15:00 8.8 C 86 % 6.59 C
3641 10-02-2019 15:20:00 8.8 C 87 % 6.76 C
3642 10-02-2019 15:25:00 8.7 C 87 % 6.66 C
3643 10-02-2019 15:30:00 8.7 C 86 % 6.49 C
3644 10-02-2019 15:35:00 8.7 C 86 % 6.49 C
3645 10-02-2019 15:40:00 8.7 C 86 % 6.49 C
3646 10-02-2019 15:45:00 8.7 C 87 % 6.66 C
3647 10-02-2019 15:50:00 8.8 C 87 % 6.76 C
3648 10-02-2019 15:55:00 8.8 C 86 % 6.59 C
3649 10-02-2019 16:00:00 8.7 C 86 % 6.49 C
3650 10-02-2019 16:05:00 8.7 C 86 % 6.49 C
Sensor: Nr:Datum:Temp:Feuchte:Taupunkt:
Aussen-T/F 3651 10-02-2019 16:10:00 8.7 C 87 % 6.66 C
3652 10-02-2019 16:15:00 8.6 C 88 % 6.73 C
3653 10-02-2019 16:20:00 8.4 C 87 % 6.37 C
3654 10-02-2019 16:25:00 8.4 C 87 % 6.37 C
3655 10-02-2019 16:30:00 8.4 C 87 % 6.37 C
3656 10-02-2019 16:35:00 8.4 C 87 % 6.37 C
3657 10-02-2019 16:40:00 8.4 C 87 % 6.37 C
3658 10-02-2019 16:45:00 8.4 C 87 % 6.37 C
3659 10-02-2019 16:50:00 8.4 C 87 % 6.37 C
3660 10-02-2019 16:55:00 8.3 C 86 % 6.1 C
3661 10-02-2019 17:00:00 8.3 C 87 % 6.27 C
3662 10-02-2019 17:05:00 8.2 C 87 % 6.17 C
3663 10-02-2019 17:10:00 8.2 C 87 % 6.17 C
3664 10-02-2019 17:15:00 8.1 C 86 % 5.9 C
3665 10-02-2019 17:20:00 8.1 C 86 % 5.9 C
3666 10-02-2019 17:25:00 8.1 C 87 % 6.07 C
3667 10-02-2019 17:30:00 8 C 86 % 5.81 C
3668 10-02-2019 17:35:00 7.9 C 86 % 5.71 C
3669 10-02-2019 17:40:00 7.9 C 85 % 5.54 C
3670 10-02-2019 17:45:00 7.8 C 86 % 5.61 C
3671 10-02-2019 17:50:00 7.5 C 86 % 5.31 C
3672 10-02-2019 17:55:00 7.3 C 87 % 5.28 C
3673 10-02-2019 18:00:00 7 C 89 % 5.31 C
3674 10-02-2019 18:05:00 6.8 C 89 % 5.12 C
3675 10-02-2019 18:10:00 6.7 C 90 % 5.18 C
Sensor: Nr:Datum:Temp:Feuchte:Taupunkt:
Aussen-T/F 3676 10-02-2019 18:15:00 6.6 C 90 % 5.08 C
3677 10-02-2019 18:20:00 6.4 C 90 % 4.88 C
3678 10-02-2019 18:25:00 6.4 C 91 % 5.04 C
3679 10-02-2019 18:30:00 6.3 C 91 % 4.94 C
3680 10-02-2019 18:35:00 6.3 C 91 % 4.94 C
3681 10-02-2019 18:40:00 6.3 C 90 % 4.78 C
3682 10-02-2019 18:45:00 6.3 C 90 % 4.78 C
3683 10-02-2019 18:50:00 6.3 C 90 % 4.78 C
3684 10-02-2019 18:55:00 6.3 C 90 % 4.78 C
3685 10-02-2019 19:00:00 6.3 C 90 % 4.78 C
3686 10-02-2019 19:05:00 6.3 C 89 % 4.62 C
3687 10-02-2019 19:10:00 6.3 C 89 % 4.62 C
3688 10-02-2019 19:15:00 6.4 C 88 % 4.56 C
3689 10-02-2019 19:20:00 6.4 C 88 % 4.56 C
3690 10-02-2019 19:25:00 6.4 C 88 % 4.56 C
3691 10-02-2019 19:30:00 6.4 C 88 % 4.56 C
3692 10-02-2019 19:35:00 6.4 C 88 % 4.56 C
3693 10-02-2019 19:40:00 6.4 C 88 % 4.56 C
3694 10-02-2019 19:45:00 6.5 C 88 % 4.66 C
3695 10-02-2019 19:50:00 6.6 C 88 % 4.76 C
3696 10-02-2019 19:55:00 6.6 C 87 % 4.6 C
3697 10-02-2019 20:00:00 6.6 C 87 % 4.6 C
3698 10-02-2019 20:05:00 6.7 C 87 % 4.69 C
3699 10-02-2019 20:10:00 6.7 C 87 % 4.69 C
3700 10-02-2019 20:15:00 6.7 C 87 % 4.69 C
Sensor: Nr:Datum:Temp:Feuchte:Taupunkt:
Aussen-T/F 3701 10-02-2019 20:20:00 6.8 C 87 % 4.79 C
3702 10-02-2019 20:25:00 6.8 C 87 % 4.79 C
3703 10-02-2019 20:30:00 6.8 C 87 % 4.79 C
3704 10-02-2019 20:35:00 6.8 C 87 % 4.79 C
3705 10-02-2019 20:40:00 6.8 C 88 % 4.96 C
3706 10-02-2019 20:45:00 6.7 C 89 % 5.02 C
3707 10-02-2019 20:50:00 6.5 C 89 % 4.82 C
3708 10-02-2019 20:55:00 6.3 C 90 % 4.78 C
3709 10-02-2019 21:00:00 6.2 C 91 % 4.84 C
3710 10-02-2019 21:05:00 6.1 C 91 % 4.74 C
3711 10-02-2019 21:10:00 6.1 C 90 % 4.59 C
3712 10-02-2019 21:15:00 6.1 C 90 % 4.59 C
3713 10-02-2019 21:20:00 6.1 C 89 % 4.43 C
3714 10-02-2019 21:25:00 6.1 C 90 % 4.59 C
3715 10-02-2019 21:30:00 6.1 C 89 % 4.43 C
3716 10-02-2019 21:35:00 6.1 C 88 % 4.27 C
3717 10-02-2019 21:40:00 6.2 C 87 % 4.2 C
3718 10-02-2019 21:45:00 6.2 C 86 % 4.04 C
3719 10-02-2019 21:50:00 6.2 C 86 % 4.04 C
3720 10-02-2019 21:55:00 6.2 C 86 % 4.04 C
3721 10-02-2019 22:00:00 6.2 C 85 % 3.87 C
3722 10-02-2019 22:05:00 6.2 C 84 % 3.7 C
3723 10-02-2019 22:10:00 6.3 C 84 % 3.8 C
3724 10-02-2019 22:15:00 6.3 C 83 % 3.63 C
3725 10-02-2019 22:20:00 6.2 C 83 % 3.53 C
Sensor: Nr:Datum:Temp:Feuchte:Taupunkt:
Aussen-T/F 3726 10-02-2019 22:25:00 6.2 C 84 % 3.7 C
3727 10-02-2019 22:30:00 6.2 C 84 % 3.7 C
3728 10-02-2019 22:35:00 6.1 C 84 % 3.61 C
3729 10-02-2019 22:40:00 6.1 C 84 % 3.61 C
3730 10-02-2019 22:45:00 6 C 84 % 3.51 C
3731 10-02-2019 22:50:00 6 C 84 % 3.51 C
3732 10-02-2019 22:55:00 5.9 C 83 % 3.24 C
3733 10-02-2019 23:00:00 5.9 C 84 % 3.41 C
3734 10-02-2019 23:05:00 5.8 C 84 % 3.31 C
3735 10-02-2019 23:10:00 5.8 C 85 % 3.48 C
3736 10-02-2019 23:15:00 5.7 C 85 % 3.38 C
3737 10-02-2019 23:20:00 5.7 C 85 % 3.38 C
3738 10-02-2019 23:25:00 5.6 C 85 % 3.28 C
3739 10-02-2019 23:30:00 5.6 C 85 % 3.28 C
3740 10-02-2019 23:35:00 5.5 C 86 % 3.35 C
3741 10-02-2019 23:40:00 5.4 C 86 % 3.25 C
3742 10-02-2019 23:45:00 5.4 C 86 % 3.25 C
3743 10-02-2019 23:50:00 5.3 C 87 % 3.32 C
3744 10-02-2019 23:55:00 5.3 C 87 % 3.32 C
3745 11-02-2019 00:00:00 5.3 C 87 % 3.32 C
3746 11-02-2019 00:05:00 5.2 C 88 % 3.38 C
3747 11-02-2019 00:10:00 5.1 C 88 % 3.28 C
3748 11-02-2019 00:15:00 5.1 C 88 % 3.28 C
3749 11-02-2019 00:20:00 5.1 C 89 % 3.44 C
3750 11-02-2019 00:25:00 5 C 89 % 3.34 C
Sensor: Nr:Datum:Temp:Feuchte:Taupunkt:
Aussen-T/F 3751 11-02-2019 00:30:00 4.9 C 89 % 3.24 C
3752 11-02-2019 00:35:00 4.9 C 89 % 3.24 C
3753 11-02-2019 00:40:00 4.9 C 90 % 3.4 C
3754 11-02-2019 00:45:00 4.8 C 90 % 3.3 C
3755 11-02-2019 00:50:00 4.7 C 90 % 3.2 C
3756 11-02-2019 00:55:00 4.6 C 91 % 3.26 C
3757 11-02-2019 01:00:00 4.6 C 91 % 3.26 C
3758 11-02-2019 01:05:00 4.4 C 91 % 3.06 C
3759 11-02-2019 01:10:00 4.4 C 92 % 3.22 C
3760 11-02-2019 01:15:00 4.3 C 92 % 3.12 C
3761 11-02-2019 01:20:00 4.3 C 92 % 3.12 C
3762 11-02-2019 01:25:00 4.3 C 93 % 3.27 C
3763 11-02-2019 01:30:00 4.3 C 93 % 3.27 C
3764 11-02-2019 01:35:00 4.2 C 93 % 3.17 C
3765 11-02-2019 01:40:00 4.2 C 93 % 3.17 C
3766 11-02-2019 01:45:00 4.2 C 93 % 3.17 C
3767 11-02-2019 01:50:00 4.2 C 93 % 3.17 C
3768 11-02-2019 01:55:00 4.2 C 93 % 3.17 C
3769 11-02-2019 02:00:00 4.2 C 93 % 3.17 C
3770 11-02-2019 02:05:00 4.2 C 93 % 3.17 C
3771 11-02-2019 02:10:00 4.1 C 93 % 3.07 C
3772 11-02-2019 02:15:00 4 C 93 % 2.97 C
3773 11-02-2019 02:20:00 3.9 C 93 % 2.87 C
3774 11-02-2019 02:25:00 3.9 C 93 % 2.87 C
3775 11-02-2019 02:30:00 3.9 C 93 % 2.87 C
Sensor: Nr:Datum:Temp:Feuchte:Taupunkt:
Aussen-T/F 3776 11-02-2019 02:35:00 3.8 C 93 % 2.77 C
3777 11-02-2019 02:40:00 3.8 C 93 % 2.77 C
3778 11-02-2019 02:45:00 3.8 C 94 % 2.93 C
3779 11-02-2019 02:50:00 3.8 C 94 % 2.93 C
3780 11-02-2019 02:55:00 3.8 C 94 % 2.93 C
3781 11-02-2019 03:00:00 3.9 C 94 % 3.02 C
3782 11-02-2019 03:05:00 3.9 C 94 % 3.02 C
3783 11-02-2019 03:10:00 3.9 C 94 % 3.02 C
3784 11-02-2019 03:15:00 4 C 94 % 3.12 C
3785 11-02-2019 03:20:00 4.1 C 94 % 3.22 C
3786 11-02-2019 03:25:00 4 C 93 % 2.97 C
3787 11-02-2019 03:30:00 3.9 C 93 % 2.87 C
3788 11-02-2019 03:35:00 3.7 C 92 % 2.52 C
3789 11-02-2019 03:40:00 3.6 C 93 % 2.58 C
3790 11-02-2019 03:45:00 3.6 C 93 % 2.58 C
3791 11-02-2019 03:50:00 3.5 C 93 % 2.48 C
3792 11-02-2019 03:55:00 3.5 C 93 % 2.48 C
3793 11-02-2019 04:00:00 3.5 C 93 % 2.48 C
3794 11-02-2019 04:05:00 3.5 C 93 % 2.48 C
3795 11-02-2019 04:10:00 3.6 C 93 % 2.58 C
3796 11-02-2019 04:15:00 3.6 C 94 % 2.73 C
3797 11-02-2019 04:20:00 3.6 C 94 % 2.73 C
3798 11-02-2019 04:25:00 3.6 C 94 % 2.73 C
3799 11-02-2019 04:30:00 3.6 C 94 % 2.73 C
3800 11-02-2019 04:35:00 3.6 C 94 % 2.73 C
Sensor: Nr:Datum:Temp:Feuchte:Taupunkt:
Aussen-T/F 3801 11-02-2019 04:40:00 3.6 C 94 % 2.73 C
3802 11-02-2019 04:45:00 3.7 C 94 % 2.83 C
3803 11-02-2019 04:50:00 3.7 C 94 % 2.83 C
3804 11-02-2019 04:55:00 3.7 C 94 % 2.83 C
3805 11-02-2019 05:00:00 3.8 C 94 % 2.93 C
3806 11-02-2019 05:05:00 3.8 C 94 % 2.93 C
3807 11-02-2019 05:10:00 3.8 C 94 % 2.93 C
3808 11-02-2019 05:15:00 3.9 C 94 % 3.02 C
3809 11-02-2019 05:20:00 3.9 C 94 % 3.02 C
3810 11-02-2019 05:25:00 3.9 C 94 % 3.02 C
3811 11-02-2019 05:30:00 3.9 C 94 % 3.02 C
3812 11-02-2019 05:35:00 3.9 C 94 % 3.02 C
3813 11-02-2019 05:40:00 3.9 C 94 % 3.02 C
3814 11-02-2019 05:45:00 3.8 C 94 % 2.93 C
3815 11-02-2019 05:50:00 3.8 C 94 % 2.93 C
3816 11-02-2019 05:55:00 3.8 C 94 % 2.93 C
3817 11-02-2019 06:00:00 3.8 C 94 % 2.93 C
3818 11-02-2019 06:05:00 3.8 C 94 % 2.93 C
3819 11-02-2019 06:10:00 3.8 C 94 % 2.93 C
3820 11-02-2019 06:15:00 3.8 C 94 % 2.93 C
3821 11-02-2019 06:20:00 3.8 C 94 % 2.93 C
3822 11-02-2019 06:25:00 3.8 C 94 % 2.93 C
3823 11-02-2019 06:30:00 3.8 C 94 % 2.93 C
3824 11-02-2019 06:35:00 3.8 C 94 % 2.93 C
3825 11-02-2019 06:40:00 3.8 C 94 % 2.93 C
Sensor: Nr:Datum:Temp:Feuchte:Taupunkt:
Aussen-T/F 3826 11-02-2019 06:45:00 3.9 C 94 % 3.02 C
3827 11-02-2019 06:50:00 3.9 C 94 % 3.02 C
3828 11-02-2019 06:55:00 3.9 C 94 % 3.02 C
3829 11-02-2019 07:00:00 3.9 C 94 % 3.02 C
3830 11-02-2019 07:05:00 3.9 C 94 % 3.02 C
3831 11-02-2019 07:10:00 4 C 94 % 3.12 C
3832 11-02-2019 07:15:00 4 C 93 % 2.97 C
3833 11-02-2019 07:20:00 4.1 C 93 % 3.07 C
3834 11-02-2019 07:25:00 4.1 C 93 % 3.07 C
3835 11-02-2019 07:30:00 4.1 C 93 % 3.07 C
3836 11-02-2019 07:35:00 4.1 C 92 % 2.92 C
3837 11-02-2019 07:40:00 4.1 C 92 % 2.92 C
3838 11-02-2019 07:45:00 4.1 C 92 % 2.92 C
3839 11-02-2019 07:50:00 4.2 C 92 % 3.02 C
3840 11-02-2019 07:55:00 4.2 C 91 % 2.87 C
3841 11-02-2019 08:00:00 4.2 C 91 % 2.87 C
3842 11-02-2019 08:05:00 4.2 C 91 % 2.87 C
3843 11-02-2019 08:10:00 4.2 C 91 % 2.87 C
3844 11-02-2019 08:15:00 4.1 C 91 % 2.77 C
3845 11-02-2019 08:20:00 4.1 C 91 % 2.77 C
3846 11-02-2019 08:25:00 4 C 91 % 2.67 C
3847 11-02-2019 08:30:00 4 C 91 % 2.67 C
3848 11-02-2019 08:35:00 4 C 91 % 2.67 C
3849 11-02-2019 08:40:00 4 C 91 % 2.67 C
3850 11-02-2019 08:45:00 4.1 C 91 % 2.77 C
Sensor: Nr:Datum:Temp:Feuchte:Taupunkt:
Aussen-T/F 3851 11-02-2019 08:50:00 4.1 C 91 % 2.77 C
3852 11-02-2019 08:55:00 4.1 C 91 % 2.77 C
3853 11-02-2019 09:00:00 4.1 C 91 % 2.77 C
3854 11-02-2019 09:05:00 4.1 C 91 % 2.77 C
3855 11-02-2019 09:10:00 4.1 C 91 % 2.77 C
3856 11-02-2019 09:15:00 4.1 C 90 % 2.61 C
3857 11-02-2019 09:20:00 4.1 C 90 % 2.61 C
3858 11-02-2019 09:25:00 4.2 C 90 % 2.71 C
3859 11-02-2019 09:30:00 4.2 C 90 % 2.71 C
3860 11-02-2019 09:35:00 4.2 C 90 % 2.71 C
3861 11-02-2019 09:40:00 4.3 C 90 % 2.81 C
3862 11-02-2019 09:45:00 4.3 C 89 % 2.65 C
3863 11-02-2019 09:50:00 4.4 C 89 % 2.75 C
3864 11-02-2019 09:55:00 4.4 C 88 % 2.59 C
3865 11-02-2019 10:00:00 4.5 C 88 % 2.69 C
3866 11-02-2019 10:05:00 4.6 C 88 % 2.79 C
3867 11-02-2019 10:10:00 4.7 C 88 % 2.89 C
3868 11-02-2019 10:15:00 4.8 C 88 % 2.99 C
3869 11-02-2019 10:20:00 4.9 C 88 % 3.08 C
3870 11-02-2019 10:25:00 5 C 87 % 3.02 C
3871 11-02-2019 10:30:00 5.1 C 86 % 2.96 C
3872 11-02-2019 10:35:00 5.2 C 85 % 2.89 C
3873 11-02-2019 10:40:00 5.2 C 84 % 2.72 C
3874 11-02-2019 10:45:00 5.2 C 84 % 2.72 C
3875 11-02-2019 10:50:00 5.3 C 85 % 2.99 C
Sensor: Nr:Datum:Temp:Feuchte:Taupunkt:
Aussen-T/F 3876 11-02-2019 10:55:00 5.3 C 85 % 2.99 C
3877 11-02-2019 11:00:00 5.5 C 85 % 3.18 C
3878 11-02-2019 11:05:00 5.7 C 84 % 3.21 C
3879 11-02-2019 11:10:00 5.7 C 83 % 3.04 C
3880 11-02-2019 11:15:00 5.8 C 83 % 3.14 C
3881 11-02-2019 11:20:00 5.9 C 82 % 3.07 C
3882 11-02-2019 11:25:00 5.9 C 82 % 3.07 C
3883 11-02-2019 11:30:00 5.9 C 81 % 2.9 C
3884 11-02-2019 11:35:00 6.1 C 81 % 3.09 C
3885 11-02-2019 11:40:00 6.1 C 82 % 3.26 C
3886 11-02-2019 11:45:00 6.2 C 80 % 3.01 C
3887 11-02-2019 11:50:00 6.2 C 81 % 3.19 C
3888 11-02-2019 11:55:00 6.3 C 81 % 3.29 C
3889 11-02-2019 12:00:00 6.3 C 80 % 3.11 C
3890 11-02-2019 12:05:00 6.4 C 78 % 2.85 C
3891 11-02-2019 12:10:00 6.5 C 79 % 3.13 C
3892 11-02-2019 12:15:00 6.6 C 78 % 3.05 C
3893 11-02-2019 12:20:00 6.6 C 78 % 3.05 C
3894 11-02-2019 12:25:00 6.6 C 78 % 3.05 C
3895 11-02-2019 12:30:00 6.6 C 78 % 3.05 C
3896 11-02-2019 12:35:00 6.7 C 78 % 3.14 C
3897 11-02-2019 12:40:00 6.7 C 79 % 3.32 C
3898 11-02-2019 12:45:00 6.8 C 78 % 3.24 C
3899 11-02-2019 12:50:00 6.8 C 79 % 3.42 C